<?xml version="1.0" encoding="UTF-8" standalone="no" ?>
<gpx xmlns="http://www.topografix.com/GPX/1/1" xmlns:xsi="http://www.w3.org/2001/XMLSchema-instance" xsi:schemaLocation="http://www.topografix.com/GPX/1/1 http://www.topografix.com/GPX/1/1/gpx.xsd" version="1.1" creator="VisuGPX - https://www.visugpx.com">
  <metadata>
    <name>Via Rhôna 2018</name>
    <desc><![CDATA[Ma ViaRhôna depuis Annecy jusqu'à la plage de Piémanson en 4 jours.
11/12/13/14 Mai 2018]]></desc>
  </metadata>
  <wpt lat="45.89897" lon="6.12964">
    <ele>452</ele>
    <name><![CDATA[Annecy]]></name>
  </wpt>
  <wpt lat="45.93371" lon="5.83679">
    <ele>255</ele>
    <name><![CDATA[2410 D991]]></name>
  </wpt>
  <wpt lat="43.67945" lon="4.61781">
    <ele>8</ele>
    <name><![CDATA[21-23 Avenue de la Camargue]]></name>
  </wpt>
  <wpt lat="43.34865" lon="4.7838">
    <ele>1</ele>
    <name><![CDATA[Plage de Piemanson]]></name>
  </wpt>
  <trk>
    <name><![CDATA[20180516133043-ZSSil]]></name>
    <trkseg>
      <trkpt lat="45.80762" lon="5.0785">
        <ele>213</ele>
      </trkpt>
      <trkpt lat="45.80803" lon="5.07836">
        <ele>212</ele>
        <time>2013-04-22T13:14:30Z</time>
      </trkpt>
      <trkpt lat="45.80815" lon="5.07833">
        <ele>211</ele>
        <time>2013-04-22T13:14:34Z</time>
      </trkpt>
      <trkpt lat="45.80814" lon="5.07833">
        <ele>211</ele>
        <time>2013-04-22T13:14:39Z</time>
      </trkpt>
      <trkpt lat="45.80814" lon="5.07833">
        <ele>211</ele>
        <time>2013-04-22T13:14:53Z</time>
      </trkpt>
      <trkpt lat="45.80814" lon="5.07833">
        <ele>211</ele>
        <time>2013-04-22T13:15:07Z</time>
      </trkpt>
      <trkpt lat="45.80814" lon="5.07833">
        <ele>211</ele>
        <time>2013-04-22T13:15:20Z</time>
      </trkpt>
      <trkpt lat="45.80821" lon="5.07831">
        <ele>211</ele>
        <time>2013-04-22T13:15:25Z</time>
      </trkpt>
      <trkpt lat="45.80828" lon="5.07829">
        <ele>211</ele>
        <time>2013-04-22T13:15:27Z</time>
      </trkpt>
      <trkpt lat="45.80832" lon="5.07828">
        <ele>211</ele>
        <time>2013-04-22T13:15:28Z</time>
      </trkpt>
      <trkpt lat="45.80837" lon="5.07827">
        <ele>211</ele>
        <time>2013-04-22T13:15:29Z</time>
      </trkpt>
      <trkpt lat="45.80842" lon="5.07826">
        <ele>210</ele>
        <time>2013-04-22T13:15:30Z</time>
      </trkpt>
      <trkpt lat="45.80847" lon="5.07824">
        <ele>210</ele>
        <time>2013-04-22T13:15:31Z</time>
      </trkpt>
      <trkpt lat="45.80865" lon="5.0782">
        <ele>209</ele>
        <time>2013-04-22T13:15:34Z</time>
      </trkpt>
      <trkpt lat="45.80871" lon="5.07818">
        <ele>209</ele>
        <time>2013-04-22T13:15:35Z</time>
      </trkpt>
      <trkpt lat="45.80878" lon="5.07816">
        <ele>209</ele>
        <time>2013-04-22T13:15:36Z</time>
      </trkpt>
      <trkpt lat="45.80885" lon="5.07815">
        <ele>209</ele>
        <time>2013-04-22T13:15:37Z</time>
      </trkpt>
      <trkpt lat="45.80893" lon="5.07811">
        <ele>208</ele>
        <time>2013-04-22T13:15:38Z</time>
      </trkpt>
      <trkpt lat="45.80901" lon="5.07805">
        <ele>208</ele>
        <time>2013-04-22T13:15:39Z</time>
      </trkpt>
      <trkpt lat="45.80908" lon="5.07799">
        <ele>208</ele>
        <time>2013-04-22T13:15:40Z</time>
      </trkpt>
      <trkpt lat="45.80917" lon="5.07795">
        <ele>208</ele>
        <time>2013-04-22T13:15:41Z</time>
      </trkpt>
      <trkpt lat="45.80925" lon="5.07793">
        <ele>203</ele>
        <time>2013-04-22T13:15:42Z</time>
      </trkpt>
      <trkpt lat="45.80933" lon="5.07792">
        <ele>202</ele>
        <time>2013-04-22T13:15:43Z</time>
      </trkpt>
      <trkpt lat="45.80941" lon="5.07795">
        <ele>202</ele>
        <time>2013-04-22T13:15:44Z</time>
      </trkpt>
      <trkpt lat="45.80949" lon="5.07798">
        <ele>201</ele>
        <time>2013-04-22T13:15:45Z</time>
      </trkpt>
      <trkpt lat="45.80956" lon="5.07801">
        <ele>201</ele>
        <time>2013-04-22T13:15:46Z</time>
      </trkpt>
      <trkpt lat="45.80962" lon="5.07802">
        <ele>201</ele>
        <time>2013-04-22T13:15:47Z</time>
      </trkpt>
      <trkpt lat="45.80968" lon="5.07802">
        <ele>200</ele>
        <time>2013-04-22T13:15:48Z</time>
      </trkpt>
      <trkpt lat="45.80975" lon="5.07803">
        <ele>200</ele>
        <time>2013-04-22T13:15:49Z</time>
      </trkpt>
      <trkpt lat="45.80985" lon="5.07804">
        <ele>199</ele>
        <time>2013-04-22T13:16:36Z</time>
      </trkpt>
      <trkpt lat="45.80984" lon="5.07794">
        <ele>199</ele>
        <time>2013-04-22T13:16:43Z</time>
      </trkpt>
      <trkpt lat="45.80982" lon="5.07787">
        <ele>199</ele>
        <time>2013-04-22T13:16:51Z</time>
      </trkpt>
      <trkpt lat="45.80981" lon="5.07774">
        <ele>199</ele>
        <time>2013-04-22T13:16:55Z</time>
      </trkpt>
      <trkpt lat="45.80977" lon="5.07752">
        <ele>198</ele>
        <time>2013-04-22T13:16:59Z</time>
      </trkpt>
      <trkpt lat="45.8097" lon="5.07716">
        <ele>199</ele>
        <time>2013-04-22T13:17:05Z</time>
      </trkpt>
      <trkpt lat="45.80967" lon="5.07687">
        <ele>199</ele>
        <time>2013-04-22T13:17:09Z</time>
      </trkpt>
      <trkpt lat="45.80967" lon="5.07674">
        <ele>199</ele>
        <time>2013-04-22T13:17:11Z</time>
      </trkpt>
      <trkpt lat="45.80965" lon="5.07633">
        <ele>201</ele>
        <time>2013-04-22T13:17:17Z</time>
      </trkpt>
      <trkpt lat="45.8096" lon="5.07594">
        <ele>201</ele>
        <time>2013-04-22T13:17:23Z</time>
      </trkpt>
      <trkpt lat="45.80957" lon="5.07575">
        <ele>201</ele>
        <time>2013-04-22T13:17:26Z</time>
      </trkpt>
      <trkpt lat="45.80956" lon="5.07556">
        <ele>201</ele>
        <time>2013-04-22T13:17:29Z</time>
      </trkpt>
      <trkpt lat="45.80953" lon="5.07524">
        <ele>200</ele>
        <time>2013-04-22T13:17:34Z</time>
      </trkpt>
      <trkpt lat="45.8095" lon="5.07503">
        <ele>201</ele>
        <time>2013-04-22T13:17:37Z</time>
      </trkpt>
      <trkpt lat="45.80945" lon="5.07483">
        <ele>198</ele>
        <time>2013-04-22T13:17:40Z</time>
      </trkpt>
      <trkpt lat="45.8094" lon="5.07463">
        <ele>197</ele>
        <time>2013-04-22T13:17:43Z</time>
      </trkpt>
      <trkpt lat="45.80931" lon="5.07434">
        <ele>196</ele>
        <time>2013-04-22T13:17:47Z</time>
      </trkpt>
      <trkpt lat="45.80928" lon="5.07427">
        <ele>197</ele>
        <time>2013-04-22T13:17:48Z</time>
      </trkpt>
      <trkpt lat="45.8092" lon="5.07393">
        <ele>194</ele>
        <time>2013-04-22T13:17:53Z</time>
      </trkpt>
      <trkpt lat="45.80912" lon="5.07362">
        <ele>203</ele>
        <time>2013-04-22T13:17:58Z</time>
      </trkpt>
      <trkpt lat="45.80905" lon="5.07345">
        <ele>202</ele>
        <time>2013-04-22T13:18:01Z</time>
      </trkpt>
      <trkpt lat="45.80903" lon="5.0734">
        <ele>201</ele>
        <time>2013-04-22T13:18:02Z</time>
      </trkpt>
      <trkpt lat="45.80901" lon="5.07334">
        <ele>202</ele>
        <time>2013-04-22T13:18:03Z</time>
      </trkpt>
      <trkpt lat="45.80891" lon="5.07307">
        <ele>200</ele>
        <time>2013-04-22T13:18:08Z</time>
      </trkpt>
      <trkpt lat="45.80882" lon="5.07282">
        <ele>199</ele>
        <time>2013-04-22T13:18:12Z</time>
      </trkpt>
      <trkpt lat="45.80879" lon="5.07276">
        <ele>199</ele>
        <time>2013-04-22T13:18:13Z</time>
      </trkpt>
      <trkpt lat="45.80874" lon="5.07265">
        <ele>200</ele>
        <time>2013-04-22T13:18:15Z</time>
      </trkpt>
      <trkpt lat="45.80868" lon="5.07248">
        <ele>196</ele>
        <time>2013-04-22T13:18:18Z</time>
      </trkpt>
      <trkpt lat="45.80866" lon="5.07242">
        <ele>197</ele>
        <time>2013-04-22T13:18:19Z</time>
      </trkpt>
      <trkpt lat="45.80861" lon="5.07226">
        <ele>197</ele>
        <time>2013-04-22T13:18:22Z</time>
      </trkpt>
      <trkpt lat="45.80856" lon="5.0721">
        <ele>197</ele>
        <time>2013-04-22T13:18:25Z</time>
      </trkpt>
      <trkpt lat="45.80851" lon="5.07199">
        <ele>197</ele>
        <time>2013-04-22T13:18:27Z</time>
      </trkpt>
      <trkpt lat="45.80846" lon="5.07187">
        <ele>198</ele>
        <time>2013-04-22T13:18:29Z</time>
      </trkpt>
      <trkpt lat="45.80839" lon="5.0717">
        <ele>200</ele>
        <time>2013-04-22T13:18:32Z</time>
      </trkpt>
      <trkpt lat="45.80837" lon="5.07165">
        <ele>200</ele>
        <time>2013-04-22T13:18:33Z</time>
      </trkpt>
      <trkpt lat="45.80832" lon="5.07153">
        <ele>203</ele>
        <time>2013-04-22T13:18:35Z</time>
      </trkpt>
      <trkpt lat="45.80829" lon="5.07147">
        <ele>204</ele>
        <time>2013-04-22T13:18:36Z</time>
      </trkpt>
      <trkpt lat="45.80814" lon="5.07102">
        <ele>203</ele>
        <time>2013-04-22T13:18:44Z</time>
      </trkpt>
      <trkpt lat="45.80808" lon="5.07075">
        <ele>202</ele>
        <time>2013-04-22T13:18:55Z</time>
      </trkpt>
      <trkpt lat="45.80801" lon="5.07021">
        <ele>203</ele>
        <time>2013-04-22T13:18:56Z</time>
      </trkpt>
      <trkpt lat="45.80797" lon="5.06986">
        <ele>202</ele>
        <time>2013-04-22T13:19:01Z</time>
      </trkpt>
      <trkpt lat="45.80793" lon="5.06947">
        <ele>202</ele>
        <time>2013-04-22T13:19:07Z</time>
      </trkpt>
      <trkpt lat="45.80785" lon="5.06839">
        <ele>201</ele>
        <time>2013-04-22T13:19:23Z</time>
      </trkpt>
      <trkpt lat="45.80768" lon="5.06738">
        <ele>200</ele>
        <time>2013-04-22T13:19:39Z</time>
      </trkpt>
      <trkpt lat="45.80764" lon="5.0672">
        <ele>198</ele>
        <time>2013-04-22T13:19:42Z</time>
      </trkpt>
      <trkpt lat="45.80761" lon="5.06708">
        <ele>197</ele>
        <time>2013-04-22T13:19:44Z</time>
      </trkpt>
      <trkpt lat="45.8076" lon="5.06702">
        <ele>197</ele>
        <time>2013-04-22T13:19:45Z</time>
      </trkpt>
      <trkpt lat="45.80756" lon="5.0669">
        <ele>197</ele>
        <time>2013-04-22T13:19:47Z</time>
      </trkpt>
      <trkpt lat="45.80751" lon="5.06672">
        <ele>197</ele>
        <time>2013-04-22T13:19:50Z</time>
      </trkpt>
      <trkpt lat="45.80746" lon="5.06652">
        <ele>196</ele>
        <time>2013-04-22T13:19:53Z</time>
      </trkpt>
      <trkpt lat="45.80742" lon="5.06639">
        <ele>195</ele>
        <time>2013-04-22T13:19:55Z</time>
      </trkpt>
      <trkpt lat="45.80736" lon="5.06618">
        <ele>193</ele>
        <time>2013-04-22T13:19:58Z</time>
      </trkpt>
      <trkpt lat="45.80735" lon="5.06611">
        <ele>193</ele>
        <time>2013-04-22T13:19:59Z</time>
      </trkpt>
      <trkpt lat="45.80728" lon="5.06578">
        <ele>190</ele>
        <time>2013-04-22T13:20:05Z</time>
      </trkpt>
      <trkpt lat="45.80715" lon="5.06547">
        <ele>192</ele>
        <time>2013-04-22T13:20:12Z</time>
      </trkpt>
      <trkpt lat="45.8071" lon="5.06523">
        <ele>192</ele>
        <time>2013-04-22T13:20:15Z</time>
      </trkpt>
      <trkpt lat="45.80705" lon="5.065">
        <ele>193</ele>
        <time>2013-04-22T13:20:18Z</time>
      </trkpt>
      <trkpt lat="45.80694" lon="5.06468">
        <ele>194</ele>
        <time>2013-04-22T13:20:24Z</time>
      </trkpt>
      <trkpt lat="45.80683" lon="5.06433">
        <ele>196</ele>
        <time>2013-04-22T13:20:30Z</time>
      </trkpt>
      <trkpt lat="45.80671" lon="5.06392">
        <ele>194</ele>
        <time>2013-04-22T13:20:37Z</time>
      </trkpt>
      <trkpt lat="45.80666" lon="5.06376">
        <ele>198</ele>
        <time>2013-04-22T13:20:40Z</time>
      </trkpt>
      <trkpt lat="45.80664" lon="5.06369">
        <ele>197</ele>
        <time>2013-04-22T13:20:41Z</time>
      </trkpt>
      <trkpt lat="45.8066" lon="5.06357">
        <ele>196</ele>
        <time>2013-04-22T13:20:43Z</time>
      </trkpt>
      <trkpt lat="45.80651" lon="5.06328">
        <ele>194</ele>
        <time>2013-04-22T13:20:48Z</time>
      </trkpt>
      <trkpt lat="45.80632" lon="5.0625">
        <ele>195</ele>
        <time>2013-04-22T13:21:00Z</time>
      </trkpt>
      <trkpt lat="45.80621" lon="5.06219">
        <ele>194</ele>
        <time>2013-04-22T13:21:08Z</time>
      </trkpt>
      <trkpt lat="45.80612" lon="5.06195">
        <ele>194</ele>
        <time>2013-04-22T13:21:14Z</time>
      </trkpt>
      <trkpt lat="45.80603" lon="5.06174">
        <ele>195</ele>
        <time>2013-04-22T13:21:18Z</time>
      </trkpt>
      <trkpt lat="45.80594" lon="5.06131">
        <ele>194</ele>
        <time>2013-04-22T13:22:08Z</time>
      </trkpt>
      <trkpt lat="45.80585" lon="5.06103">
        <ele>195</ele>
        <time>2013-04-22T13:22:13Z</time>
      </trkpt>
      <trkpt lat="45.80571" lon="5.06064">
        <ele>198</ele>
        <time>2013-04-22T13:22:19Z</time>
      </trkpt>
      <trkpt lat="45.80527" lon="5.0587">
        <ele>200</ele>
        <time>2013-04-22T13:22:59Z</time>
      </trkpt>
      <trkpt lat="45.80512" lon="5.05806">
        <ele>201</ele>
        <time>2013-04-22T13:23:04Z</time>
      </trkpt>
      <trkpt lat="45.80508" lon="5.05782">
        <ele>200</ele>
        <time>2013-04-22T13:23:09Z</time>
      </trkpt>
      <trkpt lat="45.80504" lon="5.05764">
        <ele>202</ele>
        <time>2013-04-22T13:23:10Z</time>
      </trkpt>
      <trkpt lat="45.80505" lon="5.05745">
        <ele>204</ele>
        <time>2013-04-22T13:23:13Z</time>
      </trkpt>
      <trkpt lat="45.80489" lon="5.05674">
        <ele>208</ele>
        <time>2013-04-22T13:23:24Z</time>
      </trkpt>
      <trkpt lat="45.80482" lon="5.05651">
        <ele>208</ele>
        <time>2013-04-22T13:23:27Z</time>
      </trkpt>
      <trkpt lat="45.80477" lon="5.05619">
        <ele>207</ele>
        <time>2013-04-22T13:23:32Z</time>
      </trkpt>
      <trkpt lat="45.80476" lon="5.05606">
        <ele>206</ele>
        <time>2013-04-22T13:23:34Z</time>
      </trkpt>
      <trkpt lat="45.80474" lon="5.05593">
        <ele>205</ele>
        <time>2013-04-22T13:23:36Z</time>
      </trkpt>
      <trkpt lat="45.80471" lon="5.05569">
        <ele>202</ele>
        <time>2013-04-22T13:23:40Z</time>
      </trkpt>
      <trkpt lat="45.8047" lon="5.05563">
        <ele>202</ele>
        <time>2013-04-22T13:23:41Z</time>
      </trkpt>
      <trkpt lat="45.80467" lon="5.05541">
        <ele>202</ele>
        <time>2013-04-22T13:23:44Z</time>
      </trkpt>
      <trkpt lat="45.80465" lon="5.05534">
        <ele>202</ele>
        <time>2013-04-22T13:23:45Z</time>
      </trkpt>
      <trkpt lat="45.8046" lon="5.05515">
        <ele>202</ele>
        <time>2013-04-22T13:23:48Z</time>
      </trkpt>
      <trkpt lat="45.80451" lon="5.05476">
        <ele>201</ele>
        <time>2013-04-22T13:23:54Z</time>
      </trkpt>
      <trkpt lat="45.80449" lon="5.05458">
        <ele>201</ele>
        <time>2013-04-22T13:23:57Z</time>
      </trkpt>
      <trkpt lat="45.80447" lon="5.05444">
        <ele>201</ele>
        <time>2013-04-22T13:23:59Z</time>
      </trkpt>
      <trkpt lat="45.80438" lon="5.05398">
        <ele>202</ele>
        <time>2013-04-22T13:24:06Z</time>
      </trkpt>
      <trkpt lat="45.80435" lon="5.05367">
        <ele>201</ele>
        <time>2013-04-22T13:24:11Z</time>
      </trkpt>
      <trkpt lat="45.80434" lon="5.05339">
        <ele>202</ele>
        <time>2013-04-22T13:24:16Z</time>
      </trkpt>
      <trkpt lat="45.80428" lon="5.05304">
        <ele>198</ele>
        <time>2013-04-22T13:24:22Z</time>
      </trkpt>
      <trkpt lat="45.80417" lon="5.05275">
        <ele>197</ele>
        <time>2013-04-22T13:24:27Z</time>
      </trkpt>
      <trkpt lat="45.80406" lon="5.05241">
        <ele>200</ele>
        <time>2013-04-22T13:24:32Z</time>
      </trkpt>
      <trkpt lat="45.80402" lon="5.0523">
        <ele>200</ele>
        <time>2013-04-22T13:24:34Z</time>
      </trkpt>
      <trkpt lat="45.80397" lon="5.05216">
        <ele>200</ele>
        <time>2013-04-22T13:24:36Z</time>
      </trkpt>
      <trkpt lat="45.80385" lon="5.05182">
        <ele>200</ele>
        <time>2013-04-22T13:24:41Z</time>
      </trkpt>
      <trkpt lat="45.80383" lon="5.05175">
        <ele>200</ele>
        <time>2013-04-22T13:24:42Z</time>
      </trkpt>
      <trkpt lat="45.80374" lon="5.05146">
        <ele>198</ele>
        <time>2013-04-22T13:24:47Z</time>
      </trkpt>
      <trkpt lat="45.80362" lon="5.05122">
        <ele>198</ele>
        <time>2013-04-22T13:24:51Z</time>
      </trkpt>
      <trkpt lat="45.80355" lon="5.05111">
        <ele>199</ele>
        <time>2013-04-22T13:24:53Z</time>
      </trkpt>
      <trkpt lat="45.80351" lon="5.05105">
        <ele>199</ele>
        <time>2013-04-22T13:24:54Z</time>
      </trkpt>
      <trkpt lat="45.80348" lon="5.05099">
        <ele>199</ele>
        <time>2013-04-22T13:24:55Z</time>
      </trkpt>
      <trkpt lat="45.80346" lon="5.05092">
        <ele>199</ele>
        <time>2013-04-22T13:24:56Z</time>
      </trkpt>
      <trkpt lat="45.80343" lon="5.05086">
        <ele>200</ele>
        <time>2013-04-22T13:24:57Z</time>
      </trkpt>
      <trkpt lat="45.80331" lon="5.05061">
        <ele>200</ele>
        <time>2013-04-22T13:25:01Z</time>
      </trkpt>
      <trkpt lat="45.80325" lon="5.05051">
        <ele>200</ele>
        <time>2013-04-22T13:25:03Z</time>
      </trkpt>
      <trkpt lat="45.80312" lon="5.05025">
        <ele>199</ele>
        <time>2013-04-22T13:25:07Z</time>
      </trkpt>
      <trkpt lat="45.8031" lon="5.05018">
        <ele>198</ele>
        <time>2013-04-22T13:25:08Z</time>
      </trkpt>
      <trkpt lat="45.80308" lon="5.05011">
        <ele>198</ele>
        <time>2013-04-22T13:25:09Z</time>
      </trkpt>
      <trkpt lat="45.80304" lon="5.04999">
        <ele>196</ele>
        <time>2013-04-22T13:25:11Z</time>
      </trkpt>
      <trkpt lat="45.80302" lon="5.04992">
        <ele>196</ele>
        <time>2013-04-22T13:25:12Z</time>
      </trkpt>
      <trkpt lat="45.80298" lon="5.04978">
        <ele>197</ele>
        <time>2013-04-22T13:25:14Z</time>
      </trkpt>
      <trkpt lat="45.80296" lon="5.04972">
        <ele>197</ele>
        <time>2013-04-22T13:25:15Z</time>
      </trkpt>
      <trkpt lat="45.80288" lon="5.04941">
        <ele>198</ele>
        <time>2013-04-22T13:25:20Z</time>
      </trkpt>
      <trkpt lat="45.80286" lon="5.04935">
        <ele>198</ele>
        <time>2013-04-22T13:25:21Z</time>
      </trkpt>
      <trkpt lat="45.80272" lon="5.04884">
        <ele>196</ele>
        <time>2013-04-22T13:25:28Z</time>
      </trkpt>
      <trkpt lat="45.80264" lon="5.04857">
        <ele>196</ele>
        <time>2013-04-22T13:25:32Z</time>
      </trkpt>
      <trkpt lat="45.80249" lon="5.04816">
        <ele>200</ele>
        <time>2013-04-22T13:25:38Z</time>
      </trkpt>
      <trkpt lat="45.80237" lon="5.04782">
        <ele>200</ele>
        <time>2013-04-22T13:25:43Z</time>
      </trkpt>
      <trkpt lat="45.8023" lon="5.04762">
        <ele>199</ele>
        <time>2013-04-22T13:25:46Z</time>
      </trkpt>
      <trkpt lat="45.80226" lon="5.04749">
        <ele>198</ele>
        <time>2013-04-22T13:25:48Z</time>
      </trkpt>
      <trkpt lat="45.80215" lon="5.04718">
        <ele>199</ele>
        <time>2013-04-22T13:25:53Z</time>
      </trkpt>
      <trkpt lat="45.80213" lon="5.04712">
        <ele>199</ele>
        <time>2013-04-22T13:25:54Z</time>
      </trkpt>
      <trkpt lat="45.80208" lon="5.04701">
        <ele>199</ele>
        <time>2013-04-22T13:25:56Z</time>
      </trkpt>
      <trkpt lat="45.80191" lon="5.04648">
        <ele>198</ele>
        <time>2013-04-22T13:26:04Z</time>
      </trkpt>
      <trkpt lat="45.80185" lon="5.04625">
        <ele>198</ele>
        <time>2013-04-22T13:26:07Z</time>
      </trkpt>
      <trkpt lat="45.80182" lon="5.04611">
        <ele>198</ele>
        <time>2013-04-22T13:26:09Z</time>
      </trkpt>
      <trkpt lat="45.80179" lon="5.04599">
        <ele>198</ele>
        <time>2013-04-22T13:26:11Z</time>
      </trkpt>
      <trkpt lat="45.80174" lon="5.04581">
        <ele>199</ele>
        <time>2013-04-22T13:26:14Z</time>
      </trkpt>
      <trkpt lat="45.80161" lon="5.04541">
        <ele>202</ele>
        <time>2013-04-22T13:26:20Z</time>
      </trkpt>
      <trkpt lat="45.80143" lon="5.04495">
        <ele>198</ele>
        <time>2013-04-22T13:26:27Z</time>
      </trkpt>
      <trkpt lat="45.80132" lon="5.0447">
        <ele>197</ele>
        <time>2013-04-22T13:26:31Z</time>
      </trkpt>
      <trkpt lat="45.8011" lon="5.04428">
        <ele>196</ele>
        <time>2013-04-22T13:26:38Z</time>
      </trkpt>
      <trkpt lat="45.80103" lon="5.04418">
        <ele>196</ele>
        <time>2013-04-22T13:26:40Z</time>
      </trkpt>
      <trkpt lat="45.80097" lon="5.04414">
        <ele>193</ele>
        <time>2013-04-22T13:26:41Z</time>
      </trkpt>
      <trkpt lat="45.80094" lon="5.0441">
        <ele>194</ele>
        <time>2013-04-22T13:26:42Z</time>
      </trkpt>
      <trkpt lat="45.80089" lon="5.04404">
        <ele>193</ele>
        <time>2013-04-22T13:26:43Z</time>
      </trkpt>
      <trkpt lat="45.80085" lon="5.044">
        <ele>193</ele>
        <time>2013-04-22T13:26:44Z</time>
      </trkpt>
      <trkpt lat="45.80078" lon="5.0439">
        <ele>197</ele>
        <time>2013-04-22T13:26:46Z</time>
      </trkpt>
      <trkpt lat="45.80071" lon="5.04382">
        <ele>197</ele>
        <time>2013-04-22T13:26:48Z</time>
      </trkpt>
      <trkpt lat="45.8006" lon="5.0437">
        <ele>196</ele>
        <time>2013-04-22T13:26:51Z</time>
      </trkpt>
      <trkpt lat="45.80057" lon="5.04364">
        <ele>196</ele>
        <time>2013-04-22T13:26:52Z</time>
      </trkpt>
      <trkpt lat="45.8004" lon="5.04335">
        <ele>196</ele>
        <time>2013-04-22T13:26:58Z</time>
      </trkpt>
      <trkpt lat="45.80022" lon="5.04307">
        <ele>192</ele>
        <time>2013-04-22T13:27:04Z</time>
      </trkpt>
      <trkpt lat="45.80012" lon="5.04287">
        <ele>192</ele>
        <time>2013-04-22T13:27:08Z</time>
      </trkpt>
      <trkpt lat="45.80007" lon="5.04276">
        <ele>192</ele>
        <time>2013-04-22T13:27:10Z</time>
      </trkpt>
      <trkpt lat="45.80001" lon="5.04265">
        <ele>192</ele>
        <time>2013-04-22T13:27:12Z</time>
      </trkpt>
      <trkpt lat="45.79996" lon="5.04253">
        <ele>194</ele>
        <time>2013-04-22T13:27:14Z</time>
      </trkpt>
      <trkpt lat="45.79986" lon="5.04231">
        <ele>193</ele>
        <time>2013-04-22T13:27:18Z</time>
      </trkpt>
      <trkpt lat="45.79973" lon="5.04211">
        <ele>193</ele>
        <time>2013-04-22T13:27:22Z</time>
      </trkpt>
      <trkpt lat="45.79956" lon="5.0418">
        <ele>193</ele>
        <time>2013-04-22T13:27:28Z</time>
      </trkpt>
      <trkpt lat="45.79939" lon="5.04154">
        <ele>190</ele>
        <time>2013-04-22T13:27:34Z</time>
      </trkpt>
      <trkpt lat="45.79926" lon="5.04134">
        <ele>190</ele>
        <time>2013-04-22T13:27:39Z</time>
      </trkpt>
      <trkpt lat="45.7991" lon="5.04111">
        <ele>195</ele>
        <time>2013-04-22T13:27:46Z</time>
      </trkpt>
      <trkpt lat="45.79905" lon="5.04104">
        <ele>195</ele>
        <time>2013-04-22T13:27:50Z</time>
      </trkpt>
      <trkpt lat="45.79904" lon="5.04104">
        <ele>195</ele>
        <time>2013-04-22T13:27:51Z</time>
      </trkpt>
      <trkpt lat="45.79903" lon="5.04102">
        <ele>195</ele>
        <time>2013-04-22T13:27:56Z</time>
      </trkpt>
      <trkpt lat="45.79903" lon="5.04102">
        <ele>195</ele>
        <time>2013-04-22T13:28:10Z</time>
      </trkpt>
      <trkpt lat="45.79903" lon="5.04102">
        <ele>195</ele>
        <time>2013-04-22T13:28:22Z</time>
      </trkpt>
      <trkpt lat="45.79903" lon="5.04102">
        <ele>195</ele>
        <time>2013-04-22T13:28:29Z</time>
      </trkpt>
      <trkpt lat="45.79902" lon="5.04102">
        <ele>195</ele>
        <time>2013-04-22T13:30:31Z</time>
      </trkpt>
      <trkpt lat="45.79902" lon="5.04102">
        <ele>195</ele>
        <time>2013-04-22T13:30:35Z</time>
      </trkpt>
      <trkpt lat="45.79902" lon="5.04101">
        <ele>194</ele>
        <time>2013-04-22T13:30:36Z</time>
      </trkpt>
      <trkpt lat="45.79895" lon="5.04092">
        <ele>195</ele>
        <time>2013-04-22T13:30:40Z</time>
      </trkpt>
      <trkpt lat="45.79883" lon="5.04078">
        <ele>191</ele>
        <time>2013-04-22T13:30:45Z</time>
      </trkpt>
      <trkpt lat="45.79873" lon="5.04068">
        <ele>192</ele>
        <time>2013-04-22T13:30:50Z</time>
      </trkpt>
      <trkpt lat="45.79863" lon="5.04058">
        <ele>192</ele>
        <time>2013-04-22T13:30:55Z</time>
      </trkpt>
      <trkpt lat="45.79852" lon="5.04047">
        <ele>192</ele>
        <time>2013-04-22T13:31:00Z</time>
      </trkpt>
      <trkpt lat="45.79841" lon="5.04035">
        <ele>191</ele>
        <time>2013-04-22T13:31:06Z</time>
      </trkpt>
      <trkpt lat="45.7984" lon="5.04033">
        <ele>191</ele>
        <time>2013-04-22T13:31:07Z</time>
      </trkpt>
      <trkpt lat="45.79833" lon="5.04024">
        <ele>195</ele>
        <time>2013-04-22T13:31:12Z</time>
      </trkpt>
      <trkpt lat="45.79829" lon="5.04018">
        <ele>194</ele>
        <time>2013-04-22T13:31:14Z</time>
      </trkpt>
      <trkpt lat="45.79795" lon="5.0398">
        <ele>191</ele>
        <time>2013-04-22T13:33:08Z</time>
      </trkpt>
      <trkpt lat="45.79791" lon="5.03977">
        <ele>191</ele>
        <time>2013-04-22T13:33:09Z</time>
      </trkpt>
      <trkpt lat="45.79787" lon="5.03973">
        <ele>191</ele>
        <time>2013-04-22T13:33:10Z</time>
      </trkpt>
      <trkpt lat="45.79783" lon="5.03969">
        <ele>191</ele>
        <time>2013-04-22T13:33:11Z</time>
      </trkpt>
      <trkpt lat="45.79779" lon="5.03964">
        <ele>192</ele>
        <time>2013-04-22T13:33:12Z</time>
      </trkpt>
      <trkpt lat="45.79775" lon="5.03959">
        <ele>192</ele>
        <time>2013-04-22T13:33:13Z</time>
      </trkpt>
      <trkpt lat="45.79749" lon="5.03935">
        <ele>195</ele>
        <time>2013-04-22T13:33:19Z</time>
      </trkpt>
      <trkpt lat="45.79722" lon="5.0391">
        <ele>191</ele>
        <time>2013-04-22T13:33:26Z</time>
      </trkpt>
      <trkpt lat="45.79697" lon="5.03891">
        <ele>191</ele>
        <time>2013-04-22T13:33:34Z</time>
      </trkpt>
      <trkpt lat="45.79691" lon="5.03881">
        <ele>190</ele>
        <time>2013-04-22T13:33:37Z</time>
      </trkpt>
      <trkpt lat="45.79673" lon="5.03844">
        <ele>188</ele>
        <time>2013-04-22T13:34:36Z</time>
      </trkpt>
      <trkpt lat="45.79661" lon="5.03818">
        <ele>187</ele>
        <time>2013-04-22T13:34:43Z</time>
      </trkpt>
      <trkpt lat="45.79648" lon="5.03791">
        <ele>187</ele>
        <time>2013-04-22T13:34:50Z</time>
      </trkpt>
      <trkpt lat="45.7963" lon="5.03757">
        <ele>186</ele>
        <time>2013-04-22T13:34:59Z</time>
      </trkpt>
      <trkpt lat="45.79611" lon="5.03719">
        <ele>185</ele>
        <time>2013-04-22T13:35:07Z</time>
      </trkpt>
      <trkpt lat="45.79603" lon="5.03696">
        <ele>185</ele>
        <time>2013-04-22T13:35:11Z</time>
      </trkpt>
      <trkpt lat="45.796" lon="5.03684">
        <ele>185</ele>
        <time>2013-04-22T13:35:13Z</time>
      </trkpt>
      <trkpt lat="45.79586" lon="5.03647">
        <ele>184</ele>
        <time>2013-04-22T13:35:20Z</time>
      </trkpt>
      <trkpt lat="45.79579" lon="5.03617">
        <ele>186</ele>
        <time>2013-04-22T13:35:26Z</time>
      </trkpt>
      <trkpt lat="45.79572" lon="5.03579">
        <ele>183</ele>
        <time>2013-04-22T13:35:33Z</time>
      </trkpt>
      <trkpt lat="45.79563" lon="5.03542">
        <ele>185</ele>
        <time>2013-04-22T13:35:39Z</time>
      </trkpt>
      <trkpt lat="45.79553" lon="5.03495">
        <ele>185</ele>
        <time>2013-04-22T13:35:47Z</time>
      </trkpt>
      <trkpt lat="45.79546" lon="5.03463">
        <ele>186</ele>
        <time>2013-04-22T13:35:53Z</time>
      </trkpt>
      <trkpt lat="45.79543" lon="5.03429">
        <ele>186</ele>
        <time>2013-04-22T13:35:59Z</time>
      </trkpt>
      <trkpt lat="45.79538" lon="5.0339">
        <ele>187</ele>
        <time>2013-04-22T13:36:06Z</time>
      </trkpt>
      <trkpt lat="45.79538" lon="5.03356">
        <ele>186</ele>
        <time>2013-04-22T13:36:12Z</time>
      </trkpt>
      <trkpt lat="45.79526" lon="5.03252">
        <ele>186</ele>
        <time>2013-04-22T13:36:29Z</time>
      </trkpt>
      <trkpt lat="45.79513" lon="5.03216">
        <ele>185</ele>
        <time>2013-04-22T13:36:35Z</time>
      </trkpt>
      <trkpt lat="45.79496" lon="5.03176">
        <ele>187</ele>
        <time>2013-04-22T13:36:42Z</time>
      </trkpt>
      <trkpt lat="45.7948" lon="5.03147">
        <ele>187</ele>
        <time>2013-04-22T13:36:47Z</time>
      </trkpt>
      <trkpt lat="45.79456" lon="5.03106">
        <ele>187</ele>
        <time>2013-04-22T13:36:55Z</time>
      </trkpt>
      <trkpt lat="45.79449" lon="5.03098">
        <ele>187</ele>
        <time>2013-04-22T13:36:57Z</time>
      </trkpt>
      <trkpt lat="45.79438" lon="5.03088">
        <ele>188</ele>
        <time>2013-04-22T13:37:00Z</time>
      </trkpt>
      <trkpt lat="45.79415" lon="5.03062">
        <ele>189</ele>
        <time>2013-04-22T13:37:06Z</time>
      </trkpt>
      <trkpt lat="45.79387" lon="5.03032">
        <ele>187</ele>
        <time>2013-04-22T13:37:13Z</time>
      </trkpt>
      <trkpt lat="45.79375" lon="5.0302">
        <ele>188</ele>
        <time>2013-04-22T13:37:16Z</time>
      </trkpt>
      <trkpt lat="45.79363" lon="5.03009">
        <ele>188</ele>
        <time>2013-04-22T13:37:19Z</time>
      </trkpt>
      <trkpt lat="45.79337" lon="5.02987">
        <ele>187</ele>
        <time>2013-04-22T13:37:25Z</time>
      </trkpt>
      <trkpt lat="45.79333" lon="5.02983">
        <ele>189</ele>
        <time>2013-04-22T13:37:26Z</time>
      </trkpt>
      <trkpt lat="45.79307" lon="5.02958">
        <ele>188</ele>
        <time>2013-04-22T13:37:32Z</time>
      </trkpt>
      <trkpt lat="45.79282" lon="5.02933">
        <ele>188</ele>
        <time>2013-04-22T13:37:38Z</time>
      </trkpt>
      <trkpt lat="45.79253" lon="5.02904">
        <ele>187</ele>
        <time>2013-04-22T13:37:45Z</time>
      </trkpt>
      <trkpt lat="45.79224" lon="5.02875">
        <ele>188</ele>
        <time>2013-04-22T13:37:52Z</time>
      </trkpt>
      <trkpt lat="45.79202" lon="5.02853">
        <ele>188</ele>
        <time>2013-04-22T13:37:58Z</time>
      </trkpt>
      <trkpt lat="45.79182" lon="5.02834">
        <ele>188</ele>
        <time>2013-04-22T13:38:03Z</time>
      </trkpt>
      <trkpt lat="45.79156" lon="5.0281">
        <ele>189</ele>
        <time>2013-04-22T13:38:09Z</time>
      </trkpt>
      <trkpt lat="45.7913" lon="5.02787">
        <ele>189</ele>
        <time>2013-04-22T13:38:15Z</time>
      </trkpt>
      <trkpt lat="45.79101" lon="5.02759">
        <ele>189</ele>
        <time>2013-04-22T13:38:22Z</time>
      </trkpt>
      <trkpt lat="45.79084" lon="5.02744">
        <ele>189</ele>
        <time>2013-04-22T13:38:26Z</time>
      </trkpt>
      <trkpt lat="45.7908" lon="5.0274">
        <ele>190</ele>
        <time>2013-04-22T13:38:27Z</time>
      </trkpt>
      <trkpt lat="45.79064" lon="5.02723">
        <ele>190</ele>
        <time>2013-04-22T13:38:31Z</time>
      </trkpt>
      <trkpt lat="45.79053" lon="5.02711">
        <ele>190</ele>
        <time>2013-04-22T13:38:34Z</time>
      </trkpt>
      <trkpt lat="45.79044" lon="5.02702">
        <ele>190</ele>
        <time>2013-04-22T13:38:36Z</time>
      </trkpt>
      <trkpt lat="45.79023" lon="5.02682">
        <ele>190</ele>
        <time>2013-04-22T13:38:41Z</time>
      </trkpt>
      <trkpt lat="45.79015" lon="5.02673">
        <ele>190</ele>
        <time>2013-04-22T13:38:43Z</time>
      </trkpt>
      <trkpt lat="45.78996" lon="5.02657">
        <ele>189</ele>
        <time>2013-04-22T13:38:47Z</time>
      </trkpt>
      <trkpt lat="45.78976" lon="5.02639">
        <ele>188</ele>
        <time>2013-04-22T13:38:53Z</time>
      </trkpt>
      <trkpt lat="45.78975" lon="5.02639">
        <ele>188</ele>
        <time>2013-04-22T13:38:57Z</time>
      </trkpt>
      <trkpt lat="45.78975" lon="5.02639">
        <ele>188</ele>
        <time>2013-04-22T13:39:06Z</time>
      </trkpt>
      <trkpt lat="45.78973" lon="5.02638">
        <ele>188</ele>
        <time>2013-04-22T13:39:17Z</time>
      </trkpt>
      <trkpt lat="45.78962" lon="5.02635">
        <ele>188</ele>
        <time>2013-04-22T13:39:21Z</time>
      </trkpt>
      <trkpt lat="45.78945" lon="5.02635">
        <ele>189</ele>
        <time>2013-04-22T13:39:26Z</time>
      </trkpt>
      <trkpt lat="45.78942" lon="5.02635">
        <ele>189</ele>
        <time>2013-04-22T13:39:28Z</time>
      </trkpt>
      <trkpt lat="45.78942" lon="5.02635">
        <ele>189</ele>
        <time>2013-04-22T13:39:30Z</time>
      </trkpt>
      <trkpt lat="45.78939" lon="5.02628">
        <ele>189</ele>
        <time>2013-04-22T13:39:40Z</time>
      </trkpt>
      <trkpt lat="45.78936" lon="5.0262">
        <ele>188</ele>
        <time>2013-04-22T13:39:46Z</time>
      </trkpt>
      <trkpt lat="45.78933" lon="5.02615">
        <ele>188</ele>
        <time>2013-04-22T13:39:48Z</time>
      </trkpt>
      <trkpt lat="45.78927" lon="5.0261">
        <ele>188</ele>
        <time>2013-04-22T13:39:50Z</time>
      </trkpt>
      <trkpt lat="45.78922" lon="5.02601">
        <ele>188</ele>
        <time>2013-04-22T13:39:53Z</time>
      </trkpt>
      <trkpt lat="45.78918" lon="5.02591">
        <ele>188</ele>
        <time>2013-04-22T13:39:55Z</time>
      </trkpt>
      <trkpt lat="45.78906" lon="5.02557">
        <ele>190</ele>
        <time>2013-04-22T13:40:00Z</time>
      </trkpt>
      <trkpt lat="45.78895" lon="5.02533">
        <ele>190</ele>
        <time>2013-04-22T13:40:03Z</time>
      </trkpt>
      <trkpt lat="45.78891" lon="5.02525">
        <ele>190</ele>
        <time>2013-04-22T13:40:04Z</time>
      </trkpt>
      <trkpt lat="45.78886" lon="5.02518">
        <ele>190</ele>
        <time>2013-04-22T13:40:05Z</time>
      </trkpt>
      <trkpt lat="45.78881" lon="5.02509">
        <ele>190</ele>
        <time>2013-04-22T13:40:06Z</time>
      </trkpt>
      <trkpt lat="45.78877" lon="5.02501">
        <ele>190</ele>
        <time>2013-04-22T13:40:07Z</time>
      </trkpt>
      <trkpt lat="45.78859" lon="5.02465">
        <ele>188</ele>
        <time>2013-04-22T13:40:12Z</time>
      </trkpt>
      <trkpt lat="45.78839" lon="5.02428">
        <ele>188</ele>
        <time>2013-04-22T13:40:18Z</time>
      </trkpt>
      <trkpt lat="45.78824" lon="5.02395">
        <ele>189</ele>
        <time>2013-04-22T13:40:24Z</time>
      </trkpt>
      <trkpt lat="45.78803" lon="5.02357">
        <ele>188</ele>
        <time>2013-04-22T13:40:31Z</time>
      </trkpt>
      <trkpt lat="45.78796" lon="5.02347">
        <ele>188</ele>
        <time>2013-04-22T13:40:33Z</time>
      </trkpt>
      <trkpt lat="45.78786" lon="5.02334">
        <ele>189</ele>
        <time>2013-04-22T13:40:36Z</time>
      </trkpt>
      <trkpt lat="45.78782" lon="5.02329">
        <ele>186</ele>
        <time>2013-04-22T13:40:37Z</time>
      </trkpt>
      <trkpt lat="45.78757" lon="5.02299">
        <ele>186</ele>
        <time>2013-04-22T13:40:44Z</time>
      </trkpt>
      <trkpt lat="45.78736" lon="5.02274">
        <ele>188</ele>
        <time>2013-04-22T13:40:50Z</time>
      </trkpt>
      <trkpt lat="45.7871" lon="5.02249">
        <ele>186</ele>
        <time>2013-04-22T13:40:57Z</time>
      </trkpt>
      <trkpt lat="45.78693" lon="5.02235">
        <ele>187</ele>
        <time>2013-04-22T13:41:02Z</time>
      </trkpt>
      <trkpt lat="45.78686" lon="5.02229">
        <ele>187</ele>
        <time>2013-04-22T13:41:04Z</time>
      </trkpt>
      <trkpt lat="45.78675" lon="5.02219">
        <ele>187</ele>
        <time>2013-04-22T13:41:07Z</time>
      </trkpt>
      <trkpt lat="45.78663" lon="5.02202">
        <ele>191</ele>
        <time>2013-04-22T13:41:12Z</time>
      </trkpt>
      <trkpt lat="45.78659" lon="5.02197">
        <ele>190</ele>
        <time>2013-04-22T13:41:13Z</time>
      </trkpt>
      <trkpt lat="45.7865" lon="5.02182">
        <ele>189</ele>
        <time>2013-04-22T13:41:16Z</time>
      </trkpt>
      <trkpt lat="45.78636" lon="5.02155">
        <ele>188</ele>
        <time>2013-04-22T13:41:21Z</time>
      </trkpt>
      <trkpt lat="45.78598" lon="5.02078">
        <ele>190</ele>
        <time>2013-04-22T13:41:37Z</time>
      </trkpt>
      <trkpt lat="45.78596" lon="5.02072">
        <ele>190</ele>
        <time>2013-04-22T13:41:38Z</time>
      </trkpt>
      <trkpt lat="45.78583" lon="5.02044">
        <ele>189</ele>
        <time>2013-04-22T13:41:43Z</time>
      </trkpt>
      <trkpt lat="45.78581" lon="5.02039">
        <ele>194</ele>
        <time>2013-04-22T13:41:44Z</time>
      </trkpt>
      <trkpt lat="45.78575" lon="5.02017">
        <ele>193</ele>
        <time>2013-04-22T13:41:49Z</time>
      </trkpt>
      <trkpt lat="45.78566" lon="5.01987">
        <ele>192</ele>
        <time>2013-04-22T13:41:54Z</time>
      </trkpt>
      <trkpt lat="45.78564" lon="5.01981">
        <ele>192</ele>
        <time>2013-04-22T13:41:55Z</time>
      </trkpt>
      <trkpt lat="45.78558" lon="5.01964">
        <ele>193</ele>
        <time>2013-04-22T13:41:58Z</time>
      </trkpt>
      <trkpt lat="45.78549" lon="5.01933">
        <ele>193</ele>
        <time>2013-04-22T13:42:03Z</time>
      </trkpt>
      <trkpt lat="45.78545" lon="5.01914">
        <ele>193</ele>
        <time>2013-04-22T13:42:06Z</time>
      </trkpt>
      <trkpt lat="45.78541" lon="5.01903">
        <ele>193</ele>
        <time>2013-04-22T13:42:08Z</time>
      </trkpt>
      <trkpt lat="45.78539" lon="5.01889">
        <ele>194</ele>
        <time>2013-04-22T13:42:10Z</time>
      </trkpt>
      <trkpt lat="45.78536" lon="5.01877">
        <ele>194</ele>
        <time>2013-04-22T13:42:12Z</time>
      </trkpt>
      <trkpt lat="45.78534" lon="5.01864">
        <ele>194</ele>
        <time>2013-04-22T13:42:14Z</time>
      </trkpt>
      <trkpt lat="45.7853" lon="5.01838">
        <ele>195</ele>
        <time>2013-04-22T13:42:18Z</time>
      </trkpt>
      <trkpt lat="45.78527" lon="5.01812">
        <ele>195</ele>
        <time>2013-04-22T13:42:22Z</time>
      </trkpt>
      <trkpt lat="45.78526" lon="5.01792">
        <ele>195</ele>
        <time>2013-04-22T13:42:25Z</time>
      </trkpt>
      <trkpt lat="45.78524" lon="5.01764">
        <ele>195</ele>
        <time>2013-04-22T13:42:30Z</time>
      </trkpt>
      <trkpt lat="45.78523" lon="5.01729">
        <ele>194</ele>
        <time>2013-04-22T13:42:36Z</time>
      </trkpt>
      <trkpt lat="45.78522" lon="5.0171">
        <ele>193</ele>
        <time>2013-04-22T13:42:39Z</time>
      </trkpt>
      <trkpt lat="45.78523" lon="5.01692">
        <ele>193</ele>
        <time>2013-04-22T13:42:42Z</time>
      </trkpt>
      <trkpt lat="45.78524" lon="5.01679">
        <ele>193</ele>
        <time>2013-04-22T13:42:44Z</time>
      </trkpt>
      <trkpt lat="45.78524" lon="5.01652">
        <ele>192</ele>
        <time>2013-04-22T13:42:48Z</time>
      </trkpt>
      <trkpt lat="45.78524" lon="5.01646">
        <ele>191</ele>
        <time>2013-04-22T13:42:49Z</time>
      </trkpt>
      <trkpt lat="45.78527" lon="5.0162">
        <ele>191</ele>
        <time>2013-04-22T13:42:53Z</time>
      </trkpt>
      <trkpt lat="45.78533" lon="5.01572">
        <ele>191</ele>
        <time>2013-04-22T13:43:01Z</time>
      </trkpt>
      <trkpt lat="45.78537" lon="5.01553">
        <ele>191</ele>
        <time>2013-04-22T13:43:04Z</time>
      </trkpt>
      <trkpt lat="45.7854" lon="5.01535">
        <ele>191</ele>
        <time>2013-04-22T13:43:07Z</time>
      </trkpt>
      <trkpt lat="45.78546" lon="5.01505">
        <ele>191</ele>
        <time>2013-04-22T13:43:12Z</time>
      </trkpt>
      <trkpt lat="45.78547" lon="5.01499">
        <ele>193</ele>
        <time>2013-04-22T13:43:13Z</time>
      </trkpt>
      <trkpt lat="45.78551" lon="5.01487">
        <ele>193</ele>
        <time>2013-04-22T13:43:15Z</time>
      </trkpt>
      <trkpt lat="45.78558" lon="5.01469">
        <ele>194</ele>
        <time>2013-04-22T13:43:18Z</time>
      </trkpt>
      <trkpt lat="45.78562" lon="5.01457">
        <ele>194</ele>
        <time>2013-04-22T13:43:20Z</time>
      </trkpt>
      <trkpt lat="45.78573" lon="5.01427">
        <ele>194</ele>
        <time>2013-04-22T13:43:25Z</time>
      </trkpt>
      <trkpt lat="45.78575" lon="5.01421">
        <ele>194</ele>
        <time>2013-04-22T13:43:26Z</time>
      </trkpt>
      <trkpt lat="45.78584" lon="5.01402">
        <ele>191</ele>
        <time>2013-04-22T13:43:30Z</time>
      </trkpt>
      <trkpt lat="45.78586" lon="5.01397">
        <ele>190</ele>
        <time>2013-04-22T13:43:31Z</time>
      </trkpt>
      <trkpt lat="45.78593" lon="5.01376">
        <ele>189</ele>
        <time>2013-04-22T13:43:35Z</time>
      </trkpt>
      <trkpt lat="45.78604" lon="5.01341">
        <ele>190</ele>
        <time>2013-04-22T13:43:42Z</time>
      </trkpt>
      <trkpt lat="45.78616" lon="5.01306">
        <ele>188</ele>
        <time>2013-04-22T13:43:49Z</time>
      </trkpt>
      <trkpt lat="45.78626" lon="5.01271">
        <ele>188</ele>
        <time>2013-04-22T13:43:56Z</time>
      </trkpt>
      <trkpt lat="45.78634" lon="5.0124">
        <ele>188</ele>
        <time>2013-04-22T13:44:02Z</time>
      </trkpt>
      <trkpt lat="45.7864" lon="5.01211">
        <ele>188</ele>
        <time>2013-04-22T13:44:08Z</time>
      </trkpt>
      <trkpt lat="45.78644" lon="5.01178">
        <ele>188</ele>
        <time>2013-04-22T13:44:15Z</time>
      </trkpt>
      <trkpt lat="45.78648" lon="5.01156">
        <ele>188</ele>
        <time>2013-04-22T13:44:21Z</time>
      </trkpt>
      <trkpt lat="45.7865" lon="5.01145">
        <ele>188</ele>
        <time>2013-04-22T13:44:24Z</time>
      </trkpt>
      <trkpt lat="45.78651" lon="5.01134">
        <ele>187</ele>
        <time>2013-04-22T13:44:27Z</time>
      </trkpt>
      <trkpt lat="45.78651" lon="5.0111">
        <ele>186</ele>
        <time>2013-04-22T13:45:07Z</time>
      </trkpt>
      <trkpt lat="45.78647" lon="5.01102">
        <ele>186</ele>
        <time>2013-04-22T13:48:14Z</time>
      </trkpt>
      <trkpt lat="45.78644" lon="5.01096">
        <ele>186</ele>
        <time>2013-04-22T13:48:20Z</time>
      </trkpt>
      <trkpt lat="45.78637" lon="5.01084">
        <ele>187</ele>
        <time>2013-04-22T13:48:25Z</time>
      </trkpt>
      <trkpt lat="45.78637" lon="5.01084">
        <ele>187</ele>
        <time>2013-04-22T13:48:29Z</time>
      </trkpt>
      <trkpt lat="45.78635" lon="5.01081">
        <ele>186</ele>
        <time>2013-04-22T13:48:38Z</time>
      </trkpt>
      <trkpt lat="45.78623" lon="5.01063">
        <ele>187</ele>
        <time>2013-04-22T13:48:43Z</time>
      </trkpt>
      <trkpt lat="45.78614" lon="5.01046">
        <ele>188</ele>
        <time>2013-04-22T13:48:46Z</time>
      </trkpt>
      <trkpt lat="45.78602" lon="5.01014">
        <ele>190</ele>
        <time>2013-04-22T13:48:47Z</time>
      </trkpt>
      <trkpt lat="45.7859" lon="5.00945">
        <ele>189</ele>
        <time>2013-04-22T13:48:59Z</time>
      </trkpt>
      <trkpt lat="45.78588" lon="5.00913">
        <ele>190</ele>
        <time>2013-04-22T13:49:04Z</time>
      </trkpt>
      <trkpt lat="45.78584" lon="5.00882">
        <ele>188</ele>
        <time>2013-04-22T13:49:09Z</time>
      </trkpt>
      <trkpt lat="45.78583" lon="5.00871">
        <ele>193</ele>
        <time>2013-04-22T13:49:11Z</time>
      </trkpt>
      <trkpt lat="45.78583" lon="5.00853">
        <ele>188</ele>
        <time>2013-04-22T13:49:14Z</time>
      </trkpt>
      <trkpt lat="45.78584" lon="5.00847">
        <ele>189</ele>
        <time>2013-04-22T13:49:15Z</time>
      </trkpt>
      <trkpt lat="45.78584" lon="5.00821">
        <ele>189</ele>
        <time>2013-04-22T13:49:19Z</time>
      </trkpt>
      <trkpt lat="45.78583" lon="5.00808">
        <ele>191</ele>
        <time>2013-04-22T13:49:21Z</time>
      </trkpt>
      <trkpt lat="45.78582" lon="5.00783">
        <ele>191</ele>
        <time>2013-04-22T13:49:25Z</time>
      </trkpt>
      <trkpt lat="45.78583" lon="5.0077">
        <ele>190</ele>
        <time>2013-04-22T13:49:29Z</time>
      </trkpt>
      <trkpt lat="45.78583" lon="5.00769">
        <ele>190</ele>
        <time>2013-04-22T13:49:36Z</time>
      </trkpt>
      <trkpt lat="45.78583" lon="5.00769">
        <ele>190</ele>
        <time>2013-04-22T13:49:45Z</time>
      </trkpt>
      <trkpt lat="45.78583" lon="5.00769">
        <ele>190</ele>
        <time>2013-04-22T13:49:57Z</time>
      </trkpt>
      <trkpt lat="45.78583" lon="5.00769">
        <ele>190</ele>
        <time>2013-04-22T13:50:05Z</time>
      </trkpt>
      <trkpt lat="45.78583" lon="5.00768">
        <ele>190</ele>
        <time>2013-04-22T13:50:18Z</time>
      </trkpt>
      <trkpt lat="45.78583" lon="5.00768">
        <ele>190</ele>
        <time>2013-04-22T13:50:29Z</time>
      </trkpt>
      <trkpt lat="45.78583" lon="5.00768">
        <ele>190</ele>
        <time>2013-04-22T13:50:41Z</time>
      </trkpt>
      <trkpt lat="45.78583" lon="5.00768">
        <ele>190</ele>
        <time>2013-04-22T13:50:50Z</time>
      </trkpt>
      <trkpt lat="45.78583" lon="5.00768">
        <ele>190</ele>
        <time>2013-04-22T13:51:01Z</time>
      </trkpt>
      <trkpt lat="45.78584" lon="5.00767">
        <ele>187</ele>
        <time>2013-04-22T13:51:02Z</time>
      </trkpt>
      <trkpt lat="45.78584" lon="5.0076">
        <ele>188</ele>
        <time>2013-04-22T13:51:05Z</time>
      </trkpt>
      <trkpt lat="45.78584" lon="5.00747">
        <ele>188</ele>
        <time>2013-04-22T13:51:09Z</time>
      </trkpt>
      <trkpt lat="45.78584" lon="5.00744">
        <ele>188</ele>
        <time>2013-04-22T13:51:10Z</time>
      </trkpt>
      <trkpt lat="45.78581" lon="5.0072">
        <ele>190</ele>
        <time>2013-04-22T13:51:16Z</time>
      </trkpt>
      <trkpt lat="45.78583" lon="5.00699">
        <ele>190</ele>
        <time>2013-04-22T13:51:22Z</time>
      </trkpt>
      <trkpt lat="45.78583" lon="5.00675">
        <ele>190</ele>
        <time>2013-04-22T13:51:27Z</time>
      </trkpt>
      <trkpt lat="45.78589" lon="5.00634">
        <ele>186</ele>
        <time>2013-04-22T13:51:34Z</time>
      </trkpt>
      <trkpt lat="45.78593" lon="5.00599">
        <ele>188</ele>
        <time>2013-04-22T13:51:40Z</time>
      </trkpt>
      <trkpt lat="45.78597" lon="5.00563">
        <ele>188</ele>
        <time>2013-04-22T13:51:46Z</time>
      </trkpt>
      <trkpt lat="45.78598" lon="5.00558">
        <ele>188</ele>
        <time>2013-04-22T13:51:47Z</time>
      </trkpt>
      <trkpt lat="45.78606" lon="5.00522">
        <ele>187</ele>
        <time>2013-04-22T13:51:53Z</time>
      </trkpt>
      <trkpt lat="45.78614" lon="5.0048">
        <ele>187</ele>
        <time>2013-04-22T13:52:00Z</time>
      </trkpt>
      <trkpt lat="45.78624" lon="5.0044">
        <ele>186</ele>
        <time>2013-04-22T13:52:07Z</time>
      </trkpt>
      <trkpt lat="45.78635" lon="5.00393">
        <ele>189</ele>
        <time>2013-04-22T13:52:16Z</time>
      </trkpt>
      <trkpt lat="45.78645" lon="5.00362">
        <ele>191</ele>
        <time>2013-04-22T13:52:21Z</time>
      </trkpt>
      <trkpt lat="45.78656" lon="5.00331">
        <ele>194</ele>
        <time>2013-04-22T13:52:26Z</time>
      </trkpt>
      <trkpt lat="45.78667" lon="5.00285">
        <ele>189</ele>
        <time>2013-04-22T13:52:32Z</time>
      </trkpt>
      <trkpt lat="45.78687" lon="5.00239">
        <ele>188</ele>
        <time>2013-04-22T13:52:39Z</time>
      </trkpt>
      <trkpt lat="45.78704" lon="5.00195">
        <ele>186</ele>
        <time>2013-04-22T13:52:46Z</time>
      </trkpt>
      <trkpt lat="45.78711" lon="5.00176">
        <ele>185</ele>
        <time>2013-04-22T13:52:49Z</time>
      </trkpt>
      <trkpt lat="45.78716" lon="5.00163">
        <ele>187</ele>
        <time>2013-04-22T13:52:51Z</time>
      </trkpt>
      <trkpt lat="45.78733" lon="5.00126">
        <ele>189</ele>
        <time>2013-04-22T13:52:57Z</time>
      </trkpt>
      <trkpt lat="45.7874" lon="5.00115">
        <ele>190</ele>
        <time>2013-04-22T13:52:59Z</time>
      </trkpt>
      <trkpt lat="45.78749" lon="5.00099">
        <ele>191</ele>
        <time>2013-04-22T13:53:02Z</time>
      </trkpt>
      <trkpt lat="45.78756" lon="5.00085">
        <ele>190</ele>
        <time>2013-04-22T13:53:05Z</time>
      </trkpt>
      <trkpt lat="45.7876" lon="5.0008">
        <ele>191</ele>
        <time>2013-04-22T13:53:06Z</time>
      </trkpt>
      <trkpt lat="45.78773" lon="5.00057">
        <ele>190</ele>
        <time>2013-04-22T13:53:10Z</time>
      </trkpt>
      <trkpt lat="45.78778" lon="5.00047">
        <ele>189</ele>
        <time>2013-04-22T13:53:12Z</time>
      </trkpt>
      <trkpt lat="45.78789" lon="5.00025">
        <ele>189</ele>
        <time>2013-04-22T13:53:16Z</time>
      </trkpt>
      <trkpt lat="45.78794" lon="5.00016">
        <ele>189</ele>
        <time>2013-04-22T13:53:18Z</time>
      </trkpt>
      <trkpt lat="45.78811" lon="4.99995">
        <ele>191</ele>
        <time>2013-04-22T13:53:23Z</time>
      </trkpt>
      <trkpt lat="45.78835" lon="4.99967">
        <ele>190</ele>
        <time>2013-04-22T13:53:29Z</time>
      </trkpt>
      <trkpt lat="45.78853" lon="4.99951">
        <ele>190</ele>
        <time>2013-04-22T13:53:33Z</time>
      </trkpt>
      <trkpt lat="45.78867" lon="4.99935">
        <ele>190</ele>
        <time>2013-04-22T13:53:37Z</time>
      </trkpt>
      <trkpt lat="45.78892" lon="4.99911">
        <ele>191</ele>
        <time>2013-04-22T13:53:43Z</time>
      </trkpt>
      <trkpt lat="45.78916" lon="4.99895">
        <ele>190</ele>
        <time>2013-04-22T13:53:48Z</time>
      </trkpt>
      <trkpt lat="45.78952" lon="4.99873">
        <ele>188</ele>
        <time>2013-04-22T13:53:55Z</time>
      </trkpt>
      <trkpt lat="45.78975" lon="4.99856">
        <ele>188</ele>
        <time>2013-04-22T13:54:00Z</time>
      </trkpt>
      <trkpt lat="45.78991" lon="4.9984">
        <ele>189</ele>
        <time>2013-04-22T13:54:04Z</time>
      </trkpt>
      <trkpt lat="45.78997" lon="4.99833">
        <ele>190</ele>
        <time>2013-04-22T13:54:06Z</time>
      </trkpt>
      <trkpt lat="45.79006" lon="4.9982">
        <ele>188</ele>
        <time>2013-04-22T13:54:09Z</time>
      </trkpt>
      <trkpt lat="45.79016" lon="4.99808">
        <ele>186</ele>
        <time>2013-04-22T13:54:12Z</time>
      </trkpt>
      <trkpt lat="45.79034" lon="4.99784">
        <ele>185</ele>
        <time>2013-04-22T13:54:18Z</time>
      </trkpt>
      <trkpt lat="45.79052" lon="4.99757">
        <ele>183</ele>
        <time>2013-04-22T13:54:24Z</time>
      </trkpt>
      <trkpt lat="45.79064" lon="4.99731">
        <ele>184</ele>
        <time>2013-04-22T13:54:29Z</time>
      </trkpt>
      <trkpt lat="45.79075" lon="4.997">
        <ele>186</ele>
        <time>2013-04-22T13:54:35Z</time>
      </trkpt>
      <trkpt lat="45.79086" lon="4.99675">
        <ele>186</ele>
        <time>2013-04-22T13:54:40Z</time>
      </trkpt>
      <trkpt lat="45.79088" lon="4.9967">
        <ele>187</ele>
        <time>2013-04-22T13:54:41Z</time>
      </trkpt>
      <trkpt lat="45.79094" lon="4.99656">
        <ele>187</ele>
        <time>2013-04-22T13:54:44Z</time>
      </trkpt>
      <trkpt lat="45.79113" lon="4.99629">
        <ele>186</ele>
        <time>2013-04-22T13:54:50Z</time>
      </trkpt>
      <trkpt lat="45.79125" lon="4.99619">
        <ele>186</ele>
        <time>2013-04-22T13:54:53Z</time>
      </trkpt>
      <trkpt lat="45.79136" lon="4.99615">
        <ele>186</ele>
        <time>2013-04-22T13:54:55Z</time>
      </trkpt>
      <trkpt lat="45.79165" lon="4.99602">
        <ele>186</ele>
        <time>2013-04-22T13:55:00Z</time>
      </trkpt>
      <trkpt lat="45.7917" lon="4.99599">
        <ele>183</ele>
        <time>2013-04-22T13:55:01Z</time>
      </trkpt>
      <trkpt lat="45.79179" lon="4.99594">
        <ele>183</ele>
        <time>2013-04-22T13:55:03Z</time>
      </trkpt>
      <trkpt lat="45.79186" lon="4.99588">
        <ele>183</ele>
        <time>2013-04-22T13:55:05Z</time>
      </trkpt>
      <trkpt lat="45.79194" lon="4.9958">
        <ele>184</ele>
        <time>2013-04-22T13:55:07Z</time>
      </trkpt>
      <trkpt lat="45.79211" lon="4.99564">
        <ele>183</ele>
        <time>2013-04-22T13:55:11Z</time>
      </trkpt>
      <trkpt lat="45.79219" lon="4.99556">
        <ele>183</ele>
        <time>2013-04-22T13:55:13Z</time>
      </trkpt>
      <trkpt lat="45.79241" lon="4.99534">
        <ele>183</ele>
        <time>2013-04-22T13:55:19Z</time>
      </trkpt>
      <trkpt lat="45.79266" lon="4.9951">
        <ele>182</ele>
        <time>2013-04-22T13:55:25Z</time>
      </trkpt>
      <trkpt lat="45.79298" lon="4.99492">
        <ele>182</ele>
        <time>2013-04-22T13:55:32Z</time>
      </trkpt>
      <trkpt lat="45.79318" lon="4.99478">
        <ele>182</ele>
        <time>2013-04-22T13:55:37Z</time>
      </trkpt>
      <trkpt lat="45.79336" lon="4.99462">
        <ele>181</ele>
        <time>2013-04-22T13:55:42Z</time>
      </trkpt>
      <trkpt lat="45.79351" lon="4.9945">
        <ele>182</ele>
        <time>2013-04-22T13:55:46Z</time>
      </trkpt>
      <trkpt lat="45.79359" lon="4.99444">
        <ele>182</ele>
        <time>2013-04-22T13:55:48Z</time>
      </trkpt>
      <trkpt lat="45.79366" lon="4.99438">
        <ele>182</ele>
        <time>2013-04-22T13:55:50Z</time>
      </trkpt>
      <trkpt lat="45.79378" lon="4.99425">
        <ele>182</ele>
        <time>2013-04-22T13:55:54Z</time>
      </trkpt>
      <trkpt lat="45.79397" lon="4.9941">
        <ele>185</ele>
        <time>2013-04-22T13:56:00Z</time>
      </trkpt>
      <trkpt lat="45.79415" lon="4.99389">
        <ele>185</ele>
        <time>2013-04-22T13:56:05Z</time>
      </trkpt>
      <trkpt lat="45.79428" lon="4.99362">
        <ele>184</ele>
        <time>2013-04-22T13:56:11Z</time>
      </trkpt>
      <trkpt lat="45.79439" lon="4.99334">
        <ele>184</ele>
        <time>2013-04-22T13:56:17Z</time>
      </trkpt>
      <trkpt lat="45.79442" lon="4.99322">
        <ele>184</ele>
        <time>2013-04-22T13:56:19Z</time>
      </trkpt>
      <trkpt lat="45.79445" lon="4.99303">
        <ele>184</ele>
        <time>2013-04-22T13:56:22Z</time>
      </trkpt>
      <trkpt lat="45.79447" lon="4.99276">
        <ele>184</ele>
        <time>2013-04-22T13:56:27Z</time>
      </trkpt>
      <trkpt lat="45.79449" lon="4.99253">
        <ele>184</ele>
        <time>2013-04-22T13:56:32Z</time>
      </trkpt>
      <trkpt lat="45.79451" lon="4.99228">
        <ele>184</ele>
        <time>2013-04-22T13:56:37Z</time>
      </trkpt>
      <trkpt lat="45.79455" lon="4.99197">
        <ele>183</ele>
        <time>2013-04-22T13:56:43Z</time>
      </trkpt>
      <trkpt lat="45.79462" lon="4.99134">
        <ele>181</ele>
        <time>2013-04-22T13:56:57Z</time>
      </trkpt>
      <trkpt lat="45.79462" lon="4.99116">
        <ele>181</ele>
        <time>2013-04-22T13:57:02Z</time>
      </trkpt>
      <trkpt lat="45.7946" lon="4.99102">
        <ele>180</ele>
        <time>2013-04-22T13:57:08Z</time>
      </trkpt>
      <trkpt lat="45.79485" lon="4.99096">
        <ele>180</ele>
        <time>2013-04-22T14:05:25Z</time>
      </trkpt>
      <trkpt lat="45.79491" lon="4.99095">
        <ele>180</ele>
        <time>2013-04-22T14:05:27Z</time>
      </trkpt>
      <trkpt lat="45.79512" lon="4.9909">
        <ele>180</ele>
        <time>2013-04-22T14:05:33Z</time>
      </trkpt>
      <trkpt lat="45.79531" lon="4.99089">
        <ele>180</ele>
        <time>2013-04-22T14:05:39Z</time>
      </trkpt>
      <trkpt lat="45.79551" lon="4.99086">
        <ele>181</ele>
        <time>2013-04-22T14:05:46Z</time>
      </trkpt>
      <trkpt lat="45.79566" lon="4.99085">
        <ele>181</ele>
      </trkpt>
      <trkpt lat="45.79554" lon="4.98984">
        <ele>179</ele>
      </trkpt>
      <trkpt lat="45.79534" lon="4.98903">
        <ele>178</ele>
      </trkpt>
      <trkpt lat="45.79516" lon="4.98841">
        <ele>178</ele>
      </trkpt>
      <trkpt lat="45.79466" lon="4.98771">
        <ele>179</ele>
      </trkpt>
      <trkpt lat="45.79392" lon="4.98641">
        <ele>178</ele>
      </trkpt>
      <trkpt lat="45.7927" lon="4.98443">
        <ele>178</ele>
      </trkpt>
      <trkpt lat="45.79259" lon="4.98404">
        <ele>178</ele>
      </trkpt>
      <trkpt lat="45.79221" lon="4.98334">
        <ele>179</ele>
      </trkpt>
      <trkpt lat="45.79221" lon="4.98331">
        <ele>179</ele>
      </trkpt>
      <trkpt lat="45.79221" lon="4.98298">
        <ele>179</ele>
      </trkpt>
      <trkpt lat="45.79365" lon="4.9828">
        <ele>176</ele>
      </trkpt>
      <trkpt lat="45.79364" lon="4.98276">
        <ele>176</ele>
      </trkpt>
      <trkpt lat="45.79361" lon="4.9827">
        <ele>176</ele>
        <time>2013-04-22T14:18:19Z</time>
      </trkpt>
      <trkpt lat="45.79361" lon="4.98264">
        <ele>176</ele>
        <time>2013-04-22T14:18:21Z</time>
      </trkpt>
      <trkpt lat="45.79361" lon="4.98252">
        <ele>176</ele>
        <time>2013-04-22T14:18:24Z</time>
      </trkpt>
      <trkpt lat="45.79361" lon="4.98224">
        <ele>175</ele>
        <time>2013-04-22T14:18:30Z</time>
      </trkpt>
      <trkpt lat="45.79364" lon="4.98182">
        <ele>175</ele>
        <time>2013-04-22T14:18:38Z</time>
      </trkpt>
      <trkpt lat="45.79369" lon="4.9813">
        <ele>176</ele>
        <time>2013-04-22T14:18:47Z</time>
      </trkpt>
      <trkpt lat="45.79372" lon="4.98097">
        <ele>176</ele>
        <time>2013-04-22T14:18:54Z</time>
      </trkpt>
      <trkpt lat="45.79363" lon="4.98064">
        <ele>177</ele>
        <time>2013-04-22T14:19:00Z</time>
      </trkpt>
      <trkpt lat="45.79364" lon="4.98036">
        <ele>177</ele>
        <time>2013-04-22T14:19:05Z</time>
      </trkpt>
      <trkpt lat="45.79368" lon="4.97992">
        <ele>177</ele>
        <time>2013-04-22T14:19:13Z</time>
      </trkpt>
      <trkpt lat="45.79374" lon="4.97958">
        <ele>177</ele>
        <time>2013-04-22T14:19:19Z</time>
      </trkpt>
      <trkpt lat="45.79381" lon="4.97949">
        <ele>177</ele>
        <time>2013-04-22T14:19:21Z</time>
      </trkpt>
      <trkpt lat="45.79395" lon="4.97933">
        <ele>177</ele>
        <time>2013-04-22T14:19:25Z</time>
      </trkpt>
      <trkpt lat="45.79406" lon="4.97918">
        <ele>178</ele>
        <time>2013-04-22T14:19:31Z</time>
      </trkpt>
      <trkpt lat="45.7945" lon="4.97886">
        <ele>179</ele>
        <time>2013-04-22T14:19:44Z</time>
      </trkpt>
      <trkpt lat="45.79468" lon="4.97878">
        <ele>179</ele>
        <time>2013-04-22T14:19:48Z</time>
      </trkpt>
      <trkpt lat="45.79497" lon="4.97867">
        <ele>178</ele>
        <time>2013-04-22T14:19:54Z</time>
      </trkpt>
      <trkpt lat="45.79518" lon="4.97859">
        <ele>177</ele>
        <time>2013-04-22T14:19:59Z</time>
      </trkpt>
      <trkpt lat="45.79534" lon="4.97854">
        <ele>177</ele>
        <time>2013-04-22T14:20:02Z</time>
      </trkpt>
      <trkpt lat="45.7955" lon="4.97844">
        <ele>177</ele>
        <time>2013-04-22T14:20:05Z</time>
      </trkpt>
      <trkpt lat="45.79554" lon="4.97816">
        <ele>176</ele>
        <time>2013-04-22T14:20:09Z</time>
      </trkpt>
      <trkpt lat="45.79557" lon="4.97803">
        <ele>176</ele>
        <time>2013-04-22T14:20:10Z</time>
      </trkpt>
      <trkpt lat="45.79565" lon="4.97791">
        <ele>177</ele>
        <time>2013-04-22T14:20:15Z</time>
      </trkpt>
      <trkpt lat="45.79586" lon="4.97784">
        <ele>174</ele>
      </trkpt>
      <trkpt lat="45.79588" lon="4.97776">
        <ele>175</ele>
        <time>2013-04-22T14:22:15Z</time>
      </trkpt>
      <trkpt lat="45.79597" lon="4.97755">
        <ele>175</ele>
        <time>2013-04-22T14:22:20Z</time>
      </trkpt>
      <trkpt lat="45.7962" lon="4.97725">
        <ele>175</ele>
        <time>2013-04-22T14:22:28Z</time>
      </trkpt>
      <trkpt lat="45.7963" lon="4.97714">
        <ele>175</ele>
        <time>2013-04-22T14:22:31Z</time>
      </trkpt>
      <trkpt lat="45.79635" lon="4.97704">
        <ele>176</ele>
        <time>2013-04-22T14:22:33Z</time>
      </trkpt>
      <trkpt lat="45.79646" lon="4.97674">
        <ele>177</ele>
        <time>2013-04-22T14:22:39Z</time>
      </trkpt>
      <trkpt lat="45.79661" lon="4.97638">
        <ele>178</ele>
        <time>2013-04-22T14:22:46Z</time>
      </trkpt>
      <trkpt lat="45.79669" lon="4.97625">
        <ele>176</ele>
        <time>2013-04-22T14:22:50Z</time>
      </trkpt>
      <trkpt lat="45.797" lon="4.97611">
        <ele>175</ele>
        <time>2013-04-22T14:22:56Z</time>
      </trkpt>
      <trkpt lat="45.79717" lon="4.97601">
        <ele>174</ele>
        <time>2013-04-22T14:23:02Z</time>
      </trkpt>
      <trkpt lat="45.79722" lon="4.97586">
        <ele>173</ele>
        <time>2013-04-22T14:23:08Z</time>
      </trkpt>
      <trkpt lat="45.79724" lon="4.97563">
        <ele>175</ele>
        <time>2013-04-22T14:23:17Z</time>
      </trkpt>
      <trkpt lat="45.79725" lon="4.97558">
        <ele>176</ele>
        <time>2013-04-22T14:23:18Z</time>
      </trkpt>
      <trkpt lat="45.79724" lon="4.9753">
        <ele>177</ele>
        <time>2013-04-22T14:23:24Z</time>
      </trkpt>
      <trkpt lat="45.79722" lon="4.97502">
        <ele>178</ele>
        <time>2013-04-22T14:23:30Z</time>
      </trkpt>
      <trkpt lat="45.79719" lon="4.97465">
        <ele>179</ele>
        <time>2013-04-22T14:23:37Z</time>
      </trkpt>
      <trkpt lat="45.79717" lon="4.97408">
        <ele>178</ele>
        <time>2013-04-22T14:23:46Z</time>
      </trkpt>
      <trkpt lat="45.79714" lon="4.97361">
        <ele>178</ele>
        <time>2013-04-22T14:23:53Z</time>
      </trkpt>
      <trkpt lat="45.79714" lon="4.97323">
        <ele>177</ele>
        <time>2013-04-22T14:23:59Z</time>
      </trkpt>
      <trkpt lat="45.79714" lon="4.97315">
        <ele>177</ele>
        <time>2013-04-22T14:24:00Z</time>
      </trkpt>
      <trkpt lat="45.79715" lon="4.97286">
        <ele>177</ele>
        <time>2013-04-22T14:24:05Z</time>
      </trkpt>
      <trkpt lat="45.79715" lon="4.97279">
        <ele>177</ele>
        <time>2013-04-22T14:24:06Z</time>
      </trkpt>
      <trkpt lat="45.79716" lon="4.97238">
        <ele>177</ele>
        <time>2013-04-22T14:24:12Z</time>
      </trkpt>
      <trkpt lat="45.79716" lon="4.97231">
        <ele>177</ele>
        <time>2013-04-22T14:24:13Z</time>
      </trkpt>
      <trkpt lat="45.7971" lon="4.97188">
        <ele>177</ele>
        <time>2013-04-22T14:24:19Z</time>
      </trkpt>
      <trkpt lat="45.79708" lon="4.97182">
        <ele>178</ele>
        <time>2013-04-22T14:24:20Z</time>
      </trkpt>
      <trkpt lat="45.79701" lon="4.97164">
        <ele>178</ele>
        <time>2013-04-22T14:24:23Z</time>
      </trkpt>
      <trkpt lat="45.79694" lon="4.97145">
        <ele>178</ele>
        <time>2013-04-22T14:24:26Z</time>
      </trkpt>
      <trkpt lat="45.79685" lon="4.97112">
        <ele>178</ele>
        <time>2013-04-22T14:24:30Z</time>
      </trkpt>
      <trkpt lat="45.79685" lon="4.97103">
        <ele>178</ele>
        <time>2013-04-22T14:24:31Z</time>
      </trkpt>
      <trkpt lat="45.79685" lon="4.97095">
        <ele>178</ele>
        <time>2013-04-22T14:24:32Z</time>
      </trkpt>
      <trkpt lat="45.79686" lon="4.97087">
        <ele>178</ele>
        <time>2013-04-22T14:24:33Z</time>
      </trkpt>
      <trkpt lat="45.79687" lon="4.9708">
        <ele>178</ele>
        <time>2013-04-22T14:24:34Z</time>
      </trkpt>
      <trkpt lat="45.79689" lon="4.97074">
        <ele>178</ele>
        <time>2013-04-22T14:24:35Z</time>
      </trkpt>
      <trkpt lat="45.79693" lon="4.97062">
        <ele>178</ele>
        <time>2013-04-22T14:24:37Z</time>
      </trkpt>
      <trkpt lat="45.797" lon="4.97044">
        <ele>177</ele>
        <time>2013-04-22T14:24:40Z</time>
      </trkpt>
      <trkpt lat="45.79703" lon="4.97038">
        <ele>177</ele>
        <time>2013-04-22T14:24:41Z</time>
      </trkpt>
      <trkpt lat="45.79711" lon="4.97025">
        <ele>177</ele>
        <time>2013-04-22T14:24:43Z</time>
      </trkpt>
      <trkpt lat="45.79717" lon="4.97022">
        <ele>177</ele>
        <time>2013-04-22T14:24:44Z</time>
      </trkpt>
      <trkpt lat="45.79723" lon="4.9702">
        <ele>177</ele>
        <time>2013-04-22T14:24:45Z</time>
      </trkpt>
      <trkpt lat="45.79729" lon="4.97019">
        <ele>177</ele>
        <time>2013-04-22T14:24:46Z</time>
      </trkpt>
      <trkpt lat="45.79735" lon="4.9702">
        <ele>177</ele>
        <time>2013-04-22T14:24:47Z</time>
      </trkpt>
      <trkpt lat="45.79741" lon="4.97022">
        <ele>177</ele>
        <time>2013-04-22T14:24:48Z</time>
      </trkpt>
      <trkpt lat="45.79746" lon="4.97023">
        <ele>177</ele>
        <time>2013-04-22T14:24:49Z</time>
      </trkpt>
      <trkpt lat="45.79757" lon="4.97024">
        <ele>176</ele>
        <time>2013-04-22T14:24:51Z</time>
      </trkpt>
      <trkpt lat="45.79767" lon="4.97023">
        <ele>176</ele>
        <time>2013-04-22T14:24:53Z</time>
      </trkpt>
      <trkpt lat="45.79782" lon="4.97008">
        <ele>176</ele>
        <time>2013-04-22T14:24:57Z</time>
      </trkpt>
      <trkpt lat="45.7978" lon="4.96981">
        <ele>176</ele>
        <time>2013-04-22T14:25:16Z</time>
      </trkpt>
      <trkpt lat="45.79789" lon="4.96932">
        <ele>176</ele>
        <time>2013-04-22T14:25:24Z</time>
      </trkpt>
      <trkpt lat="45.79789" lon="4.96918">
        <ele>176</ele>
        <time>2013-04-22T14:25:27Z</time>
      </trkpt>
      <trkpt lat="45.7979" lon="4.96898">
        <ele>175</ele>
        <time>2013-04-22T14:25:32Z</time>
      </trkpt>
      <trkpt lat="45.79775" lon="4.96886">
        <ele>175</ele>
        <time>2013-04-22T14:25:36Z</time>
      </trkpt>
      <trkpt lat="45.79768" lon="4.96882">
        <ele>175</ele>
        <time>2013-04-22T14:25:38Z</time>
      </trkpt>
      <trkpt lat="45.7975" lon="4.9687">
        <ele>176</ele>
        <time>2013-04-22T14:25:43Z</time>
      </trkpt>
      <trkpt lat="45.79741" lon="4.96846">
        <ele>175</ele>
        <time>2013-04-22T14:25:48Z</time>
      </trkpt>
      <trkpt lat="45.79737" lon="4.96807">
        <ele>176</ele>
        <time>2013-04-22T14:25:55Z</time>
      </trkpt>
      <trkpt lat="45.79734" lon="4.96775">
        <ele>176</ele>
        <time>2013-04-22T14:26:01Z</time>
      </trkpt>
      <trkpt lat="45.79734" lon="4.96748">
        <ele>177</ele>
        <time>2013-04-22T14:26:06Z</time>
      </trkpt>
      <trkpt lat="45.79737" lon="4.96714">
        <ele>177</ele>
        <time>2013-04-22T14:26:12Z</time>
      </trkpt>
      <trkpt lat="45.79743" lon="4.96673">
        <ele>177</ele>
        <time>2013-04-22T14:26:19Z</time>
      </trkpt>
      <trkpt lat="45.79749" lon="4.96639">
        <ele>178</ele>
        <time>2013-04-22T14:26:25Z</time>
      </trkpt>
      <trkpt lat="45.79752" lon="4.96608">
        <ele>175</ele>
        <time>2013-04-22T14:26:32Z</time>
      </trkpt>
      <trkpt lat="45.79756" lon="4.96569">
        <ele>175</ele>
        <time>2013-04-22T14:26:39Z</time>
      </trkpt>
      <trkpt lat="45.79759" lon="4.96536">
        <ele>175</ele>
        <time>2013-04-22T14:26:45Z</time>
      </trkpt>
      <trkpt lat="45.7976" lon="4.9651">
        <ele>176</ele>
        <time>2013-04-22T14:26:50Z</time>
      </trkpt>
      <trkpt lat="45.79762" lon="4.96497">
        <ele>177</ele>
        <time>2013-04-22T14:26:53Z</time>
      </trkpt>
      <trkpt lat="45.79765" lon="4.96491">
        <ele>177</ele>
        <time>2013-04-22T14:26:55Z</time>
      </trkpt>
      <trkpt lat="45.79772" lon="4.96479">
        <ele>177</ele>
        <time>2013-04-22T14:27:45Z</time>
      </trkpt>
      <trkpt lat="45.79782" lon="4.96476">
        <ele>177</ele>
        <time>2013-04-22T14:27:48Z</time>
      </trkpt>
      <trkpt lat="45.79786" lon="4.96476">
        <ele>177</ele>
        <time>2013-04-22T14:27:49Z</time>
      </trkpt>
      <trkpt lat="45.79808" lon="4.96477">
        <ele>176</ele>
        <time>2013-04-22T14:27:54Z</time>
      </trkpt>
      <trkpt lat="45.79812" lon="4.96477">
        <ele>176</ele>
        <time>2013-04-22T14:27:55Z</time>
      </trkpt>
      <trkpt lat="45.79821" lon="4.96474">
        <ele>176</ele>
        <time>2013-04-22T14:27:58Z</time>
      </trkpt>
      <trkpt lat="45.79838" lon="4.96453">
        <ele>175</ele>
        <time>2013-04-22T14:28:02Z</time>
      </trkpt>
      <trkpt lat="45.79844" lon="4.96424">
        <ele>175</ele>
        <time>2013-04-22T14:28:04Z</time>
      </trkpt>
      <trkpt lat="45.79847" lon="4.96396">
        <ele>175</ele>
        <time>2013-04-22T14:28:09Z</time>
      </trkpt>
      <trkpt lat="45.7985" lon="4.96361">
        <ele>175</ele>
        <time>2013-04-22T14:28:16Z</time>
      </trkpt>
      <trkpt lat="45.79856" lon="4.9631">
        <ele>174</ele>
        <time>2013-04-22T14:28:24Z</time>
      </trkpt>
      <trkpt lat="45.79863" lon="4.9627">
        <ele>175</ele>
        <time>2013-04-22T14:28:32Z</time>
      </trkpt>
      <trkpt lat="45.79866" lon="4.96222">
        <ele>175</ele>
        <time>2013-04-22T14:28:35Z</time>
      </trkpt>
      <trkpt lat="45.79864" lon="4.96214">
        <ele>175</ele>
        <time>2013-04-22T14:28:37Z</time>
      </trkpt>
      <trkpt lat="45.79853" lon="4.96173">
        <ele>176</ele>
        <time>2013-04-22T14:28:44Z</time>
      </trkpt>
      <trkpt lat="45.7985" lon="4.96146">
        <ele>176</ele>
        <time>2013-04-22T14:28:47Z</time>
      </trkpt>
      <trkpt lat="45.79852" lon="4.96129">
        <ele>175</ele>
        <time>2013-04-22T14:28:51Z</time>
      </trkpt>
      <trkpt lat="45.79853" lon="4.96116">
        <ele>176</ele>
        <time>2013-04-22T14:28:53Z</time>
      </trkpt>
      <trkpt lat="45.79853" lon="4.96097">
        <ele>176</ele>
        <time>2013-04-22T14:28:56Z</time>
      </trkpt>
      <trkpt lat="45.79853" lon="4.96076">
        <ele>176</ele>
        <time>2013-04-22T14:28:59Z</time>
      </trkpt>
      <trkpt lat="45.79853" lon="4.96054">
        <ele>175</ele>
        <time>2013-04-22T14:29:02Z</time>
      </trkpt>
      <trkpt lat="45.79851" lon="4.96034">
        <ele>175</ele>
        <time>2013-04-22T14:29:05Z</time>
      </trkpt>
      <trkpt lat="45.7985" lon="4.96024">
        <ele>175</ele>
        <time>2013-04-22T14:29:07Z</time>
      </trkpt>
      <trkpt lat="45.79851" lon="4.96">
        <ele>175</ele>
        <time>2013-04-22T14:29:10Z</time>
      </trkpt>
      <trkpt lat="45.79851" lon="4.95948">
        <ele>173</ele>
        <time>2013-04-22T14:29:18Z</time>
      </trkpt>
      <trkpt lat="45.79852" lon="4.959">
        <ele>171</ele>
        <time>2013-04-22T14:29:25Z</time>
      </trkpt>
      <trkpt lat="45.79851" lon="4.95878">
        <ele>171</ele>
        <time>2013-04-22T14:29:28Z</time>
      </trkpt>
      <trkpt lat="45.79849" lon="4.9585">
        <ele>171</ele>
        <time>2013-04-22T14:29:32Z</time>
      </trkpt>
      <trkpt lat="45.79847" lon="4.95791">
        <ele>172</ele>
        <time>2013-04-22T14:29:40Z</time>
      </trkpt>
      <trkpt lat="45.79845" lon="4.95729">
        <ele>174</ele>
        <time>2013-04-22T14:29:48Z</time>
      </trkpt>
      <trkpt lat="45.79842" lon="4.95685">
        <ele>174</ele>
        <time>2013-04-22T14:29:54Z</time>
      </trkpt>
      <trkpt lat="45.79839" lon="4.95645">
        <ele>174</ele>
        <time>2013-04-22T14:30:00Z</time>
      </trkpt>
      <trkpt lat="45.79838" lon="4.9563">
        <ele>174</ele>
        <time>2013-04-22T14:30:02Z</time>
      </trkpt>
      <trkpt lat="45.79829" lon="4.95606">
        <ele>177</ele>
        <time>2013-04-22T14:30:05Z</time>
      </trkpt>
      <trkpt lat="45.79814" lon="4.95587">
        <ele>177</ele>
        <time>2013-04-22T14:30:09Z</time>
      </trkpt>
      <trkpt lat="45.79806" lon="4.95573">
        <ele>176</ele>
        <time>2013-04-22T14:30:10Z</time>
      </trkpt>
      <trkpt lat="45.79781" lon="4.95541">
        <ele>176</ele>
        <time>2013-04-22T14:30:17Z</time>
      </trkpt>
      <trkpt lat="45.7977" lon="4.95526">
        <ele>175</ele>
        <time>2013-04-22T14:30:20Z</time>
      </trkpt>
      <trkpt lat="45.79759" lon="4.95514">
        <ele>175</ele>
        <time>2013-04-22T14:30:23Z</time>
      </trkpt>
      <trkpt lat="45.79725" lon="4.95487">
        <ele>175</ele>
        <time>2013-04-22T14:30:32Z</time>
      </trkpt>
      <trkpt lat="45.79706" lon="4.95472">
        <ele>175</ele>
        <time>2013-04-22T14:30:37Z</time>
      </trkpt>
      <trkpt lat="45.79699" lon="4.95463">
        <ele>175</ele>
        <time>2013-04-22T14:30:39Z</time>
      </trkpt>
      <trkpt lat="45.7969" lon="4.95439">
        <ele>175</ele>
        <time>2013-04-22T14:30:43Z</time>
      </trkpt>
      <trkpt lat="45.79689" lon="4.95432">
        <ele>175</ele>
        <time>2013-04-22T14:30:44Z</time>
      </trkpt>
      <trkpt lat="45.79687" lon="4.9539">
        <ele>174</ele>
        <time>2013-04-22T14:30:50Z</time>
      </trkpt>
      <trkpt lat="45.79686" lon="4.95382">
        <ele>174</ele>
        <time>2013-04-22T14:30:51Z</time>
      </trkpt>
      <trkpt lat="45.79686" lon="4.9536">
        <ele>174</ele>
        <time>2013-04-22T14:30:54Z</time>
      </trkpt>
      <trkpt lat="45.79687" lon="4.95314">
        <ele>173</ele>
        <time>2013-04-22T14:31:01Z</time>
      </trkpt>
      <trkpt lat="45.79686" lon="4.9527">
        <ele>173</ele>
        <time>2013-04-22T14:31:08Z</time>
      </trkpt>
      <trkpt lat="45.79686" lon="4.95263">
        <ele>172</ele>
        <time>2013-04-22T14:31:09Z</time>
      </trkpt>
      <trkpt lat="45.79685" lon="4.95257">
        <ele>172</ele>
        <time>2013-04-22T14:31:10Z</time>
      </trkpt>
      <trkpt lat="45.79685" lon="4.95252">
        <ele>172</ele>
        <time>2013-04-22T14:31:11Z</time>
      </trkpt>
      <trkpt lat="45.79685" lon="4.95246">
        <ele>172</ele>
        <time>2013-04-22T14:31:12Z</time>
      </trkpt>
      <trkpt lat="45.79685" lon="4.95229">
        <ele>172</ele>
        <time>2013-04-22T14:31:15Z</time>
      </trkpt>
      <trkpt lat="45.79684" lon="4.95188">
        <ele>172</ele>
        <time>2013-04-22T14:31:22Z</time>
      </trkpt>
      <trkpt lat="45.79683" lon="4.95147">
        <ele>172</ele>
        <time>2013-04-22T14:31:29Z</time>
      </trkpt>
      <trkpt lat="45.79694" lon="4.95112">
        <ele>172</ele>
        <time>2013-04-22T14:31:35Z</time>
      </trkpt>
      <trkpt lat="45.79707" lon="4.95075">
        <ele>173</ele>
        <time>2013-04-22T14:31:42Z</time>
      </trkpt>
      <trkpt lat="45.79723" lon="4.95045">
        <ele>173</ele>
        <time>2013-04-22T14:31:49Z</time>
      </trkpt>
      <trkpt lat="45.79742" lon="4.95011">
        <ele>174</ele>
        <time>2013-04-22T14:31:56Z</time>
      </trkpt>
      <trkpt lat="45.79762" lon="4.94975">
        <ele>174</ele>
        <time>2013-04-22T14:32:03Z</time>
      </trkpt>
      <trkpt lat="45.79782" lon="4.94944">
        <ele>174</ele>
        <time>2013-04-22T14:32:10Z</time>
      </trkpt>
      <trkpt lat="45.79802" lon="4.94913">
        <ele>175</ele>
        <time>2013-04-22T14:32:18Z</time>
      </trkpt>
      <trkpt lat="45.79817" lon="4.94888">
        <ele>176</ele>
        <time>2013-04-22T14:32:25Z</time>
      </trkpt>
      <trkpt lat="45.79825" lon="4.94877">
        <ele>176</ele>
        <time>2013-04-22T14:32:40Z</time>
      </trkpt>
      <trkpt lat="45.79834" lon="4.94865">
        <ele>176</ele>
      </trkpt>
      <trkpt lat="45.7983" lon="4.94767">
        <ele>175</ele>
      </trkpt>
      <trkpt lat="45.79836" lon="4.94715">
        <ele>176</ele>
        <time>2013-04-22T14:32:41Z</time>
      </trkpt>
      <trkpt lat="45.79827" lon="4.94652">
        <ele>175</ele>
        <time>2013-04-22T14:32:45Z</time>
      </trkpt>
      <trkpt lat="45.79829" lon="4.94512">
        <ele>174</ele>
        <time>2013-04-22T14:32:51Z</time>
      </trkpt>
      <trkpt lat="45.79821" lon="4.94489">
        <ele>174</ele>
        <time>2013-04-22T14:34:23Z</time>
      </trkpt>
      <trkpt lat="45.79809" lon="4.94234">
        <ele>176</ele>
        <time>2013-04-22T14:34:24Z</time>
      </trkpt>
      <trkpt lat="45.79812" lon="4.94234">
        <ele>176</ele>
        <time>2013-04-22T14:34:25Z</time>
      </trkpt>
      <trkpt lat="45.79812" lon="4.9421">
        <ele>176</ele>
        <time>2013-04-22T14:34:27Z</time>
      </trkpt>
      <trkpt lat="45.79821" lon="4.94202">
        <ele>176</ele>
        <time>2013-04-22T14:34:32Z</time>
      </trkpt>
      <trkpt lat="45.79839" lon="4.94191">
        <ele>176</ele>
        <time>2013-04-22T14:34:37Z</time>
      </trkpt>
      <trkpt lat="45.79848" lon="4.94181">
        <ele>176</ele>
        <time>2013-04-22T14:34:41Z</time>
      </trkpt>
      <trkpt lat="45.79855" lon="4.94155">
        <ele>176</ele>
        <time>2013-04-22T14:34:45Z</time>
      </trkpt>
      <trkpt lat="45.79859" lon="4.94127">
        <ele>177</ele>
        <time>2013-04-22T14:34:51Z</time>
      </trkpt>
      <trkpt lat="45.79863" lon="4.94104">
        <ele>177</ele>
        <time>2013-04-22T14:34:57Z</time>
      </trkpt>
      <trkpt lat="45.79862" lon="4.94097">
        <ele>177</ele>
        <time>2013-04-22T14:35:00Z</time>
      </trkpt>
      <trkpt lat="45.79861" lon="4.94092">
        <ele>177</ele>
        <time>2013-04-22T14:38:25Z</time>
      </trkpt>
      <trkpt lat="45.79859" lon="4.94085">
        <ele>177</ele>
        <time>2013-04-22T14:38:26Z</time>
      </trkpt>
      <trkpt lat="45.79855" lon="4.94072">
        <ele>177</ele>
        <time>2013-04-22T14:38:30Z</time>
      </trkpt>
      <trkpt lat="45.79851" lon="4.94068">
        <ele>177</ele>
        <time>2013-04-22T14:38:32Z</time>
      </trkpt>
      <trkpt lat="45.79836" lon="4.94052">
        <ele>177</ele>
        <time>2013-04-22T14:38:37Z</time>
      </trkpt>
      <trkpt lat="45.79827" lon="4.94044">
        <ele>176</ele>
        <time>2013-04-22T14:38:42Z</time>
      </trkpt>
      <trkpt lat="45.79811" lon="4.94038">
        <ele>176</ele>
        <time>2013-04-22T14:38:47Z</time>
      </trkpt>
      <trkpt lat="45.79803" lon="4.94032">
        <ele>176</ele>
        <time>2013-04-22T14:38:50Z</time>
      </trkpt>
      <trkpt lat="45.79801" lon="4.94023">
        <ele>176</ele>
        <time>2013-04-22T14:38:52Z</time>
      </trkpt>
      <trkpt lat="45.798" lon="4.93988">
        <ele>176</ele>
        <time>2013-04-22T14:38:58Z</time>
      </trkpt>
      <trkpt lat="45.79797" lon="4.93949">
        <ele>177</ele>
        <time>2013-04-22T14:39:05Z</time>
      </trkpt>
      <trkpt lat="45.79797" lon="4.9392">
        <ele>177</ele>
        <time>2013-04-22T14:39:10Z</time>
      </trkpt>
      <trkpt lat="45.79797" lon="4.93896">
        <ele>177</ele>
        <time>2013-04-22T14:39:15Z</time>
      </trkpt>
      <trkpt lat="45.79803" lon="4.93884">
        <ele>177</ele>
        <time>2013-04-22T14:39:22Z</time>
      </trkpt>
      <trkpt lat="45.79816" lon="4.9384">
        <ele>178</ele>
        <time>2013-04-22T14:39:29Z</time>
      </trkpt>
      <trkpt lat="45.79824" lon="4.93828">
        <ele>177</ele>
      </trkpt>
      <trkpt lat="45.79847" lon="4.93803">
        <ele>177</ele>
        <time>2013-04-22T14:39:36Z</time>
      </trkpt>
      <trkpt lat="45.79869" lon="4.93785">
        <ele>177</ele>
        <time>2013-04-22T14:39:42Z</time>
      </trkpt>
      <trkpt lat="45.79891" lon="4.93775">
        <ele>178</ele>
        <time>2013-04-22T14:39:48Z</time>
      </trkpt>
      <trkpt lat="45.79909" lon="4.93767">
        <ele>178</ele>
        <time>2013-04-22T14:39:53Z</time>
      </trkpt>
      <trkpt lat="45.79926" lon="4.93761">
        <ele>179</ele>
        <time>2013-04-22T14:39:57Z</time>
      </trkpt>
      <trkpt lat="45.79938" lon="4.93755">
        <ele>179</ele>
        <time>2013-04-22T14:40:00Z</time>
      </trkpt>
      <trkpt lat="45.79946" lon="4.93751">
        <ele>179</ele>
        <time>2013-04-22T14:40:02Z</time>
      </trkpt>
      <trkpt lat="45.79959" lon="4.93745">
        <ele>179</ele>
        <time>2013-04-22T14:40:05Z</time>
      </trkpt>
      <trkpt lat="45.79977" lon="4.93727">
        <ele>180</ele>
        <time>2013-04-22T14:40:09Z</time>
      </trkpt>
      <trkpt lat="45.79985" lon="4.93722">
        <ele>180</ele>
        <time>2013-04-22T14:40:11Z</time>
      </trkpt>
      <trkpt lat="45.80014" lon="4.93701">
        <ele>179</ele>
        <time>2013-04-22T14:40:18Z</time>
      </trkpt>
      <trkpt lat="45.80033" lon="4.93687">
        <ele>178</ele>
        <time>2013-04-22T14:40:23Z</time>
      </trkpt>
      <trkpt lat="45.80051" lon="4.9369">
        <ele>178</ele>
        <time>2013-04-22T14:40:24Z</time>
      </trkpt>
      <trkpt lat="45.80063" lon="4.93687">
        <ele>177</ele>
        <time>2013-04-22T14:40:29Z</time>
      </trkpt>
      <trkpt lat="45.8009" lon="4.93667">
        <ele>176</ele>
        <time>2013-04-22T14:40:37Z</time>
      </trkpt>
      <trkpt lat="45.80108" lon="4.93656">
        <ele>177</ele>
        <time>2013-04-22T14:40:42Z</time>
      </trkpt>
      <trkpt lat="45.80122" lon="4.93645">
        <ele>177</ele>
        <time>2013-04-22T14:40:48Z</time>
      </trkpt>
      <trkpt lat="45.8015" lon="4.93627">
        <ele>177</ele>
        <time>2013-04-22T14:42:04Z</time>
      </trkpt>
      <trkpt lat="45.8017" lon="4.93608">
        <ele>176</ele>
        <time>2013-04-22T14:42:10Z</time>
      </trkpt>
      <trkpt lat="45.80182" lon="4.93593">
        <ele>176</ele>
        <time>2013-04-22T14:42:17Z</time>
      </trkpt>
      <trkpt lat="45.80203" lon="4.93566">
        <ele>177</ele>
        <time>2013-04-22T14:42:23Z</time>
      </trkpt>
      <trkpt lat="45.80211" lon="4.93546">
        <ele>177</ele>
        <time>2013-04-22T14:42:29Z</time>
      </trkpt>
      <trkpt lat="45.8023" lon="4.93526">
        <ele>177</ele>
        <time>2013-04-22T14:42:35Z</time>
      </trkpt>
      <trkpt lat="45.80243" lon="4.9352">
        <ele>177</ele>
        <time>2013-04-22T14:42:40Z</time>
      </trkpt>
      <trkpt lat="45.80258" lon="4.9351">
        <ele>175</ele>
        <time>2013-04-22T14:42:45Z</time>
      </trkpt>
      <trkpt lat="45.80279" lon="4.93493">
        <ele>173</ele>
        <time>2013-04-22T14:42:51Z</time>
      </trkpt>
      <trkpt lat="45.80281" lon="4.93489">
        <ele>173</ele>
        <time>2013-04-22T14:42:52Z</time>
      </trkpt>
      <trkpt lat="45.80283" lon="4.93479">
        <ele>173</ele>
        <time>2013-04-22T14:42:54Z</time>
      </trkpt>
      <trkpt lat="45.80295" lon="4.93439">
        <ele>173</ele>
        <time>2013-04-22T14:43:03Z</time>
      </trkpt>
      <trkpt lat="45.8031" lon="4.93428">
        <ele>172</ele>
        <time>2013-04-22T14:43:08Z</time>
      </trkpt>
      <trkpt lat="45.80323" lon="4.93402">
        <ele>172</ele>
        <time>2013-04-22T14:43:44Z</time>
      </trkpt>
      <trkpt lat="45.80318" lon="4.93381">
        <ele>172</ele>
        <time>2013-04-22T14:43:45Z</time>
      </trkpt>
      <trkpt lat="45.80314" lon="4.93356">
        <ele>172</ele>
        <time>2013-04-22T14:43:50Z</time>
      </trkpt>
      <trkpt lat="45.80305" lon="4.93312">
        <ele>172</ele>
        <time>2013-04-22T14:43:58Z</time>
      </trkpt>
      <trkpt lat="45.803" lon="4.93267">
        <ele>173</ele>
        <time>2013-04-22T14:44:05Z</time>
      </trkpt>
      <trkpt lat="45.80298" lon="4.93235">
        <ele>173</ele>
        <time>2013-04-22T14:44:10Z</time>
      </trkpt>
      <trkpt lat="45.80296" lon="4.93223">
        <ele>173</ele>
        <time>2013-04-22T14:44:12Z</time>
      </trkpt>
      <trkpt lat="45.80292" lon="4.93195">
        <ele>173</ele>
        <time>2013-04-22T14:44:17Z</time>
      </trkpt>
      <trkpt lat="45.80284" lon="4.93147">
        <ele>172</ele>
        <time>2013-04-22T14:44:24Z</time>
      </trkpt>
      <trkpt lat="45.80273" lon="4.93079">
        <ele>172</ele>
        <time>2013-04-22T14:44:33Z</time>
      </trkpt>
      <trkpt lat="45.80268" lon="4.93047">
        <ele>171</ele>
        <time>2013-04-22T14:44:37Z</time>
      </trkpt>
      <trkpt lat="45.80266" lon="4.93039">
        <ele>171</ele>
        <time>2013-04-22T14:44:38Z</time>
      </trkpt>
      <trkpt lat="45.80265" lon="4.93031">
        <ele>171</ele>
        <time>2013-04-22T14:44:39Z</time>
      </trkpt>
      <trkpt lat="45.80263" lon="4.93023">
        <ele>171</ele>
        <time>2013-04-22T14:44:40Z</time>
      </trkpt>
      <trkpt lat="45.80262" lon="4.93014">
        <ele>171</ele>
        <time>2013-04-22T14:44:41Z</time>
      </trkpt>
      <trkpt lat="45.80253" lon="4.9297">
        <ele>171</ele>
        <time>2013-04-22T14:44:47Z</time>
      </trkpt>
      <trkpt lat="45.80245" lon="4.92923">
        <ele>171</ele>
        <time>2013-04-22T14:44:54Z</time>
      </trkpt>
      <trkpt lat="45.80238" lon="4.92895">
        <ele>171</ele>
        <time>2013-04-22T14:44:58Z</time>
      </trkpt>
      <trkpt lat="45.80235" lon="4.92882">
        <ele>172</ele>
        <time>2013-04-22T14:45:00Z</time>
      </trkpt>
      <trkpt lat="45.80235" lon="4.92876">
        <ele>172</ele>
        <time>2013-04-22T14:45:01Z</time>
      </trkpt>
      <trkpt lat="45.80229" lon="4.9285">
        <ele>172</ele>
        <time>2013-04-22T14:45:05Z</time>
      </trkpt>
      <trkpt lat="45.80225" lon="4.92829">
        <ele>173</ele>
        <time>2013-04-22T14:45:08Z</time>
      </trkpt>
      <trkpt lat="45.80223" lon="4.92807">
        <ele>173</ele>
        <time>2013-04-22T14:45:11Z</time>
      </trkpt>
      <trkpt lat="45.8022" lon="4.92751">
        <ele>173</ele>
        <time>2013-04-22T14:45:18Z</time>
      </trkpt>
      <trkpt lat="45.80219" lon="4.92741">
        <ele>174</ele>
        <time>2013-04-22T14:45:19Z</time>
      </trkpt>
      <trkpt lat="45.80218" lon="4.92732">
        <ele>174</ele>
        <time>2013-04-22T14:45:20Z</time>
      </trkpt>
      <trkpt lat="45.80216" lon="4.92722">
        <ele>174</ele>
        <time>2013-04-22T14:45:21Z</time>
      </trkpt>
      <trkpt lat="45.80214" lon="4.92713">
        <ele>174</ele>
        <time>2013-04-22T14:45:22Z</time>
      </trkpt>
      <trkpt lat="45.80213" lon="4.92705">
        <ele>174</ele>
        <time>2013-04-22T14:45:23Z</time>
      </trkpt>
      <trkpt lat="45.80212" lon="4.92696">
        <ele>174</ele>
        <time>2013-04-22T14:45:24Z</time>
      </trkpt>
      <trkpt lat="45.80211" lon="4.92686">
        <ele>174</ele>
        <time>2013-04-22T14:45:25Z</time>
      </trkpt>
      <trkpt lat="45.80209" lon="4.92678">
        <ele>174</ele>
        <time>2013-04-22T14:45:26Z</time>
      </trkpt>
      <trkpt lat="45.80208" lon="4.92669">
        <ele>174</ele>
        <time>2013-04-22T14:45:27Z</time>
      </trkpt>
      <trkpt lat="45.80205" lon="4.92661">
        <ele>174</ele>
        <time>2013-04-22T14:45:28Z</time>
      </trkpt>
      <trkpt lat="45.80203" lon="4.92654">
        <ele>174</ele>
        <time>2013-04-22T14:45:29Z</time>
      </trkpt>
      <trkpt lat="45.80191" lon="4.92621">
        <ele>174</ele>
        <time>2013-04-22T14:45:34Z</time>
      </trkpt>
      <trkpt lat="45.80189" lon="4.92615">
        <ele>174</ele>
        <time>2013-04-22T14:45:35Z</time>
      </trkpt>
      <trkpt lat="45.80177" lon="4.92601">
        <ele>174</ele>
        <time>2013-04-22T14:45:38Z</time>
      </trkpt>
      <trkpt lat="45.80157" lon="4.92595">
        <ele>175</ele>
        <time>2013-04-22T14:45:42Z</time>
      </trkpt>
      <trkpt lat="45.80144" lon="4.92602">
        <ele>176</ele>
        <time>2013-04-22T14:45:45Z</time>
      </trkpt>
      <trkpt lat="45.80141" lon="4.92606">
        <ele>176</ele>
        <time>2013-04-22T14:45:46Z</time>
      </trkpt>
      <trkpt lat="45.80137" lon="4.9261">
        <ele>176</ele>
        <time>2013-04-22T14:45:47Z</time>
      </trkpt>
      <trkpt lat="45.80135" lon="4.92616">
        <ele>176</ele>
        <time>2013-04-22T14:45:48Z</time>
      </trkpt>
      <trkpt lat="45.80133" lon="4.92621">
        <ele>177</ele>
        <time>2013-04-22T14:45:49Z</time>
      </trkpt>
      <trkpt lat="45.8013" lon="4.92633">
        <ele>177</ele>
        <time>2013-04-22T14:45:51Z</time>
      </trkpt>
      <trkpt lat="45.80129" lon="4.92639">
        <ele>177</ele>
        <time>2013-04-22T14:45:52Z</time>
      </trkpt>
      <trkpt lat="45.80123" lon="4.92662">
        <ele>177</ele>
        <time>2013-04-22T14:45:56Z</time>
      </trkpt>
      <trkpt lat="45.80119" lon="4.92671">
        <ele>178</ele>
        <time>2013-04-22T14:45:58Z</time>
      </trkpt>
      <trkpt lat="45.80105" lon="4.92685">
        <ele>178</ele>
        <time>2013-04-22T14:46:02Z</time>
      </trkpt>
      <trkpt lat="45.80097" lon="4.92689">
        <ele>178</ele>
        <time>2013-04-22T14:46:04Z</time>
      </trkpt>
      <trkpt lat="45.80084" lon="4.92694">
        <ele>178</ele>
        <time>2013-04-22T14:46:07Z</time>
      </trkpt>
      <trkpt lat="45.8008" lon="4.92696">
        <ele>178</ele>
        <time>2013-04-22T14:46:08Z</time>
      </trkpt>
      <trkpt lat="45.80076" lon="4.92697">
        <ele>178</ele>
        <time>2013-04-22T14:46:09Z</time>
      </trkpt>
      <trkpt lat="45.80072" lon="4.92699">
        <ele>178</ele>
        <time>2013-04-22T14:46:10Z</time>
      </trkpt>
      <trkpt lat="45.80068" lon="4.927">
        <ele>178</ele>
        <time>2013-04-22T14:46:11Z</time>
      </trkpt>
      <trkpt lat="45.80049" lon="4.92707">
        <ele>178</ele>
        <time>2013-04-22T14:46:15Z</time>
      </trkpt>
      <trkpt lat="45.80001" lon="4.92719">
        <ele>177</ele>
        <time>2013-04-22T14:46:24Z</time>
      </trkpt>
      <trkpt lat="45.79962" lon="4.92723">
        <ele>175</ele>
        <time>2013-04-22T14:46:31Z</time>
      </trkpt>
      <trkpt lat="45.79922" lon="4.92717">
        <ele>175</ele>
        <time>2013-04-22T14:46:38Z</time>
      </trkpt>
      <trkpt lat="45.7988" lon="4.92705">
        <ele>175</ele>
        <time>2013-04-22T14:46:45Z</time>
      </trkpt>
      <trkpt lat="45.79838" lon="4.92689">
        <ele>175</ele>
        <time>2013-04-22T14:46:52Z</time>
      </trkpt>
      <trkpt lat="45.79833" lon="4.92685">
        <ele>175</ele>
        <time>2013-04-22T14:46:53Z</time>
      </trkpt>
      <trkpt lat="45.79807" lon="4.92663">
        <ele>173</ele>
        <time>2013-04-22T14:46:58Z</time>
      </trkpt>
      <trkpt lat="45.7978" lon="4.9263">
        <ele>173</ele>
        <time>2013-04-22T14:47:04Z</time>
      </trkpt>
      <trkpt lat="45.79746" lon="4.92594">
        <ele>172</ele>
        <time>2013-04-22T14:47:11Z</time>
      </trkpt>
      <trkpt lat="45.79707" lon="4.9257">
        <ele>171</ele>
        <time>2013-04-22T14:47:18Z</time>
      </trkpt>
      <trkpt lat="45.7966" lon="4.92552">
        <ele>171</ele>
        <time>2013-04-22T14:47:26Z</time>
      </trkpt>
      <trkpt lat="45.79605" lon="4.92534">
        <ele>171</ele>
        <time>2013-04-22T14:47:35Z</time>
      </trkpt>
      <trkpt lat="45.79562" lon="4.92515">
        <ele>172</ele>
        <time>2013-04-22T14:47:42Z</time>
      </trkpt>
      <trkpt lat="45.79521" lon="4.92488">
        <ele>173</ele>
        <time>2013-04-22T14:47:49Z</time>
      </trkpt>
      <trkpt lat="45.79495" lon="4.92464">
        <ele>174</ele>
        <time>2013-04-22T14:47:54Z</time>
      </trkpt>
      <trkpt lat="45.79491" lon="4.92457">
        <ele>173</ele>
        <time>2013-04-22T14:47:55Z</time>
      </trkpt>
      <trkpt lat="45.79481" lon="4.92435">
        <ele>173</ele>
        <time>2013-04-22T14:47:58Z</time>
      </trkpt>
      <trkpt lat="45.79475" lon="4.92418">
        <ele>173</ele>
        <time>2013-04-22T14:48:00Z</time>
      </trkpt>
      <trkpt lat="45.79466" lon="4.92378">
        <ele>172</ele>
        <time>2013-04-22T14:48:04Z</time>
      </trkpt>
      <trkpt lat="45.79464" lon="4.92367">
        <ele>172</ele>
        <time>2013-04-22T14:48:05Z</time>
      </trkpt>
      <trkpt lat="45.7946" lon="4.92357">
        <ele>172</ele>
        <time>2013-04-22T14:48:06Z</time>
      </trkpt>
      <trkpt lat="45.79456" lon="4.92348">
        <ele>172</ele>
        <time>2013-04-22T14:48:07Z</time>
      </trkpt>
      <trkpt lat="45.79452" lon="4.9234">
        <ele>172</ele>
        <time>2013-04-22T14:48:08Z</time>
      </trkpt>
      <trkpt lat="45.79449" lon="4.9233">
        <ele>171</ele>
        <time>2013-04-22T14:48:09Z</time>
      </trkpt>
      <trkpt lat="45.79444" lon="4.92301">
        <ele>171</ele>
        <time>2013-04-22T14:48:12Z</time>
      </trkpt>
      <trkpt lat="45.79438" lon="4.92265">
        <ele>171</ele>
        <time>2013-04-22T14:48:17Z</time>
      </trkpt>
      <trkpt lat="45.79437" lon="4.92259">
        <ele>172</ele>
        <time>2013-04-22T14:48:18Z</time>
      </trkpt>
      <trkpt lat="45.79429" lon="4.92224">
        <ele>172</ele>
        <time>2013-04-22T14:48:23Z</time>
      </trkpt>
      <trkpt lat="45.79417" lon="4.92177">
        <ele>173</ele>
        <time>2013-04-22T14:48:29Z</time>
      </trkpt>
      <trkpt lat="45.79406" lon="4.92128">
        <ele>172</ele>
        <time>2013-04-22T14:48:35Z</time>
      </trkpt>
      <trkpt lat="45.79389" lon="4.92063">
        <ele>171</ele>
        <time>2013-04-22T14:48:43Z</time>
      </trkpt>
      <trkpt lat="45.79377" lon="4.92013">
        <ele>171</ele>
        <time>2013-04-22T14:48:49Z</time>
      </trkpt>
      <trkpt lat="45.79362" lon="4.91943">
        <ele>171</ele>
        <time>2013-04-22T14:48:57Z</time>
      </trkpt>
      <trkpt lat="45.79276" lon="4.91559">
        <ele>172</ele>
        <time>2013-04-22T14:49:51Z</time>
      </trkpt>
      <trkpt lat="45.79267" lon="4.91522">
        <ele>172</ele>
        <time>2013-04-22T14:49:56Z</time>
      </trkpt>
      <trkpt lat="45.79255" lon="4.91479">
        <ele>171</ele>
        <time>2013-04-22T14:50:02Z</time>
      </trkpt>
      <trkpt lat="45.79226" lon="4.91363">
        <ele>172</ele>
        <time>2013-04-22T14:50:20Z</time>
      </trkpt>
      <trkpt lat="45.79216" lon="4.91321">
        <ele>172</ele>
        <time>2013-04-22T14:50:26Z</time>
      </trkpt>
      <trkpt lat="45.79207" lon="4.91277">
        <ele>172</ele>
        <time>2013-04-22T14:50:32Z</time>
      </trkpt>
      <trkpt lat="45.79195" lon="4.91223">
        <ele>171</ele>
        <time>2013-04-22T14:50:39Z</time>
      </trkpt>
      <trkpt lat="45.79191" lon="4.91208">
        <ele>171</ele>
        <time>2013-04-22T14:50:41Z</time>
      </trkpt>
      <trkpt lat="45.79184" lon="4.91184">
        <ele>171</ele>
        <time>2013-04-22T14:50:44Z</time>
      </trkpt>
      <trkpt lat="45.79173" lon="4.91135">
        <ele>171</ele>
        <time>2013-04-22T14:50:50Z</time>
      </trkpt>
      <trkpt lat="45.79159" lon="4.91077">
        <ele>172</ele>
        <time>2013-04-22T14:50:57Z</time>
      </trkpt>
      <trkpt lat="45.79146" lon="4.91017">
        <ele>172</ele>
        <time>2013-04-22T14:51:04Z</time>
      </trkpt>
      <trkpt lat="45.79135" lon="4.90968">
        <ele>172</ele>
        <time>2013-04-22T14:51:10Z</time>
      </trkpt>
      <trkpt lat="45.79124" lon="4.90917">
        <ele>171</ele>
        <time>2013-04-22T14:51:17Z</time>
      </trkpt>
      <trkpt lat="45.79116" lon="4.90878">
        <ele>170</ele>
        <time>2013-04-22T14:51:23Z</time>
      </trkpt>
      <trkpt lat="45.7911" lon="4.90836">
        <ele>169</ele>
        <time>2013-04-22T14:51:29Z</time>
      </trkpt>
      <trkpt lat="45.79108" lon="4.90799">
        <ele>170</ele>
        <time>2013-04-22T14:51:34Z</time>
      </trkpt>
      <trkpt lat="45.79108" lon="4.90792">
        <ele>170</ele>
        <time>2013-04-22T14:51:35Z</time>
      </trkpt>
      <trkpt lat="45.79109" lon="4.90749">
        <ele>172</ele>
        <time>2013-04-22T14:51:41Z</time>
      </trkpt>
      <trkpt lat="45.7911" lon="4.90742">
        <ele>172</ele>
        <time>2013-04-22T14:51:42Z</time>
      </trkpt>
      <trkpt lat="45.79113" lon="4.907">
        <ele>172</ele>
        <time>2013-04-22T14:51:48Z</time>
      </trkpt>
      <trkpt lat="45.79118" lon="4.90653">
        <ele>173</ele>
        <time>2013-04-22T14:51:55Z</time>
      </trkpt>
      <trkpt lat="45.79124" lon="4.90603">
        <ele>173</ele>
        <time>2013-04-22T14:52:02Z</time>
      </trkpt>
      <trkpt lat="45.79129" lon="4.90558">
        <ele>174</ele>
        <time>2013-04-22T14:52:08Z</time>
      </trkpt>
      <trkpt lat="45.79131" lon="4.90536">
        <ele>174</ele>
        <time>2013-04-22T14:52:11Z</time>
      </trkpt>
      <trkpt lat="45.79134" lon="4.90513">
        <ele>174</ele>
        <time>2013-04-22T14:52:14Z</time>
      </trkpt>
      <trkpt lat="45.79134" lon="4.90461">
        <ele>175</ele>
        <time>2013-04-22T14:52:21Z</time>
      </trkpt>
      <trkpt lat="45.79133" lon="4.90433">
        <ele>174</ele>
        <time>2013-04-22T14:52:25Z</time>
      </trkpt>
      <trkpt lat="45.7913" lon="4.90414">
        <ele>175</ele>
        <time>2013-04-22T14:52:28Z</time>
      </trkpt>
      <trkpt lat="45.79125" lon="4.90389">
        <ele>175</ele>
        <time>2013-04-22T14:52:32Z</time>
      </trkpt>
      <trkpt lat="45.79121" lon="4.90377">
        <ele>175</ele>
        <time>2013-04-22T14:52:34Z</time>
      </trkpt>
      <trkpt lat="45.79118" lon="4.90366">
        <ele>175</ele>
        <time>2013-04-22T14:52:36Z</time>
      </trkpt>
      <trkpt lat="45.7911" lon="4.90344">
        <ele>176</ele>
        <time>2013-04-22T14:52:40Z</time>
      </trkpt>
      <trkpt lat="45.791" lon="4.90318">
        <ele>176</ele>
        <time>2013-04-22T14:52:44Z</time>
      </trkpt>
      <trkpt lat="45.79097" lon="4.90312">
        <ele>176</ele>
        <time>2013-04-22T14:52:45Z</time>
      </trkpt>
      <trkpt lat="45.79089" lon="4.90295">
        <ele>175</ele>
        <time>2013-04-22T14:52:48Z</time>
      </trkpt>
      <trkpt lat="45.79083" lon="4.90285">
        <ele>178</ele>
        <time>2013-04-22T14:52:50Z</time>
      </trkpt>
      <trkpt lat="45.79077" lon="4.90276">
        <ele>177</ele>
        <time>2013-04-22T14:52:52Z</time>
      </trkpt>
      <trkpt lat="45.79066" lon="4.9026">
        <ele>177</ele>
        <time>2013-04-22T14:52:56Z</time>
      </trkpt>
      <trkpt lat="45.79054" lon="4.90244">
        <ele>176</ele>
        <time>2013-04-22T14:53:01Z</time>
      </trkpt>
      <trkpt lat="45.79035" lon="4.90221">
        <ele>176</ele>
        <time>2013-04-22T14:54:07Z</time>
      </trkpt>
      <trkpt lat="45.79022" lon="4.90208">
        <ele>176</ele>
        <time>2013-04-22T14:54:11Z</time>
      </trkpt>
      <trkpt lat="45.78998" lon="4.90179">
        <ele>174</ele>
        <time>2013-04-22T14:54:17Z</time>
      </trkpt>
      <trkpt lat="45.78976" lon="4.90144">
        <ele>172</ele>
        <time>2013-04-22T14:54:23Z</time>
      </trkpt>
      <trkpt lat="45.78958" lon="4.90102">
        <ele>171</ele>
        <time>2013-04-22T14:54:30Z</time>
      </trkpt>
      <trkpt lat="45.78945" lon="4.90071">
        <ele>170</ele>
        <time>2013-04-22T14:54:36Z</time>
      </trkpt>
      <trkpt lat="45.78934" lon="4.90034">
        <ele>170</ele>
        <time>2013-04-22T14:54:43Z</time>
      </trkpt>
      <trkpt lat="45.78925" lon="4.90005">
        <ele>170</ele>
        <time>2013-04-22T14:54:49Z</time>
      </trkpt>
      <trkpt lat="45.78916" lon="4.89958">
        <ele>171</ele>
        <time>2013-04-22T14:54:57Z</time>
      </trkpt>
      <trkpt lat="45.78908" lon="4.89914">
        <ele>172</ele>
        <time>2013-04-22T14:55:04Z</time>
      </trkpt>
      <trkpt lat="45.78902" lon="4.89891">
        <ele>172</ele>
        <time>2013-04-22T14:55:08Z</time>
      </trkpt>
      <trkpt lat="45.78898" lon="4.89879">
        <ele>172</ele>
        <time>2013-04-22T14:55:10Z</time>
      </trkpt>
      <trkpt lat="45.78891" lon="4.89844">
        <ele>173</ele>
        <time>2013-04-22T14:55:16Z</time>
      </trkpt>
      <trkpt lat="45.78881" lon="4.898">
        <ele>173</ele>
        <time>2013-04-22T14:55:24Z</time>
      </trkpt>
      <trkpt lat="45.78873" lon="4.89757">
        <ele>172</ele>
        <time>2013-04-22T14:55:32Z</time>
      </trkpt>
      <trkpt lat="45.78871" lon="4.89711">
        <ele>173</ele>
        <time>2013-04-22T14:55:40Z</time>
      </trkpt>
      <trkpt lat="45.78877" lon="4.89679">
        <ele>173</ele>
        <time>2013-04-22T14:55:46Z</time>
      </trkpt>
      <trkpt lat="45.78883" lon="4.89648">
        <ele>174</ele>
        <time>2013-04-22T14:55:52Z</time>
      </trkpt>
      <trkpt lat="45.78894" lon="4.89613">
        <ele>174</ele>
        <time>2013-04-22T14:55:59Z</time>
      </trkpt>
      <trkpt lat="45.78899" lon="4.89582">
        <ele>175</ele>
        <time>2013-04-22T14:56:05Z</time>
      </trkpt>
      <trkpt lat="45.7889" lon="4.89564">
        <ele>175</ele>
        <time>2013-04-22T14:56:09Z</time>
      </trkpt>
      <trkpt lat="45.78869" lon="4.89532">
        <ele>174</ele>
        <time>2013-04-22T14:56:16Z</time>
      </trkpt>
      <trkpt lat="45.78849" lon="4.89501">
        <ele>173</ele>
        <time>2013-04-22T14:56:23Z</time>
      </trkpt>
      <trkpt lat="45.7883" lon="4.89465">
        <ele>172</ele>
        <time>2013-04-22T14:56:31Z</time>
      </trkpt>
      <trkpt lat="45.78812" lon="4.89427">
        <ele>172</ele>
        <time>2013-04-22T14:56:38Z</time>
      </trkpt>
      <trkpt lat="45.78799" lon="4.89393">
        <ele>171</ele>
        <time>2013-04-22T14:56:44Z</time>
      </trkpt>
      <trkpt lat="45.78781" lon="4.89328">
        <ele>171</ele>
        <time>2013-04-22T14:56:54Z</time>
      </trkpt>
      <trkpt lat="45.78775" lon="4.89305">
        <ele>171</ele>
        <time>2013-04-22T14:56:58Z</time>
      </trkpt>
      <trkpt lat="45.78772" lon="4.89285">
        <ele>171</ele>
        <time>2013-04-22T14:57:01Z</time>
      </trkpt>
      <trkpt lat="45.78767" lon="4.89259">
        <ele>171</ele>
        <time>2013-04-22T14:57:05Z</time>
      </trkpt>
      <trkpt lat="45.78765" lon="4.89246">
        <ele>171</ele>
        <time>2013-04-22T14:57:07Z</time>
      </trkpt>
      <trkpt lat="45.78758" lon="4.89199">
        <ele>171</ele>
        <time>2013-04-22T14:57:14Z</time>
      </trkpt>
      <trkpt lat="45.78747" lon="4.89191">
        <ele>171</ele>
        <time>2013-04-22T14:57:17Z</time>
      </trkpt>
      <trkpt lat="45.78738" lon="4.89203">
        <ele>171</ele>
        <time>2013-04-22T14:57:20Z</time>
      </trkpt>
      <trkpt lat="45.78731" lon="4.89209">
        <ele>171</ele>
        <time>2013-04-22T14:57:22Z</time>
      </trkpt>
      <trkpt lat="45.78727" lon="4.89213">
        <ele>171</ele>
        <time>2013-04-22T14:57:23Z</time>
      </trkpt>
      <trkpt lat="45.78721" lon="4.89219">
        <ele>171</ele>
        <time>2013-04-22T14:57:25Z</time>
      </trkpt>
      <trkpt lat="45.787" lon="4.89238">
        <ele>171</ele>
        <time>2013-04-22T14:57:31Z</time>
      </trkpt>
      <trkpt lat="45.7868" lon="4.89257">
        <ele>171</ele>
        <time>2013-04-22T14:57:37Z</time>
      </trkpt>
      <trkpt lat="45.78651" lon="4.89279">
        <ele>171</ele>
        <time>2013-04-22T14:57:45Z</time>
      </trkpt>
      <trkpt lat="45.78636" lon="4.89292">
        <ele>172</ele>
        <time>2013-04-22T14:57:51Z</time>
      </trkpt>
      <trkpt lat="45.78624" lon="4.89305">
        <ele>172</ele>
        <time>2013-04-22T14:57:56Z</time>
      </trkpt>
      <trkpt lat="45.78616" lon="4.89311">
        <ele>172</ele>
        <time>2013-04-22T14:58:00Z</time>
      </trkpt>
      <trkpt lat="45.78616" lon="4.89311">
        <ele>172</ele>
        <time>2013-04-22T14:58:11Z</time>
      </trkpt>
      <trkpt lat="45.78616" lon="4.89311">
        <ele>172</ele>
        <time>2013-04-22T14:58:25Z</time>
      </trkpt>
      <trkpt lat="45.78612" lon="4.89315">
        <ele>172</ele>
        <time>2013-04-22T14:58:30Z</time>
      </trkpt>
      <trkpt lat="45.78593" lon="4.89325">
        <ele>172</ele>
        <time>2013-04-22T14:58:35Z</time>
      </trkpt>
      <trkpt lat="45.78568" lon="4.89339">
        <ele>172</ele>
        <time>2013-04-22T14:58:43Z</time>
      </trkpt>
      <trkpt lat="45.78545" lon="4.89353">
        <ele>172</ele>
        <time>2013-04-22T14:58:50Z</time>
      </trkpt>
      <trkpt lat="45.7853" lon="4.89362">
        <ele>172</ele>
        <time>2013-04-22T14:58:54Z</time>
      </trkpt>
      <trkpt lat="45.78517" lon="4.89369">
        <ele>172</ele>
        <time>2013-04-22T14:58:57Z</time>
      </trkpt>
      <trkpt lat="45.78488" lon="4.89383">
        <ele>172</ele>
        <time>2013-04-22T14:59:05Z</time>
      </trkpt>
      <trkpt lat="45.78463" lon="4.89394">
        <ele>172</ele>
        <time>2013-04-22T14:59:11Z</time>
      </trkpt>
      <trkpt lat="45.78453" lon="4.89398">
        <ele>172</ele>
        <time>2013-04-22T14:59:13Z</time>
      </trkpt>
      <trkpt lat="45.78431" lon="4.89409">
        <ele>172</ele>
        <time>2013-04-22T14:59:18Z</time>
      </trkpt>
      <trkpt lat="45.78413" lon="4.89417">
        <ele>172</ele>
        <time>2013-04-22T14:59:24Z</time>
      </trkpt>
      <trkpt lat="45.78438" lon="4.89508">
        <ele>174</ele>
        <time>2013-04-22T15:00:03Z</time>
      </trkpt>
      <trkpt lat="45.78435" lon="4.8953">
        <ele>174</ele>
        <time>2013-04-22T15:02:52Z</time>
      </trkpt>
      <trkpt lat="45.78434" lon="4.89535">
        <ele>174</ele>
        <time>2013-04-22T15:02:53Z</time>
      </trkpt>
      <trkpt lat="45.78431" lon="4.89525">
        <ele>174</ele>
        <time>2013-04-22T15:02:57Z</time>
      </trkpt>
      <trkpt lat="45.78428" lon="4.89519">
        <ele>175</ele>
        <time>2013-04-22T15:02:59Z</time>
      </trkpt>
      <trkpt lat="45.78418" lon="4.89496">
        <ele>175</ele>
        <time>2013-04-22T15:03:05Z</time>
      </trkpt>
      <trkpt lat="45.78416" lon="4.89492">
        <ele>175</ele>
        <time>2013-04-22T15:03:06Z</time>
      </trkpt>
      <trkpt lat="45.78414" lon="4.89488">
        <ele>175</ele>
        <time>2013-04-22T15:03:07Z</time>
      </trkpt>
      <trkpt lat="45.78412" lon="4.89484">
        <ele>175</ele>
        <time>2013-04-22T15:03:08Z</time>
      </trkpt>
      <trkpt lat="45.7841" lon="4.8948">
        <ele>174</ele>
        <time>2013-04-22T15:03:09Z</time>
      </trkpt>
      <trkpt lat="45.78407" lon="4.89473">
        <ele>174</ele>
        <time>2013-04-22T15:03:11Z</time>
      </trkpt>
      <trkpt lat="45.784" lon="4.8945">
        <ele>173</ele>
        <time>2013-04-22T15:03:16Z</time>
      </trkpt>
      <trkpt lat="45.78398" lon="4.89439">
        <ele>173</ele>
        <time>2013-04-22T15:03:18Z</time>
      </trkpt>
      <trkpt lat="45.78397" lon="4.89434">
        <ele>173</ele>
        <time>2013-04-22T15:03:19Z</time>
      </trkpt>
      <trkpt lat="45.78396" lon="4.89429">
        <ele>173</ele>
        <time>2013-04-22T15:03:20Z</time>
      </trkpt>
      <trkpt lat="45.78394" lon="4.89419">
        <ele>173</ele>
        <time>2013-04-22T15:03:22Z</time>
      </trkpt>
      <trkpt lat="45.78382" lon="4.89374">
        <ele>172</ele>
        <time>2013-04-22T15:03:31Z</time>
      </trkpt>
      <trkpt lat="45.78372" lon="4.89334">
        <ele>172</ele>
        <time>2013-04-22T15:03:39Z</time>
      </trkpt>
      <trkpt lat="45.78362" lon="4.89286">
        <ele>171</ele>
        <time>2013-04-22T15:03:48Z</time>
      </trkpt>
      <trkpt lat="45.78356" lon="4.89241">
        <ele>172</ele>
        <time>2013-04-22T15:03:56Z</time>
      </trkpt>
      <trkpt lat="45.78365" lon="4.89213">
        <ele>172</ele>
        <time>2013-04-22T15:04:01Z</time>
      </trkpt>
      <trkpt lat="45.78371" lon="4.89205">
        <ele>173</ele>
        <time>2013-04-22T15:04:03Z</time>
      </trkpt>
      <trkpt lat="45.7838" lon="4.89195">
        <ele>173</ele>
        <time>2013-04-22T15:04:06Z</time>
      </trkpt>
      <trkpt lat="45.78401" lon="4.89175">
        <ele>173</ele>
        <time>2013-04-22T15:04:13Z</time>
      </trkpt>
      <trkpt lat="45.78428" lon="4.89162">
        <ele>173</ele>
        <time>2013-04-22T15:04:20Z</time>
      </trkpt>
      <trkpt lat="45.78426" lon="4.89175">
        <ele>173</ele>
        <time>2013-04-22T15:04:23Z</time>
      </trkpt>
      <trkpt lat="45.78416" lon="4.89184">
        <ele>173</ele>
        <time>2013-04-22T15:04:26Z</time>
      </trkpt>
      <trkpt lat="45.78413" lon="4.89186">
        <ele>173</ele>
        <time>2013-04-22T15:04:27Z</time>
      </trkpt>
      <trkpt lat="45.78403" lon="4.89197">
        <ele>173</ele>
        <time>2013-04-22T15:04:31Z</time>
      </trkpt>
      <trkpt lat="45.78402" lon="4.892">
        <ele>172</ele>
        <time>2013-04-22T15:04:32Z</time>
      </trkpt>
      <trkpt lat="45.784" lon="4.89202">
        <ele>172</ele>
        <time>2013-04-22T15:04:33Z</time>
      </trkpt>
      <trkpt lat="45.784" lon="4.89204">
        <ele>172</ele>
        <time>2013-04-22T15:04:34Z</time>
      </trkpt>
      <trkpt lat="45.78398" lon="4.89207">
        <ele>172</ele>
        <time>2013-04-22T15:04:36Z</time>
      </trkpt>
      <trkpt lat="45.78403" lon="4.89216">
        <ele>172</ele>
        <time>2013-04-22T15:04:40Z</time>
      </trkpt>
      <trkpt lat="45.78406" lon="4.8922">
        <ele>172</ele>
        <time>2013-04-22T15:04:44Z</time>
      </trkpt>
      <trkpt lat="45.78408" lon="4.89222">
        <ele>172</ele>
        <time>2013-04-22T15:04:52Z</time>
      </trkpt>
      <trkpt lat="45.7841" lon="4.89223">
        <ele>172</ele>
        <time>2013-04-22T15:04:53Z</time>
      </trkpt>
      <trkpt lat="45.78418" lon="4.89223">
        <ele>172</ele>
        <time>2013-04-22T15:04:56Z</time>
      </trkpt>
      <trkpt lat="45.78423" lon="4.89219">
        <ele>172</ele>
        <time>2013-04-22T15:04:58Z</time>
      </trkpt>
      <trkpt lat="45.7843" lon="4.89214">
        <ele>172</ele>
        <time>2013-04-22T15:05:01Z</time>
      </trkpt>
      <trkpt lat="45.78437" lon="4.89213">
        <ele>172</ele>
        <time>2013-04-22T15:05:03Z</time>
      </trkpt>
      <trkpt lat="45.78441" lon="4.89216">
        <ele>172</ele>
        <time>2013-04-22T15:05:05Z</time>
      </trkpt>
      <trkpt lat="45.78445" lon="4.89219">
        <ele>172</ele>
        <time>2013-04-22T15:05:08Z</time>
      </trkpt>
      <trkpt lat="45.78445" lon="4.89225">
        <ele>172</ele>
        <time>2013-04-22T15:05:10Z</time>
      </trkpt>
      <trkpt lat="45.78444" lon="4.89235">
        <ele>172</ele>
        <time>2013-04-22T15:05:12Z</time>
      </trkpt>
      <trkpt lat="45.78443" lon="4.89241">
        <ele>172</ele>
        <time>2013-04-22T15:05:13Z</time>
      </trkpt>
      <trkpt lat="45.78443" lon="4.89246">
        <ele>172</ele>
        <time>2013-04-22T15:05:14Z</time>
      </trkpt>
      <trkpt lat="45.78444" lon="4.89249">
        <ele>172</ele>
        <time>2013-04-22T15:05:15Z</time>
      </trkpt>
      <trkpt lat="45.78445" lon="4.8925">
        <ele>171</ele>
        <time>2013-04-22T15:05:16Z</time>
      </trkpt>
      <trkpt lat="45.78445" lon="4.8925">
        <ele>171</ele>
        <time>2013-04-22T15:05:17Z</time>
      </trkpt>
      <trkpt lat="45.78445" lon="4.8925">
        <ele>171</ele>
        <time>2013-04-22T15:05:24Z</time>
      </trkpt>
      <trkpt lat="45.78445" lon="4.8925">
        <ele>171</ele>
        <time>2013-04-22T15:05:25Z</time>
      </trkpt>
      <trkpt lat="45.78445" lon="4.8925">
        <ele>171</ele>
        <time>2013-04-22T15:05:26Z</time>
      </trkpt>
      <trkpt lat="45.78445" lon="4.8925">
        <ele>171</ele>
        <time>2013-04-22T15:05:27Z</time>
      </trkpt>
      <trkpt lat="45.78445" lon="4.8925">
        <ele>171</ele>
        <time>2013-04-22T15:05:28Z</time>
      </trkpt>
      <trkpt lat="45.78445" lon="4.8925">
        <ele>171</ele>
        <time>2013-04-22T15:05:30Z</time>
      </trkpt>
      <trkpt lat="45.78445" lon="4.8925">
        <ele>171</ele>
        <time>2013-04-22T15:05:42Z</time>
      </trkpt>
      <trkpt lat="45.78445" lon="4.8925">
        <ele>171</ele>
        <time>2013-04-22T15:05:57Z</time>
      </trkpt>
      <trkpt lat="45.78445" lon="4.8925">
        <ele>171</ele>
        <time>2013-04-22T15:06:11Z</time>
      </trkpt>
      <trkpt lat="45.78445" lon="4.8925">
        <ele>171</ele>
        <time>2013-04-22T15:06:26Z</time>
      </trkpt>
      <trkpt lat="45.78445" lon="4.8925">
        <ele>171</ele>
        <time>2013-04-22T15:06:39Z</time>
      </trkpt>
      <trkpt lat="45.78445" lon="4.8925">
        <ele>171</ele>
        <time>2013-04-22T15:06:58Z</time>
      </trkpt>
      <trkpt lat="45.78445" lon="4.8925">
        <ele>171</ele>
        <time>2013-04-22T15:07:13Z</time>
      </trkpt>
      <trkpt lat="45.78445" lon="4.8925">
        <ele>171</ele>
        <time>2013-04-22T15:07:31Z</time>
      </trkpt>
      <trkpt lat="45.78445" lon="4.8925">
        <ele>171</ele>
        <time>2013-04-22T15:07:40Z</time>
      </trkpt>
      <trkpt lat="45.78445" lon="4.8925">
        <ele>171</ele>
        <time>2013-04-22T15:07:48Z</time>
      </trkpt>
      <trkpt lat="45.78445" lon="4.8925">
        <ele>171</ele>
        <time>2013-04-22T15:08:05Z</time>
      </trkpt>
      <trkpt lat="45.78446" lon="4.8925">
        <ele>171</ele>
        <time>2013-04-22T15:08:07Z</time>
      </trkpt>
      <trkpt lat="45.78449" lon="4.89249">
        <ele>172</ele>
        <time>2013-04-22T15:08:10Z</time>
      </trkpt>
      <trkpt lat="45.78452" lon="4.89248">
        <ele>172</ele>
        <time>2013-04-22T15:08:13Z</time>
      </trkpt>
      <trkpt lat="45.78453" lon="4.89247">
        <ele>172</ele>
        <time>2013-04-22T15:08:14Z</time>
      </trkpt>
      <trkpt lat="45.78455" lon="4.89245">
        <ele>172</ele>
        <time>2013-04-22T15:08:16Z</time>
      </trkpt>
      <trkpt lat="45.78463" lon="4.89239">
        <ele>172</ele>
        <time>2013-04-22T15:08:19Z</time>
      </trkpt>
      <trkpt lat="45.78466" lon="4.89237">
        <ele>172</ele>
        <time>2013-04-22T15:08:20Z</time>
      </trkpt>
      <trkpt lat="45.78482" lon="4.89228">
        <ele>172</ele>
        <time>2013-04-22T15:08:26Z</time>
      </trkpt>
      <trkpt lat="45.78507" lon="4.89212">
        <ele>173</ele>
        <time>2013-04-22T15:08:34Z</time>
      </trkpt>
      <trkpt lat="45.78531" lon="4.89201">
        <ele>173</ele>
        <time>2013-04-22T15:08:41Z</time>
      </trkpt>
      <trkpt lat="45.78551" lon="4.89193">
        <ele>174</ele>
        <time>2013-04-22T15:08:46Z</time>
      </trkpt>
      <trkpt lat="45.78572" lon="4.89183">
        <ele>174</ele>
        <time>2013-04-22T15:08:52Z</time>
      </trkpt>
      <trkpt lat="45.78594" lon="4.89171">
        <ele>175</ele>
        <time>2013-04-22T15:08:58Z</time>
      </trkpt>
      <trkpt lat="45.78614" lon="4.89158">
        <ele>175</ele>
        <time>2013-04-22T15:09:03Z</time>
      </trkpt>
      <trkpt lat="45.78639" lon="4.89139">
        <ele>175</ele>
        <time>2013-04-22T15:09:09Z</time>
      </trkpt>
      <trkpt lat="45.78643" lon="4.89135">
        <ele>175</ele>
        <time>2013-04-22T15:09:10Z</time>
      </trkpt>
      <trkpt lat="45.78663" lon="4.89114">
        <ele>175</ele>
        <time>2013-04-22T15:09:15Z</time>
      </trkpt>
      <trkpt lat="45.78678" lon="4.89095">
        <ele>173</ele>
        <time>2013-04-22T15:09:19Z</time>
      </trkpt>
      <trkpt lat="45.78687" lon="4.89089">
        <ele>173</ele>
        <time>2013-04-22T15:09:21Z</time>
      </trkpt>
      <trkpt lat="45.78691" lon="4.89087">
        <ele>173</ele>
        <time>2013-04-22T15:09:22Z</time>
      </trkpt>
      <trkpt lat="45.78709" lon="4.89076">
        <ele>173</ele>
        <time>2013-04-22T15:09:26Z</time>
      </trkpt>
      <trkpt lat="45.78713" lon="4.89072">
        <ele>173</ele>
        <time>2013-04-22T15:09:27Z</time>
      </trkpt>
      <trkpt lat="45.78728" lon="4.89052">
        <ele>173</ele>
        <time>2013-04-22T15:09:31Z</time>
      </trkpt>
      <trkpt lat="45.78754" lon="4.89017">
        <ele>174</ele>
        <time>2013-04-22T15:09:38Z</time>
      </trkpt>
      <trkpt lat="45.78775" lon="4.88984">
        <ele>174</ele>
        <time>2013-04-22T15:09:45Z</time>
      </trkpt>
      <trkpt lat="45.7879" lon="4.88963">
        <ele>173</ele>
        <time>2013-04-22T15:09:50Z</time>
      </trkpt>
      <trkpt lat="45.78795" lon="4.88953">
        <ele>173</ele>
        <time>2013-04-22T15:09:52Z</time>
      </trkpt>
      <trkpt lat="45.788" lon="4.88943">
        <ele>173</ele>
        <time>2013-04-22T15:09:54Z</time>
      </trkpt>
      <trkpt lat="45.78809" lon="4.88927">
        <ele>173</ele>
        <time>2013-04-22T15:09:57Z</time>
      </trkpt>
      <trkpt lat="45.78817" lon="4.88911">
        <ele>173</ele>
        <time>2013-04-22T15:10:00Z</time>
      </trkpt>
      <trkpt lat="45.78823" lon="4.88902">
        <ele>173</ele>
        <time>2013-04-22T15:10:02Z</time>
      </trkpt>
      <trkpt lat="45.78832" lon="4.88881">
        <ele>174</ele>
        <time>2013-04-22T15:10:06Z</time>
      </trkpt>
      <trkpt lat="45.78835" lon="4.88875">
        <ele>172</ele>
        <time>2013-04-22T15:10:07Z</time>
      </trkpt>
      <trkpt lat="45.78856" lon="4.88833">
        <ele>173</ele>
        <time>2013-04-22T15:10:15Z</time>
      </trkpt>
      <trkpt lat="45.78861" lon="4.88823">
        <ele>172</ele>
        <time>2013-04-22T15:10:17Z</time>
      </trkpt>
      <trkpt lat="45.78872" lon="4.88803">
        <ele>171</ele>
        <time>2013-04-22T15:10:21Z</time>
      </trkpt>
      <trkpt lat="45.78874" lon="4.88798">
        <ele>171</ele>
        <time>2013-04-22T15:10:22Z</time>
      </trkpt>
      <trkpt lat="45.78889" lon="4.88775">
        <ele>170</ele>
        <time>2013-04-22T15:10:27Z</time>
      </trkpt>
      <trkpt lat="45.78892" lon="4.8877">
        <ele>170</ele>
        <time>2013-04-22T15:10:28Z</time>
      </trkpt>
      <trkpt lat="45.78917" lon="4.88736">
        <ele>169</ele>
        <time>2013-04-22T15:10:36Z</time>
      </trkpt>
      <trkpt lat="45.78942" lon="4.88704">
        <ele>170</ele>
        <time>2013-04-22T15:10:44Z</time>
      </trkpt>
      <trkpt lat="45.78945" lon="4.88699">
        <ele>171</ele>
        <time>2013-04-22T15:10:45Z</time>
      </trkpt>
      <trkpt lat="45.78972" lon="4.88669">
        <ele>171</ele>
        <time>2013-04-22T15:10:53Z</time>
      </trkpt>
      <trkpt lat="45.79002" lon="4.88642">
        <ele>172</ele>
        <time>2013-04-22T15:11:01Z</time>
      </trkpt>
      <trkpt lat="45.79031" lon="4.88616">
        <ele>172</ele>
        <time>2013-04-22T15:11:09Z</time>
      </trkpt>
      <trkpt lat="45.79063" lon="4.88588">
        <ele>172</ele>
        <time>2013-04-22T15:11:18Z</time>
      </trkpt>
      <trkpt lat="45.79088" lon="4.88565">
        <ele>171</ele>
        <time>2013-04-22T15:11:25Z</time>
      </trkpt>
      <trkpt lat="45.79115" lon="4.88537">
        <ele>170</ele>
        <time>2013-04-22T15:11:34Z</time>
      </trkpt>
      <trkpt lat="45.79142" lon="4.88514">
        <ele>169</ele>
        <time>2013-04-22T15:11:41Z</time>
      </trkpt>
      <trkpt lat="45.79169" lon="4.88487">
        <ele>168</ele>
        <time>2013-04-22T15:11:49Z</time>
      </trkpt>
      <trkpt lat="45.79172" lon="4.88483">
        <ele>168</ele>
        <time>2013-04-22T15:11:50Z</time>
      </trkpt>
      <trkpt lat="45.79185" lon="4.88466">
        <ele>169</ele>
        <time>2013-04-22T15:11:54Z</time>
      </trkpt>
      <trkpt lat="45.79189" lon="4.88462">
        <ele>169</ele>
        <time>2013-04-22T15:11:55Z</time>
      </trkpt>
      <trkpt lat="45.79213" lon="4.88426">
        <ele>169</ele>
        <time>2013-04-22T15:12:03Z</time>
      </trkpt>
      <trkpt lat="45.79236" lon="4.88391">
        <ele>170</ele>
        <time>2013-04-22T15:12:11Z</time>
      </trkpt>
      <trkpt lat="45.7925" lon="4.88371">
        <ele>170</ele>
        <time>2013-04-22T15:12:15Z</time>
      </trkpt>
      <trkpt lat="45.79257" lon="4.88361">
        <ele>169</ele>
        <time>2013-04-22T15:12:17Z</time>
      </trkpt>
      <trkpt lat="45.79273" lon="4.88338">
        <ele>169</ele>
        <time>2013-04-22T15:12:22Z</time>
      </trkpt>
      <trkpt lat="45.79277" lon="4.88334">
        <ele>169</ele>
        <time>2013-04-22T15:12:23Z</time>
      </trkpt>
      <trkpt lat="45.7928" lon="4.8833">
        <ele>169</ele>
        <time>2013-04-22T15:12:24Z</time>
      </trkpt>
      <trkpt lat="45.79283" lon="4.88326">
        <ele>169</ele>
        <time>2013-04-22T15:12:25Z</time>
      </trkpt>
      <trkpt lat="45.79286" lon="4.88321">
        <ele>169</ele>
        <time>2013-04-22T15:12:26Z</time>
      </trkpt>
      <trkpt lat="45.79293" lon="4.88304">
        <ele>169</ele>
        <time>2013-04-22T15:12:29Z</time>
      </trkpt>
      <trkpt lat="45.79298" lon="4.8828">
        <ele>169</ele>
        <time>2013-04-22T15:12:33Z</time>
      </trkpt>
      <trkpt lat="45.793" lon="4.88267">
        <ele>169</ele>
        <time>2013-04-22T15:12:35Z</time>
      </trkpt>
      <trkpt lat="45.79304" lon="4.88235">
        <ele>168</ele>
        <time>2013-04-22T15:12:40Z</time>
      </trkpt>
      <trkpt lat="45.79305" lon="4.88221">
        <ele>168</ele>
        <time>2013-04-22T15:12:42Z</time>
      </trkpt>
      <trkpt lat="45.79305" lon="4.88199">
        <ele>168</ele>
        <time>2013-04-22T15:12:45Z</time>
      </trkpt>
      <trkpt lat="45.79302" lon="4.88179">
        <ele>168</ele>
        <time>2013-04-22T15:12:48Z</time>
      </trkpt>
      <trkpt lat="45.79299" lon="4.88157">
        <ele>168</ele>
        <time>2013-04-22T15:12:51Z</time>
      </trkpt>
      <trkpt lat="45.79294" lon="4.8813">
        <ele>168</ele>
        <time>2013-04-22T15:12:55Z</time>
      </trkpt>
      <trkpt lat="45.79286" lon="4.88106">
        <ele>167</ele>
        <time>2013-04-22T15:12:59Z</time>
      </trkpt>
      <trkpt lat="45.79281" lon="4.88097">
        <ele>167</ele>
        <time>2013-04-22T15:13:01Z</time>
      </trkpt>
      <trkpt lat="45.7927" lon="4.88079">
        <ele>166</ele>
        <time>2013-04-22T15:13:06Z</time>
      </trkpt>
      <trkpt lat="45.79253" lon="4.88069">
        <ele>166</ele>
        <time>2013-04-22T15:13:11Z</time>
      </trkpt>
      <trkpt lat="45.79237" lon="4.88061">
        <ele>166</ele>
        <time>2013-04-22T15:13:15Z</time>
      </trkpt>
      <trkpt lat="45.79228" lon="4.88056">
        <ele>166</ele>
        <time>2013-04-22T15:13:17Z</time>
      </trkpt>
      <trkpt lat="45.79201" lon="4.88037">
        <ele>166</ele>
        <time>2013-04-22T15:13:23Z</time>
      </trkpt>
      <trkpt lat="45.79168" lon="4.88008">
        <ele>165</ele>
        <time>2013-04-22T15:13:31Z</time>
      </trkpt>
      <trkpt lat="45.79142" lon="4.87987">
        <ele>166</ele>
        <time>2013-04-22T15:13:38Z</time>
      </trkpt>
      <trkpt lat="45.79116" lon="4.87961">
        <ele>167</ele>
        <time>2013-04-22T15:13:45Z</time>
      </trkpt>
      <trkpt lat="45.79112" lon="4.87957">
        <ele>167</ele>
        <time>2013-04-22T15:13:46Z</time>
      </trkpt>
      <trkpt lat="45.79089" lon="4.87938">
        <ele>167</ele>
        <time>2013-04-22T15:13:51Z</time>
      </trkpt>
      <trkpt lat="45.79055" lon="4.87907">
        <ele>167</ele>
        <time>2013-04-22T15:13:58Z</time>
      </trkpt>
      <trkpt lat="45.79014" lon="4.87866">
        <ele>167</ele>
        <time>2013-04-22T15:14:06Z</time>
      </trkpt>
      <trkpt lat="45.79008" lon="4.87861">
        <ele>167</ele>
        <time>2013-04-22T15:14:07Z</time>
      </trkpt>
      <trkpt lat="45.7898" lon="4.87836">
        <ele>167</ele>
        <time>2013-04-22T15:14:12Z</time>
      </trkpt>
      <trkpt lat="45.78939" lon="4.878">
        <ele>166</ele>
        <time>2013-04-22T15:14:19Z</time>
      </trkpt>
      <trkpt lat="45.78893" lon="4.87759">
        <ele>168</ele>
        <time>2013-04-22T15:14:28Z</time>
      </trkpt>
      <trkpt lat="45.78862" lon="4.87731">
        <ele>168</ele>
        <time>2013-04-22T15:14:35Z</time>
      </trkpt>
      <trkpt lat="45.78832" lon="4.87703">
        <ele>170</ele>
        <time>2013-04-22T15:14:42Z</time>
      </trkpt>
      <trkpt lat="45.78794" lon="4.8767">
        <ele>171</ele>
        <time>2013-04-22T15:14:51Z</time>
      </trkpt>
      <trkpt lat="45.78778" lon="4.87657">
        <ele>170</ele>
        <time>2013-04-22T15:15:34Z</time>
      </trkpt>
      <trkpt lat="45.78761" lon="4.8764">
        <ele>171</ele>
        <time>2013-04-22T15:15:39Z</time>
      </trkpt>
      <trkpt lat="45.78738" lon="4.87617">
        <ele>174</ele>
        <time>2013-04-22T15:15:46Z</time>
      </trkpt>
      <trkpt lat="45.78722" lon="4.87595">
        <ele>174</ele>
        <time>2013-04-22T15:15:52Z</time>
      </trkpt>
      <trkpt lat="45.78716" lon="4.87586">
        <ele>174</ele>
        <time>2013-04-22T15:15:54Z</time>
      </trkpt>
      <trkpt lat="45.78711" lon="4.87568">
        <ele>174</ele>
        <time>2013-04-22T15:15:57Z</time>
      </trkpt>
      <trkpt lat="45.7871" lon="4.87562">
        <ele>174</ele>
        <time>2013-04-22T15:15:58Z</time>
      </trkpt>
      <trkpt lat="45.78706" lon="4.87544">
        <ele>174</ele>
        <time>2013-04-22T15:16:01Z</time>
      </trkpt>
      <trkpt lat="45.78701" lon="4.87502">
        <ele>173</ele>
        <time>2013-04-22T15:16:07Z</time>
      </trkpt>
      <trkpt lat="45.787" lon="4.87495">
        <ele>172</ele>
        <time>2013-04-22T15:16:08Z</time>
      </trkpt>
      <trkpt lat="45.78694" lon="4.87454">
        <ele>172</ele>
        <time>2013-04-22T15:16:14Z</time>
      </trkpt>
      <trkpt lat="45.78691" lon="4.87426">
        <ele>172</ele>
        <time>2013-04-22T15:16:18Z</time>
      </trkpt>
      <trkpt lat="45.7869" lon="4.87419">
        <ele>172</ele>
        <time>2013-04-22T15:16:19Z</time>
      </trkpt>
      <trkpt lat="45.78685" lon="4.87379">
        <ele>171</ele>
        <time>2013-04-22T15:16:25Z</time>
      </trkpt>
      <trkpt lat="45.78678" lon="4.87343">
        <ele>172</ele>
        <time>2013-04-22T15:16:31Z</time>
      </trkpt>
      <trkpt lat="45.78662" lon="4.87306">
        <ele>174</ele>
        <time>2013-04-22T15:16:37Z</time>
      </trkpt>
      <trkpt lat="45.78659" lon="4.87301">
        <ele>174</ele>
        <time>2013-04-22T15:16:38Z</time>
      </trkpt>
      <trkpt lat="45.7865" lon="4.87275">
        <ele>174</ele>
        <time>2013-04-22T15:16:42Z</time>
      </trkpt>
      <trkpt lat="45.7864" lon="4.87223">
        <ele>174</ele>
        <time>2013-04-22T15:16:50Z</time>
      </trkpt>
      <trkpt lat="45.78636" lon="4.8721">
        <ele>175</ele>
        <time>2013-04-22T15:16:52Z</time>
      </trkpt>
      <trkpt lat="45.78632" lon="4.8719">
        <ele>175</ele>
        <time>2013-04-22T15:16:55Z</time>
      </trkpt>
      <trkpt lat="45.78626" lon="4.87156">
        <ele>176</ele>
        <time>2013-04-22T15:17:00Z</time>
      </trkpt>
      <trkpt lat="45.78618" lon="4.87115">
        <ele>176</ele>
        <time>2013-04-22T15:17:06Z</time>
      </trkpt>
      <trkpt lat="45.78615" lon="4.87094">
        <ele>177</ele>
        <time>2013-04-22T15:17:10Z</time>
      </trkpt>
      <trkpt lat="45.78611" lon="4.87055">
        <ele>176</ele>
        <time>2013-04-22T15:17:17Z</time>
      </trkpt>
      <trkpt lat="45.78603" lon="4.87014">
        <ele>175</ele>
        <time>2013-04-22T15:17:23Z</time>
      </trkpt>
      <trkpt lat="45.78598" lon="4.86982">
        <ele>175</ele>
        <time>2013-04-22T15:17:27Z</time>
      </trkpt>
      <trkpt lat="45.78596" lon="4.8696">
        <ele>175</ele>
        <time>2013-04-22T15:17:30Z</time>
      </trkpt>
      <trkpt lat="45.78593" lon="4.86942">
        <ele>175</ele>
        <time>2013-04-22T15:17:33Z</time>
      </trkpt>
      <trkpt lat="45.78592" lon="4.86935">
        <ele>175</ele>
        <time>2013-04-22T15:17:34Z</time>
      </trkpt>
      <trkpt lat="45.78586" lon="4.86899">
        <ele>175</ele>
        <time>2013-04-22T15:17:39Z</time>
      </trkpt>
      <trkpt lat="45.78577" lon="4.86843">
        <ele>176</ele>
        <time>2013-04-22T15:17:46Z</time>
      </trkpt>
      <trkpt lat="45.78568" lon="4.86787">
        <ele>175</ele>
        <time>2013-04-22T15:17:53Z</time>
      </trkpt>
      <trkpt lat="45.78559" lon="4.86732">
        <ele>174</ele>
        <time>2013-04-22T15:18:00Z</time>
      </trkpt>
      <trkpt lat="45.78558" lon="4.86724">
        <ele>174</ele>
        <time>2013-04-22T15:18:01Z</time>
      </trkpt>
      <trkpt lat="45.78554" lon="4.867">
        <ele>174</ele>
        <time>2013-04-22T15:18:04Z</time>
      </trkpt>
      <trkpt lat="45.78544" lon="4.86643">
        <ele>174</ele>
        <time>2013-04-22T15:18:11Z</time>
      </trkpt>
      <trkpt lat="45.78533" lon="4.86576">
        <ele>173</ele>
        <time>2013-04-22T15:18:19Z</time>
      </trkpt>
      <trkpt lat="45.78528" lon="4.86535">
        <ele>173</ele>
        <time>2013-04-22T15:18:24Z</time>
      </trkpt>
      <trkpt lat="45.78526" lon="4.8651">
        <ele>173</ele>
        <time>2013-04-22T15:18:27Z</time>
      </trkpt>
      <trkpt lat="45.78527" lon="4.86495">
        <ele>172</ele>
        <time>2013-04-22T15:18:29Z</time>
      </trkpt>
      <trkpt lat="45.7853" lon="4.86481">
        <ele>172</ele>
        <time>2013-04-22T15:18:31Z</time>
      </trkpt>
      <trkpt lat="45.78532" lon="4.86474">
        <ele>172</ele>
        <time>2013-04-22T15:18:32Z</time>
      </trkpt>
      <trkpt lat="45.78536" lon="4.86461">
        <ele>172</ele>
        <time>2013-04-22T15:18:34Z</time>
      </trkpt>
      <trkpt lat="45.78545" lon="4.86447">
        <ele>172</ele>
        <time>2013-04-22T15:18:37Z</time>
      </trkpt>
      <trkpt lat="45.78553" lon="4.86434">
        <ele>171</ele>
        <time>2013-04-22T15:18:40Z</time>
      </trkpt>
      <trkpt lat="45.78565" lon="4.86409">
        <ele>170</ele>
        <time>2013-04-22T15:18:46Z</time>
      </trkpt>
      <trkpt lat="45.78574" lon="4.8639">
        <ele>170</ele>
        <time>2013-04-22T15:19:01Z</time>
      </trkpt>
      <trkpt lat="45.78574" lon="4.8639">
        <ele>170</ele>
        <time>2013-04-22T15:19:15Z</time>
      </trkpt>
      <trkpt lat="45.78574" lon="4.8639">
        <ele>170</ele>
        <time>2013-04-22T15:19:26Z</time>
      </trkpt>
      <trkpt lat="45.78574" lon="4.8639">
        <ele>170</ele>
        <time>2013-04-22T15:19:40Z</time>
      </trkpt>
      <trkpt lat="45.78574" lon="4.8639">
        <ele>170</ele>
        <time>2013-04-22T15:19:54Z</time>
      </trkpt>
      <trkpt lat="45.78574" lon="4.8639">
        <ele>170</ele>
        <time>2013-04-22T15:20:06Z</time>
      </trkpt>
      <trkpt lat="45.78574" lon="4.8639">
        <ele>170</ele>
        <time>2013-04-22T15:20:21Z</time>
      </trkpt>
      <trkpt lat="45.78574" lon="4.8639">
        <ele>170</ele>
        <time>2013-04-22T15:20:39Z</time>
      </trkpt>
      <trkpt lat="45.78574" lon="4.8639">
        <ele>170</ele>
        <time>2013-04-22T15:20:55Z</time>
      </trkpt>
      <trkpt lat="45.78574" lon="4.8639">
        <ele>170</ele>
        <time>2013-04-22T15:21:11Z</time>
      </trkpt>
      <trkpt lat="45.78574" lon="4.8639">
        <ele>170</ele>
        <time>2013-04-22T15:21:24Z</time>
      </trkpt>
      <trkpt lat="45.78574" lon="4.8639">
        <ele>170</ele>
        <time>2013-04-22T15:21:37Z</time>
      </trkpt>
      <trkpt lat="45.78574" lon="4.8639">
        <ele>170</ele>
        <time>2013-04-22T15:21:38Z</time>
      </trkpt>
      <trkpt lat="45.78574" lon="4.8639">
        <ele>170</ele>
        <time>2013-04-22T15:21:39Z</time>
      </trkpt>
      <trkpt lat="45.78574" lon="4.8639">
        <ele>170</ele>
        <time>2013-04-22T15:21:40Z</time>
      </trkpt>
      <trkpt lat="45.78574" lon="4.8639">
        <ele>170</ele>
        <time>2013-04-22T15:21:41Z</time>
      </trkpt>
      <trkpt lat="45.78574" lon="4.8639">
        <ele>170</ele>
        <time>2013-04-22T15:21:50Z</time>
      </trkpt>
      <trkpt lat="45.78574" lon="4.8639">
        <ele>170</ele>
        <time>2013-04-22T15:21:54Z</time>
      </trkpt>
      <trkpt lat="45.78574" lon="4.8639">
        <ele>170</ele>
        <time>2013-04-22T15:22:05Z</time>
      </trkpt>
      <trkpt lat="45.78574" lon="4.8639">
        <ele>170</ele>
        <time>2013-04-22T15:22:14Z</time>
      </trkpt>
      <trkpt lat="45.78574" lon="4.8639">
        <ele>170</ele>
        <time>2013-04-22T15:22:28Z</time>
      </trkpt>
      <trkpt lat="45.78575" lon="4.86383">
        <ele>170</ele>
        <time>2013-04-22T15:22:36Z</time>
      </trkpt>
      <trkpt lat="45.78574" lon="4.8637">
        <ele>170</ele>
        <time>2013-04-22T15:22:39Z</time>
      </trkpt>
      <trkpt lat="45.78574" lon="4.86365">
        <ele>170</ele>
        <time>2013-04-22T15:22:40Z</time>
      </trkpt>
      <trkpt lat="45.78575" lon="4.86341">
        <ele>169</ele>
        <time>2013-04-22T15:22:45Z</time>
      </trkpt>
      <trkpt lat="45.78582" lon="4.8631">
        <ele>169</ele>
        <time>2013-04-22T15:22:51Z</time>
      </trkpt>
      <trkpt lat="45.78594" lon="4.86265">
        <ele>167</ele>
        <time>2013-04-22T15:22:57Z</time>
      </trkpt>
      <trkpt lat="45.78604" lon="4.86168">
        <ele>166</ele>
        <time>2013-04-22T15:23:43Z</time>
      </trkpt>
      <trkpt lat="45.78608" lon="4.86127">
        <ele>166</ele>
        <time>2013-04-22T15:23:50Z</time>
      </trkpt>
      <trkpt lat="45.78612" lon="4.86077">
        <ele>168</ele>
        <time>2013-04-22T15:23:58Z</time>
      </trkpt>
      <trkpt lat="45.78614" lon="4.86039">
        <ele>169</ele>
        <time>2013-04-22T15:24:04Z</time>
      </trkpt>
      <trkpt lat="45.78616" lon="4.86028">
        <ele>169</ele>
        <time>2013-04-22T15:24:06Z</time>
      </trkpt>
      <trkpt lat="45.78617" lon="4.86015">
        <ele>169</ele>
        <time>2013-04-22T15:24:08Z</time>
      </trkpt>
      <trkpt lat="45.78616" lon="4.85994">
        <ele>170</ele>
        <time>2013-04-22T15:24:11Z</time>
      </trkpt>
      <trkpt lat="45.78617" lon="4.85988">
        <ele>170</ele>
        <time>2013-04-22T15:24:12Z</time>
      </trkpt>
      <trkpt lat="45.78618" lon="4.8596">
        <ele>170</ele>
        <time>2013-04-22T15:24:16Z</time>
      </trkpt>
      <trkpt lat="45.78619" lon="4.85899">
        <ele>168</ele>
        <time>2013-04-22T15:24:25Z</time>
      </trkpt>
      <trkpt lat="45.78623" lon="4.85831">
        <ele>167</ele>
        <time>2013-04-22T15:25:11Z</time>
      </trkpt>
      <trkpt lat="45.78621" lon="4.85745">
        <ele>167</ele>
        <time>2013-04-22T15:25:50Z</time>
      </trkpt>
      <trkpt lat="45.7862" lon="4.85717">
        <ele>168</ele>
        <time>2013-04-22T15:25:56Z</time>
      </trkpt>
      <trkpt lat="45.78619" lon="4.85685">
        <ele>168</ele>
        <time>2013-04-22T15:26:03Z</time>
      </trkpt>
      <trkpt lat="45.78618" lon="4.85664">
        <ele>168</ele>
        <time>2013-04-22T15:26:09Z</time>
      </trkpt>
      <trkpt lat="45.78617" lon="4.8566">
        <ele>168</ele>
        <time>2013-04-22T15:26:13Z</time>
      </trkpt>
      <trkpt lat="45.78617" lon="4.8566">
        <ele>168</ele>
        <time>2013-04-22T15:26:26Z</time>
      </trkpt>
      <trkpt lat="45.78617" lon="4.8566">
        <ele>168</ele>
        <time>2013-04-22T15:26:37Z</time>
      </trkpt>
      <trkpt lat="45.78617" lon="4.8566">
        <ele>168</ele>
        <time>2013-04-22T15:26:51Z</time>
      </trkpt>
      <trkpt lat="45.78617" lon="4.8566">
        <ele>168</ele>
        <time>2013-04-22T15:26:56Z</time>
      </trkpt>
      <trkpt lat="45.78617" lon="4.8566">
        <ele>168</ele>
        <time>2013-04-22T15:26:57Z</time>
      </trkpt>
      <trkpt lat="45.78617" lon="4.8566">
        <ele>168</ele>
        <time>2013-04-22T15:26:58Z</time>
      </trkpt>
      <trkpt lat="45.78617" lon="4.8566">
        <ele>168</ele>
        <time>2013-04-22T15:26:59Z</time>
      </trkpt>
      <trkpt lat="45.78617" lon="4.8566">
        <ele>168</ele>
        <time>2013-04-22T15:27:00Z</time>
      </trkpt>
      <trkpt lat="45.78617" lon="4.8566">
        <ele>168</ele>
        <time>2013-04-22T15:27:05Z</time>
      </trkpt>
      <trkpt lat="45.78616" lon="4.8566">
        <ele>168</ele>
        <time>2013-04-22T15:27:19Z</time>
      </trkpt>
      <trkpt lat="45.78613" lon="4.85659">
        <ele>168</ele>
        <time>2013-04-22T15:27:21Z</time>
      </trkpt>
      <trkpt lat="45.78606" lon="4.85662">
        <ele>168</ele>
        <time>2013-04-22T15:27:24Z</time>
      </trkpt>
      <trkpt lat="45.78597" lon="4.85666">
        <ele>169</ele>
        <time>2013-04-22T15:27:28Z</time>
      </trkpt>
      <trkpt lat="45.78582" lon="4.85669">
        <ele>170</ele>
        <time>2013-04-22T15:27:33Z</time>
      </trkpt>
      <trkpt lat="45.78569" lon="4.85668">
        <ele>170</ele>
        <time>2013-04-22T15:27:38Z</time>
      </trkpt>
      <trkpt lat="45.7856" lon="4.85674">
        <ele>171</ele>
        <time>2013-04-22T15:28:05Z</time>
      </trkpt>
      <trkpt lat="45.78562" lon="4.85702">
        <ele>170</ele>
        <time>2013-04-22T15:28:10Z</time>
      </trkpt>
      <trkpt lat="45.78562" lon="4.85744">
        <ele>170</ele>
        <time>2013-04-22T15:28:17Z</time>
      </trkpt>
      <trkpt lat="45.78561" lon="4.85784">
        <ele>170</ele>
        <time>2013-04-22T15:28:24Z</time>
      </trkpt>
      <trkpt lat="45.78557" lon="4.85821">
        <ele>170</ele>
        <time>2013-04-22T15:28:30Z</time>
      </trkpt>
      <trkpt lat="45.78555" lon="4.85834">
        <ele>170</ele>
        <time>2013-04-22T15:28:32Z</time>
      </trkpt>
      <trkpt lat="45.78552" lon="4.85846">
        <ele>170</ele>
        <time>2013-04-22T15:28:34Z</time>
      </trkpt>
      <trkpt lat="45.78543" lon="4.85868">
        <ele>171</ele>
        <time>2013-04-22T15:28:38Z</time>
      </trkpt>
      <trkpt lat="45.78529" lon="4.85891">
        <ele>171</ele>
        <time>2013-04-22T15:28:43Z</time>
      </trkpt>
      <trkpt lat="45.78525" lon="4.85894">
        <ele>171</ele>
        <time>2013-04-22T15:28:44Z</time>
      </trkpt>
      <trkpt lat="45.78512" lon="4.859">
        <ele>171</ele>
        <time>2013-04-22T15:28:47Z</time>
      </trkpt>
      <trkpt lat="45.78504" lon="4.85903">
        <ele>171</ele>
        <time>2013-04-22T15:28:49Z</time>
      </trkpt>
      <trkpt lat="45.78481" lon="4.85906">
        <ele>172</ele>
        <time>2013-04-22T15:28:55Z</time>
      </trkpt>
      <trkpt lat="45.78466" lon="4.85906">
        <ele>172</ele>
        <time>2013-04-22T15:29:01Z</time>
      </trkpt>
      <trkpt lat="45.78455" lon="4.85905">
        <ele>172</ele>
        <time>2013-04-22T15:29:08Z</time>
      </trkpt>
      <trkpt lat="45.78455" lon="4.85905">
        <ele>172</ele>
        <time>2013-04-22T15:29:12Z</time>
      </trkpt>
      <trkpt lat="45.78455" lon="4.85905">
        <ele>172</ele>
        <time>2013-04-22T15:29:14Z</time>
      </trkpt>
      <trkpt lat="45.78454" lon="4.85905">
        <ele>172</ele>
        <time>2013-04-22T15:29:26Z</time>
      </trkpt>
      <trkpt lat="45.7844" lon="4.85905">
        <ele>172</ele>
        <time>2013-04-22T15:29:35Z</time>
      </trkpt>
      <trkpt lat="45.78437" lon="4.85905">
        <ele>172</ele>
        <time>2013-04-22T15:29:36Z</time>
      </trkpt>
      <trkpt lat="45.78422" lon="4.85902">
        <ele>172</ele>
        <time>2013-04-22T15:29:40Z</time>
      </trkpt>
      <trkpt lat="45.78412" lon="4.859">
        <ele>172</ele>
        <time>2013-04-22T15:29:42Z</time>
      </trkpt>
      <trkpt lat="45.78396" lon="4.85895">
        <ele>173</ele>
        <time>2013-04-22T15:29:45Z</time>
      </trkpt>
      <trkpt lat="45.78391" lon="4.85891">
        <ele>173</ele>
        <time>2013-04-22T15:29:46Z</time>
      </trkpt>
      <trkpt lat="45.7838" lon="4.85887">
        <ele>173</ele>
        <time>2013-04-22T15:29:48Z</time>
      </trkpt>
      <trkpt lat="45.78375" lon="4.85885">
        <ele>173</ele>
        <time>2013-04-22T15:29:49Z</time>
      </trkpt>
      <trkpt lat="45.78369" lon="4.85882">
        <ele>173</ele>
        <time>2013-04-22T15:29:50Z</time>
      </trkpt>
      <trkpt lat="45.78363" lon="4.85879">
        <ele>173</ele>
        <time>2013-04-22T15:29:51Z</time>
      </trkpt>
      <trkpt lat="45.78357" lon="4.85876">
        <ele>173</ele>
        <time>2013-04-22T15:29:52Z</time>
      </trkpt>
      <trkpt lat="45.78335" lon="4.85863">
        <ele>173</ele>
        <time>2013-04-22T15:29:56Z</time>
      </trkpt>
      <trkpt lat="45.7833" lon="4.85859">
        <ele>173</ele>
        <time>2013-04-22T15:29:57Z</time>
      </trkpt>
      <trkpt lat="45.78308" lon="4.8584">
        <ele>173</ele>
        <time>2013-04-22T15:30:02Z</time>
      </trkpt>
      <trkpt lat="45.783" lon="4.85831">
        <ele>173</ele>
        <time>2013-04-22T15:30:04Z</time>
      </trkpt>
      <trkpt lat="45.78285" lon="4.85816">
        <ele>173</ele>
        <time>2013-04-22T15:30:08Z</time>
      </trkpt>
      <trkpt lat="45.7828" lon="4.85814">
        <ele>173</ele>
        <time>2013-04-22T15:30:09Z</time>
      </trkpt>
      <trkpt lat="45.78272" lon="4.85817">
        <ele>173</ele>
        <time>2013-04-22T15:30:11Z</time>
      </trkpt>
      <trkpt lat="45.7826" lon="4.85829">
        <ele>172</ele>
        <time>2013-04-22T15:30:14Z</time>
      </trkpt>
      <trkpt lat="45.78255" lon="4.85832">
        <ele>172</ele>
        <time>2013-04-22T15:30:15Z</time>
      </trkpt>
      <trkpt lat="45.78235" lon="4.85842">
        <ele>172</ele>
        <time>2013-04-22T15:30:19Z</time>
      </trkpt>
      <trkpt lat="45.78229" lon="4.85844">
        <ele>172</ele>
        <time>2013-04-22T15:30:20Z</time>
      </trkpt>
      <trkpt lat="45.782" lon="4.85855">
        <ele>171</ele>
        <time>2013-04-22T15:30:26Z</time>
      </trkpt>
      <trkpt lat="45.78168" lon="4.85859">
        <ele>171</ele>
        <time>2013-04-22T15:30:33Z</time>
      </trkpt>
      <trkpt lat="45.78164" lon="4.85859">
        <ele>171</ele>
        <time>2013-04-22T15:30:34Z</time>
      </trkpt>
      <trkpt lat="45.78145" lon="4.85861">
        <ele>172</ele>
        <time>2013-04-22T15:30:38Z</time>
      </trkpt>
      <trkpt lat="45.78125" lon="4.85864">
        <ele>172</ele>
        <time>2013-04-22T15:30:42Z</time>
      </trkpt>
      <trkpt lat="45.7811" lon="4.85866">
        <ele>172</ele>
        <time>2013-04-22T15:30:45Z</time>
      </trkpt>
      <trkpt lat="45.78099" lon="4.85864">
        <ele>173</ele>
        <time>2013-04-22T15:30:47Z</time>
      </trkpt>
      <trkpt lat="45.78083" lon="4.85866">
        <ele>173</ele>
        <time>2013-04-22T15:30:50Z</time>
      </trkpt>
      <trkpt lat="45.78045" lon="4.85868">
        <ele>173</ele>
        <time>2013-04-22T15:30:57Z</time>
      </trkpt>
      <trkpt lat="45.78017" lon="4.8587">
        <ele>173</ele>
        <time>2013-04-22T15:31:02Z</time>
      </trkpt>
      <trkpt lat="45.78011" lon="4.8587">
        <ele>173</ele>
        <time>2013-04-22T15:31:03Z</time>
      </trkpt>
      <trkpt lat="45.78006" lon="4.8587">
        <ele>173</ele>
        <time>2013-04-22T15:31:04Z</time>
      </trkpt>
      <trkpt lat="45.78001" lon="4.8587">
        <ele>173</ele>
        <time>2013-04-22T15:31:05Z</time>
      </trkpt>
      <trkpt lat="45.77995" lon="4.85869">
        <ele>173</ele>
        <time>2013-04-22T15:31:06Z</time>
      </trkpt>
      <trkpt lat="45.7797" lon="4.8587">
        <ele>174</ele>
        <time>2013-04-22T15:31:11Z</time>
      </trkpt>
      <trkpt lat="45.77946" lon="4.85868">
        <ele>174</ele>
        <time>2013-04-22T15:31:16Z</time>
      </trkpt>
      <trkpt lat="45.77941" lon="4.85867">
        <ele>174</ele>
        <time>2013-04-22T15:31:17Z</time>
      </trkpt>
      <trkpt lat="45.77917" lon="4.85865">
        <ele>174</ele>
        <time>2013-04-22T15:31:22Z</time>
      </trkpt>
      <trkpt lat="45.77892" lon="4.85865">
        <ele>174</ele>
        <time>2013-04-22T15:31:27Z</time>
      </trkpt>
      <trkpt lat="45.77883" lon="4.85863">
        <ele>174</ele>
        <time>2013-04-22T15:31:29Z</time>
      </trkpt>
      <trkpt lat="45.77873" lon="4.8586">
        <ele>174</ele>
        <time>2013-04-22T15:31:31Z</time>
      </trkpt>
      <trkpt lat="45.77864" lon="4.85855">
        <ele>174</ele>
        <time>2013-04-22T15:31:33Z</time>
      </trkpt>
      <trkpt lat="45.77855" lon="4.8585">
        <ele>174</ele>
        <time>2013-04-22T15:31:35Z</time>
      </trkpt>
      <trkpt lat="45.7785" lon="4.85849">
        <ele>174</ele>
        <time>2013-04-22T15:31:36Z</time>
      </trkpt>
      <trkpt lat="45.77823" lon="4.85844">
        <ele>173</ele>
        <time>2013-04-22T15:31:41Z</time>
      </trkpt>
      <trkpt lat="45.77771" lon="4.85832">
        <ele>172</ele>
        <time>2013-04-22T15:31:50Z</time>
      </trkpt>
      <trkpt lat="45.77728" lon="4.8582">
        <ele>171</ele>
        <time>2013-04-22T15:31:58Z</time>
      </trkpt>
      <trkpt lat="45.77682" lon="4.85815">
        <ele>172</ele>
        <time>2013-04-22T15:32:07Z</time>
      </trkpt>
      <trkpt lat="45.77643" lon="4.85818">
        <ele>173</ele>
        <time>2013-04-22T15:32:14Z</time>
      </trkpt>
      <trkpt lat="45.77603" lon="4.85825">
        <ele>173</ele>
        <time>2013-04-22T15:32:21Z</time>
      </trkpt>
      <trkpt lat="45.77585" lon="4.85828">
        <ele>174</ele>
        <time>2013-04-22T15:32:24Z</time>
      </trkpt>
      <trkpt lat="45.77574" lon="4.85829">
        <ele>173</ele>
        <time>2013-04-22T15:32:26Z</time>
      </trkpt>
      <trkpt lat="45.77533" lon="4.85823">
        <ele>172</ele>
        <time>2013-04-22T15:32:33Z</time>
      </trkpt>
      <trkpt lat="45.775" lon="4.85815">
        <ele>171</ele>
        <time>2013-04-22T15:32:39Z</time>
      </trkpt>
      <trkpt lat="45.77465" lon="4.85803">
        <ele>171</ele>
        <time>2013-04-22T15:32:45Z</time>
      </trkpt>
      <trkpt lat="45.77436" lon="4.85788">
        <ele>170</ele>
        <time>2013-04-22T15:32:50Z</time>
      </trkpt>
      <trkpt lat="45.77427" lon="4.85779">
        <ele>170</ele>
        <time>2013-04-22T15:32:52Z</time>
      </trkpt>
      <trkpt lat="45.77419" lon="4.8577">
        <ele>170</ele>
        <time>2013-04-22T15:32:54Z</time>
      </trkpt>
      <trkpt lat="45.77415" lon="4.85764">
        <ele>169</ele>
        <time>2013-04-22T15:32:55Z</time>
      </trkpt>
      <trkpt lat="45.77412" lon="4.85757">
        <ele>170</ele>
        <time>2013-04-22T15:32:56Z</time>
      </trkpt>
      <trkpt lat="45.77404" lon="4.85734">
        <ele>169</ele>
        <time>2013-04-22T15:32:59Z</time>
      </trkpt>
      <trkpt lat="45.774" lon="4.8572">
        <ele>169</ele>
        <time>2013-04-22T15:33:01Z</time>
      </trkpt>
      <trkpt lat="45.77397" lon="4.85697">
        <ele>169</ele>
        <time>2013-04-22T15:33:04Z</time>
      </trkpt>
      <trkpt lat="45.77395" lon="4.85683">
        <ele>169</ele>
        <time>2013-04-22T15:33:06Z</time>
      </trkpt>
      <trkpt lat="45.77392" lon="4.85656">
        <ele>169</ele>
        <time>2013-04-22T15:33:10Z</time>
      </trkpt>
      <trkpt lat="45.77391" lon="4.85621">
        <ele>169</ele>
        <time>2013-04-22T15:33:58Z</time>
      </trkpt>
      <trkpt lat="45.77391" lon="4.85602">
        <ele>169</ele>
        <time>2013-04-22T15:34:02Z</time>
      </trkpt>
      <trkpt lat="45.77389" lon="4.8556">
        <ele>170</ele>
        <time>2013-04-22T15:34:09Z</time>
      </trkpt>
      <trkpt lat="45.77388" lon="4.85543">
        <ele>171</ele>
        <time>2013-04-22T15:34:12Z</time>
      </trkpt>
      <trkpt lat="45.77387" lon="4.85519">
        <ele>171</ele>
        <time>2013-04-22T15:34:16Z</time>
      </trkpt>
      <trkpt lat="45.77388" lon="4.85485">
        <ele>173</ele>
        <time>2013-04-22T15:34:22Z</time>
      </trkpt>
      <trkpt lat="45.77389" lon="4.85464">
        <ele>173</ele>
        <time>2013-04-22T15:34:27Z</time>
      </trkpt>
      <trkpt lat="45.77388" lon="4.85447">
        <ele>173</ele>
        <time>2013-04-22T15:34:33Z</time>
      </trkpt>
      <trkpt lat="45.77388" lon="4.85447">
        <ele>173</ele>
        <time>2013-04-22T15:34:44Z</time>
      </trkpt>
      <trkpt lat="45.77388" lon="4.85447">
        <ele>173</ele>
        <time>2013-04-22T15:34:57Z</time>
      </trkpt>
      <trkpt lat="45.77389" lon="4.85442">
        <ele>173</ele>
        <time>2013-04-22T15:35:03Z</time>
      </trkpt>
      <trkpt lat="45.77397" lon="4.85417">
        <ele>173</ele>
        <time>2013-04-22T15:35:08Z</time>
      </trkpt>
      <trkpt lat="45.77403" lon="4.85391">
        <ele>172</ele>
        <time>2013-04-22T15:35:13Z</time>
      </trkpt>
      <trkpt lat="45.77412" lon="4.85353">
        <ele>170</ele>
        <time>2013-04-22T15:35:20Z</time>
      </trkpt>
      <trkpt lat="45.77421" lon="4.85322">
        <ele>167</ele>
        <time>2013-04-22T15:35:26Z</time>
      </trkpt>
      <trkpt lat="45.77435" lon="4.85281">
        <ele>168</ele>
        <time>2013-04-22T15:35:34Z</time>
      </trkpt>
      <trkpt lat="45.77444" lon="4.85257">
        <ele>168</ele>
        <time>2013-04-22T15:35:39Z</time>
      </trkpt>
      <trkpt lat="45.77457" lon="4.85224">
        <ele>171</ele>
        <time>2013-04-22T15:35:45Z</time>
      </trkpt>
      <trkpt lat="45.77477" lon="4.85181">
        <ele>172</ele>
        <time>2013-04-22T15:35:53Z</time>
      </trkpt>
      <trkpt lat="45.77501" lon="4.85132">
        <ele>173</ele>
        <time>2013-04-22T15:36:02Z</time>
      </trkpt>
      <trkpt lat="45.7752" lon="4.85096">
        <ele>174</ele>
        <time>2013-04-22T15:36:09Z</time>
      </trkpt>
      <trkpt lat="45.77527" lon="4.8508">
        <ele>175</ele>
        <time>2013-04-22T15:36:12Z</time>
      </trkpt>
      <trkpt lat="45.77537" lon="4.8506">
        <ele>174</ele>
        <time>2013-04-22T15:36:16Z</time>
      </trkpt>
      <trkpt lat="45.77551" lon="4.85035">
        <ele>174</ele>
        <time>2013-04-22T15:36:21Z</time>
      </trkpt>
      <trkpt lat="45.77563" lon="4.85003">
        <ele>175</ele>
        <time>2013-04-22T15:36:27Z</time>
      </trkpt>
      <trkpt lat="45.77568" lon="4.84965">
        <ele>175</ele>
        <time>2013-04-22T15:36:33Z</time>
      </trkpt>
      <trkpt lat="45.77575" lon="4.84926">
        <ele>176</ele>
        <time>2013-04-22T15:36:39Z</time>
      </trkpt>
      <trkpt lat="45.7758" lon="4.84889">
        <ele>175</ele>
        <time>2013-04-22T15:36:45Z</time>
      </trkpt>
      <trkpt lat="45.77582" lon="4.84869">
        <ele>174</ele>
        <time>2013-04-22T15:36:49Z</time>
      </trkpt>
      <trkpt lat="45.77587" lon="4.84839">
        <ele>173</ele>
        <time>2013-04-22T15:36:54Z</time>
      </trkpt>
      <trkpt lat="45.77594" lon="4.84797">
        <ele>173</ele>
        <time>2013-04-22T15:37:00Z</time>
      </trkpt>
      <trkpt lat="45.77598" lon="4.84775">
        <ele>174</ele>
        <time>2013-04-22T15:37:03Z</time>
      </trkpt>
      <trkpt lat="45.77608" lon="4.84718">
        <ele>176</ele>
        <time>2013-04-22T15:37:06Z</time>
      </trkpt>
      <trkpt lat="45.77669" lon="4.84602">
        <ele>178</ele>
        <time>2013-04-22T15:37:45Z</time>
      </trkpt>
      <trkpt lat="45.77703" lon="4.84558">
        <ele>178</ele>
        <time>2013-04-22T15:37:51Z</time>
      </trkpt>
      <trkpt lat="45.7771" lon="4.84546">
        <ele>177</ele>
        <time>2013-04-22T15:37:57Z</time>
      </trkpt>
      <trkpt lat="45.77724" lon="4.84532">
        <ele>177</ele>
        <time>2013-04-22T15:38:35Z</time>
      </trkpt>
      <trkpt lat="45.77723" lon="4.84525">
        <ele>177</ele>
        <time>2013-04-22T15:38:37Z</time>
      </trkpt>
      <trkpt lat="45.77721" lon="4.84518">
        <ele>177</ele>
        <time>2013-04-22T15:38:39Z</time>
      </trkpt>
      <trkpt lat="45.77717" lon="4.84509">
        <ele>177</ele>
        <time>2013-04-22T15:38:43Z</time>
      </trkpt>
      <trkpt lat="45.77716" lon="4.84505">
        <ele>177</ele>
        <time>2013-04-22T15:38:44Z</time>
      </trkpt>
      <trkpt lat="45.77706" lon="4.84486">
        <ele>174</ele>
        <time>2013-04-22T15:38:49Z</time>
      </trkpt>
      <trkpt lat="45.77698" lon="4.84467">
        <ele>173</ele>
        <time>2013-04-22T15:38:54Z</time>
      </trkpt>
      <trkpt lat="45.77687" lon="4.84446">
        <ele>173</ele>
        <time>2013-04-22T15:39:00Z</time>
      </trkpt>
      <trkpt lat="45.77679" lon="4.84431">
        <ele>172</ele>
        <time>2013-04-22T15:39:06Z</time>
      </trkpt>
      <trkpt lat="45.77671" lon="4.8442">
        <ele>171</ele>
        <time>2013-04-22T15:39:12Z</time>
      </trkpt>
      <trkpt lat="45.77664" lon="4.84406">
        <ele>172</ele>
        <time>2013-04-22T15:39:18Z</time>
      </trkpt>
      <trkpt lat="45.77665" lon="4.84404">
        <ele>172</ele>
        <time>2013-04-22T15:39:19Z</time>
      </trkpt>
      <trkpt lat="45.77665" lon="4.84404">
        <ele>172</ele>
        <time>2013-04-22T15:39:23Z</time>
      </trkpt>
      <trkpt lat="45.77666" lon="4.84401">
        <ele>173</ele>
        <time>2013-04-22T15:39:25Z</time>
      </trkpt>
      <trkpt lat="45.77668" lon="4.84395">
        <ele>170</ele>
        <time>2013-04-22T15:39:27Z</time>
      </trkpt>
      <trkpt lat="45.77673" lon="4.84385">
        <ele>169</ele>
        <time>2013-04-22T15:39:33Z</time>
      </trkpt>
      <trkpt lat="45.77673" lon="4.84383">
        <ele>169</ele>
        <time>2013-04-22T15:39:34Z</time>
      </trkpt>
      <trkpt lat="45.77676" lon="4.84376">
        <ele>169</ele>
        <time>2013-04-22T15:39:39Z</time>
      </trkpt>
      <trkpt lat="45.77677" lon="4.84374">
        <ele>169</ele>
        <time>2013-04-22T15:39:46Z</time>
      </trkpt>
      <trkpt lat="45.77678" lon="4.84375">
        <ele>169</ele>
        <time>2013-04-22T15:39:47Z</time>
      </trkpt>
      <trkpt lat="45.77684" lon="4.84378">
        <ele>169</ele>
        <time>2013-04-22T15:39:50Z</time>
      </trkpt>
      <trkpt lat="45.77703" lon="4.84385">
        <ele>169</ele>
        <time>2013-04-22T15:39:56Z</time>
      </trkpt>
      <trkpt lat="45.77716" lon="4.84388">
        <ele>169</ele>
        <time>2013-04-22T15:39:59Z</time>
      </trkpt>
      <trkpt lat="45.7773" lon="4.84391">
        <ele>169</ele>
        <time>2013-04-22T15:40:02Z</time>
      </trkpt>
      <trkpt lat="45.77758" lon="4.84396">
        <ele>168</ele>
        <time>2013-04-22T15:40:08Z</time>
      </trkpt>
      <trkpt lat="45.77761" lon="4.84394">
        <ele>168</ele>
        <time>2013-04-22T15:40:09Z</time>
      </trkpt>
      <trkpt lat="45.77761" lon="4.84384">
        <ele>168</ele>
        <time>2013-04-22T15:40:11Z</time>
      </trkpt>
      <trkpt lat="45.77761" lon="4.84377">
        <ele>167</ele>
        <time>2013-04-22T15:40:13Z</time>
      </trkpt>
      <trkpt lat="45.77758" lon="4.84368">
        <ele>167</ele>
        <time>2013-04-22T15:40:16Z</time>
      </trkpt>
      <trkpt lat="45.77757" lon="4.84369">
        <ele>167</ele>
        <time>2013-04-22T15:40:20Z</time>
      </trkpt>
      <trkpt lat="45.77757" lon="4.84369">
        <ele>167</ele>
        <time>2013-04-22T15:40:21Z</time>
      </trkpt>
      <trkpt lat="45.77757" lon="4.84369">
        <ele>167</ele>
        <time>2013-04-22T15:40:22Z</time>
      </trkpt>
      <trkpt lat="45.77757" lon="4.84369">
        <ele>167</ele>
        <time>2013-04-22T15:40:23Z</time>
      </trkpt>
      <trkpt lat="45.77757" lon="4.84369">
        <ele>167</ele>
        <time>2013-04-22T15:40:24Z</time>
      </trkpt>
      <trkpt lat="45.77757" lon="4.84369">
        <ele>167</ele>
        <time>2013-04-22T15:40:25Z</time>
      </trkpt>
      <trkpt lat="45.77757" lon="4.84369">
        <ele>167</ele>
        <time>2013-04-22T15:40:36Z</time>
      </trkpt>
      <trkpt lat="45.77751" lon="4.8437">
        <ele>167</ele>
        <time>2013-04-22T15:40:42Z</time>
      </trkpt>
      <trkpt lat="45.77735" lon="4.84373">
        <ele>168</ele>
        <time>2013-04-22T15:40:46Z</time>
      </trkpt>
      <trkpt lat="45.77709" lon="4.84374">
        <ele>168</ele>
        <time>2013-04-22T15:40:53Z</time>
      </trkpt>
      <trkpt lat="45.77687" lon="4.84365">
        <ele>169</ele>
        <time>2013-04-22T15:40:59Z</time>
      </trkpt>
      <trkpt lat="45.77665" lon="4.84352">
        <ele>171</ele>
        <time>2013-04-22T15:41:06Z</time>
      </trkpt>
      <trkpt lat="45.77653" lon="4.84347">
        <ele>171</ele>
        <time>2013-04-22T15:41:09Z</time>
      </trkpt>
      <trkpt lat="45.77645" lon="4.84341">
        <ele>172</ele>
        <time>2013-04-22T15:41:11Z</time>
      </trkpt>
      <trkpt lat="45.77625" lon="4.84328">
        <ele>170</ele>
        <time>2013-04-22T15:41:16Z</time>
      </trkpt>
      <trkpt lat="45.77622" lon="4.84325">
        <ele>170</ele>
        <time>2013-04-22T15:41:17Z</time>
      </trkpt>
      <trkpt lat="45.77609" lon="4.84316">
        <ele>171</ele>
        <time>2013-04-22T15:41:20Z</time>
      </trkpt>
      <trkpt lat="45.77604" lon="4.84314">
        <ele>171</ele>
        <time>2013-04-22T15:41:21Z</time>
      </trkpt>
      <trkpt lat="45.77578" lon="4.84293">
        <ele>172</ele>
        <time>2013-04-22T15:41:27Z</time>
      </trkpt>
      <trkpt lat="45.77565" lon="4.84283">
        <ele>172</ele>
        <time>2013-04-22T15:41:30Z</time>
      </trkpt>
      <trkpt lat="45.77552" lon="4.84276">
        <ele>172</ele>
        <time>2013-04-22T15:41:33Z</time>
      </trkpt>
      <trkpt lat="45.77532" lon="4.84262">
        <ele>171</ele>
        <time>2013-04-22T15:41:38Z</time>
      </trkpt>
      <trkpt lat="45.77528" lon="4.84259">
        <ele>171</ele>
        <time>2013-04-22T15:41:39Z</time>
      </trkpt>
      <trkpt lat="45.77492" lon="4.84234">
        <ele>171</ele>
        <time>2013-04-22T15:41:47Z</time>
      </trkpt>
      <trkpt lat="45.77459" lon="4.84213">
        <ele>172</ele>
        <time>2013-04-22T15:41:54Z</time>
      </trkpt>
      <trkpt lat="45.77426" lon="4.84189">
        <ele>172</ele>
        <time>2013-04-22T15:42:01Z</time>
      </trkpt>
      <trkpt lat="45.77392" lon="4.84165">
        <ele>170</ele>
        <time>2013-04-22T15:42:08Z</time>
      </trkpt>
      <trkpt lat="45.77353" lon="4.84138">
        <ele>170</ele>
        <time>2013-04-22T15:42:16Z</time>
      </trkpt>
      <trkpt lat="45.7732" lon="4.84114">
        <ele>171</ele>
        <time>2013-04-22T15:42:23Z</time>
      </trkpt>
      <trkpt lat="45.77288" lon="4.84094">
        <ele>171</ele>
        <time>2013-04-22T15:42:30Z</time>
      </trkpt>
      <trkpt lat="45.77261" lon="4.84083">
        <ele>170</ele>
        <time>2013-04-22T15:42:36Z</time>
      </trkpt>
      <trkpt lat="45.77235" lon="4.84078">
        <ele>170</ele>
        <time>2013-04-22T15:42:42Z</time>
      </trkpt>
      <trkpt lat="45.77204" lon="4.84076">
        <ele>168</ele>
        <time>2013-04-22T15:42:48Z</time>
      </trkpt>
      <trkpt lat="45.77175" lon="4.84076">
        <ele>167</ele>
        <time>2013-04-22T15:42:54Z</time>
      </trkpt>
      <trkpt lat="45.77139" lon="4.84074">
        <ele>167</ele>
        <time>2013-04-22T15:43:02Z</time>
      </trkpt>
      <trkpt lat="45.771" lon="4.84072">
        <ele>169</ele>
        <time>2013-04-22T15:43:10Z</time>
      </trkpt>
      <trkpt lat="45.77062" lon="4.84071">
        <ele>170</ele>
        <time>2013-04-22T15:43:18Z</time>
      </trkpt>
      <trkpt lat="45.77028" lon="4.8407">
        <ele>170</ele>
        <time>2013-04-22T15:43:25Z</time>
      </trkpt>
      <trkpt lat="45.77" lon="4.8407">
        <ele>171</ele>
        <time>2013-04-22T15:43:31Z</time>
      </trkpt>
      <trkpt lat="45.76991" lon="4.8407">
        <ele>171</ele>
        <time>2013-04-22T15:43:33Z</time>
      </trkpt>
      <trkpt lat="45.76982" lon="4.84069">
        <ele>170</ele>
        <time>2013-04-22T15:43:35Z</time>
      </trkpt>
      <trkpt lat="45.76973" lon="4.84069">
        <ele>170</ele>
        <time>2013-04-22T15:43:37Z</time>
      </trkpt>
      <trkpt lat="45.76949" lon="4.84068">
        <ele>169</ele>
        <time>2013-04-22T15:43:42Z</time>
      </trkpt>
      <trkpt lat="45.76913" lon="4.84069">
        <ele>169</ele>
        <time>2013-04-22T15:43:49Z</time>
      </trkpt>
      <trkpt lat="45.76873" lon="4.84074">
        <ele>167</ele>
        <time>2013-04-22T15:43:57Z</time>
      </trkpt>
      <trkpt lat="45.76842" lon="4.84074">
        <ele>167</ele>
        <time>2013-04-22T15:44:04Z</time>
      </trkpt>
      <trkpt lat="45.76833" lon="4.84074">
        <ele>166</ele>
        <time>2013-04-22T15:44:06Z</time>
      </trkpt>
      <trkpt lat="45.7682" lon="4.84076">
        <ele>166</ele>
        <time>2013-04-22T15:44:09Z</time>
      </trkpt>
      <trkpt lat="45.76816" lon="4.84077">
        <ele>166</ele>
        <time>2013-04-22T15:44:10Z</time>
      </trkpt>
      <trkpt lat="45.76784" lon="4.84078">
        <ele>167</ele>
        <time>2013-04-22T15:44:17Z</time>
      </trkpt>
      <trkpt lat="45.76745" lon="4.8408">
        <ele>168</ele>
        <time>2013-04-22T15:44:25Z</time>
      </trkpt>
      <trkpt lat="45.76722" lon="4.84082">
        <ele>167</ele>
        <time>2013-04-22T15:44:30Z</time>
      </trkpt>
      <trkpt lat="45.76718" lon="4.84082">
        <ele>167</ele>
        <time>2013-04-22T15:44:31Z</time>
      </trkpt>
      <trkpt lat="45.76713" lon="4.84083">
        <ele>167</ele>
        <time>2013-04-22T15:44:32Z</time>
      </trkpt>
      <trkpt lat="45.76709" lon="4.84083">
        <ele>172</ele>
        <time>2013-04-22T15:44:33Z</time>
      </trkpt>
      <trkpt lat="45.76705" lon="4.84084">
        <ele>172</ele>
        <time>2013-04-22T15:44:34Z</time>
      </trkpt>
      <trkpt lat="45.76681" lon="4.84087">
        <ele>170</ele>
        <time>2013-04-22T15:44:40Z</time>
      </trkpt>
      <trkpt lat="45.7666" lon="4.84091">
        <ele>170</ele>
        <time>2013-04-22T15:44:46Z</time>
      </trkpt>
      <trkpt lat="45.76601" lon="4.841">
        <ele>171</ele>
        <time>2013-04-22T15:46:00Z</time>
      </trkpt>
      <trkpt lat="45.76511" lon="4.84103">
        <ele>171</ele>
        <time>2013-04-22T15:50:33Z</time>
      </trkpt>
      <trkpt lat="45.76497" lon="4.84102">
        <ele>170</ele>
        <time>2013-04-22T15:50:36Z</time>
      </trkpt>
      <trkpt lat="45.76484" lon="4.84103">
        <ele>170</ele>
        <time>2013-04-22T15:50:39Z</time>
      </trkpt>
      <trkpt lat="45.76448" lon="4.841">
        <ele>170</ele>
        <time>2013-04-22T15:50:47Z</time>
      </trkpt>
      <trkpt lat="45.76416" lon="4.84098">
        <ele>168</ele>
        <time>2013-04-22T15:50:54Z</time>
      </trkpt>
      <trkpt lat="45.76393" lon="4.84097">
        <ele>169</ele>
        <time>2013-04-22T15:50:58Z</time>
      </trkpt>
      <trkpt lat="45.76387" lon="4.84096">
        <ele>169</ele>
        <time>2013-04-22T15:50:59Z</time>
      </trkpt>
      <trkpt lat="45.76372" lon="4.84096">
        <ele>169</ele>
        <time>2013-04-22T15:51:44Z</time>
      </trkpt>
      <trkpt lat="45.76371" lon="4.84096">
        <ele>169</ele>
        <time>2013-04-22T15:51:45Z</time>
      </trkpt>
      <trkpt lat="45.76371" lon="4.84096">
        <ele>169</ele>
        <time>2013-04-22T15:51:51Z</time>
      </trkpt>
      <trkpt lat="45.76371" lon="4.84096">
        <ele>169</ele>
        <time>2013-04-22T15:52:05Z</time>
      </trkpt>
      <trkpt lat="45.76371" lon="4.84096">
        <ele>169</ele>
        <time>2013-04-22T15:52:19Z</time>
      </trkpt>
      <trkpt lat="45.76369" lon="4.84096">
        <ele>169</ele>
        <time>2013-04-22T15:52:28Z</time>
      </trkpt>
      <trkpt lat="45.76359" lon="4.84097">
        <ele>169</ele>
        <time>2013-04-22T15:52:32Z</time>
      </trkpt>
      <trkpt lat="45.76347" lon="4.84101">
        <ele>168</ele>
        <time>2013-04-22T15:52:35Z</time>
      </trkpt>
      <trkpt lat="45.76342" lon="4.841">
        <ele>168</ele>
        <time>2013-04-22T15:52:36Z</time>
      </trkpt>
      <trkpt lat="45.76332" lon="4.84099">
        <ele>168</ele>
        <time>2013-04-22T15:52:38Z</time>
      </trkpt>
      <trkpt lat="45.76314" lon="4.84099">
        <ele>169</ele>
        <time>2013-04-22T15:52:42Z</time>
      </trkpt>
      <trkpt lat="45.7628" lon="4.84096">
        <ele>169</ele>
        <time>2013-04-22T15:52:49Z</time>
      </trkpt>
      <trkpt lat="45.76227" lon="4.8409">
        <ele>170</ele>
        <time>2013-04-22T15:53:00Z</time>
      </trkpt>
      <trkpt lat="45.76196" lon="4.84086">
        <ele>170</ele>
        <time>2013-04-22T15:53:07Z</time>
      </trkpt>
      <trkpt lat="45.7617" lon="4.84085">
        <ele>169</ele>
        <time>2013-04-22T15:53:13Z</time>
      </trkpt>
      <trkpt lat="45.76166" lon="4.84084">
        <ele>168</ele>
        <time>2013-04-22T15:53:14Z</time>
      </trkpt>
      <trkpt lat="45.76133" lon="4.84079">
        <ele>167</ele>
        <time>2013-04-22T15:53:21Z</time>
      </trkpt>
      <trkpt lat="45.76094" lon="4.84074">
        <ele>168</ele>
        <time>2013-04-22T15:53:29Z</time>
      </trkpt>
      <trkpt lat="45.76043" lon="4.84071">
        <ele>168</ele>
        <time>2013-04-22T15:53:39Z</time>
      </trkpt>
      <trkpt lat="45.76003" lon="4.84068">
        <ele>168</ele>
        <time>2013-04-22T15:53:47Z</time>
      </trkpt>
      <trkpt lat="45.75976" lon="4.84067">
        <ele>168</ele>
        <time>2013-04-22T15:53:52Z</time>
      </trkpt>
      <trkpt lat="45.75966" lon="4.84065">
        <ele>168</ele>
        <time>2013-04-22T15:53:54Z</time>
      </trkpt>
      <trkpt lat="45.75926" lon="4.84056">
        <ele>169</ele>
        <time>2013-04-22T15:54:02Z</time>
      </trkpt>
      <trkpt lat="45.75887" lon="4.84047">
        <ele>168</ele>
        <time>2013-04-22T15:54:09Z</time>
      </trkpt>
      <trkpt lat="45.75847" lon="4.84036">
        <ele>168</ele>
        <time>2013-04-22T15:54:16Z</time>
      </trkpt>
      <trkpt lat="45.75808" lon="4.84024">
        <ele>168</ele>
        <time>2013-04-22T15:54:23Z</time>
      </trkpt>
      <trkpt lat="45.75761" lon="4.84008">
        <ele>167</ele>
        <time>2013-04-22T15:54:32Z</time>
      </trkpt>
      <trkpt lat="45.75722" lon="4.83991">
        <ele>166</ele>
        <time>2013-04-22T15:54:40Z</time>
      </trkpt>
      <trkpt lat="45.75683" lon="4.83973">
        <ele>166</ele>
        <time>2013-04-22T15:54:48Z</time>
      </trkpt>
      <trkpt lat="45.75657" lon="4.83953">
        <ele>165</ele>
      </trkpt>
      <trkpt lat="45.75792" lon="4.83426">
        <ele>179</ele>
      </trkpt>
      <trkpt lat="45.75798" lon="4.83411">
        <ele>177</ele>
      </trkpt>
      <trkpt lat="45.75843" lon="4.83246">
        <ele>178</ele>
      </trkpt>
    </trkseg>
  </trk>
</gpx>